Time,TemperatureF,DewpointF,PressureIn,WindDirection,WindDirectionDegrees,WindSpeedMPH,WindSpeedGustMPH,Humidity,HourlyPrecipIn,Conditions,Clouds,dailyrainin,SolarRadiationWatts/m^2,SoftwareType,DateUTC
2013-03-12 00:00:00,67.9,25.9,29.53,NW,322,2.3,2.5,20,-99.99,,,0.00,0,rob ver 1B,2013-03-12 07:00:00,
2013-03-12 00:01:00,67.9,25.9,29.53,NW,306,2.3,2.5,20,-99.99,,,0.00,0,rob ver 1B,2013-03-12 07:01:00,
2013-03-12 00:02:00,67.7,25.9,29.53,West,268,2.1,2.8,20,-99.99,,,0.00,0,rob ver 1B,2013-03-12 07:02:00,
2013-03-12 00:03:00,60.0,25.9,29.53,NE,38,3.7,4.9,26,-99.99,,,0.00,0,rob ver 1A,2013-03-12 07:03:00,
2013-03-12 00:04:00,66.9,25.9,29.53,NW,305,1.9,2.5,21,-99.99,,,0.00,0,rob ver 1B,2013-03-12 07:04:00,
2013-03-12 00:05:00,67.0,25.9,29.53,NW,310,2.1,2.4,21,-99.99,,,0.00,0,rob ver 1B,2013-03-12 07:05:00,
2013-03-12 00:06:00,67.0,25.9,29.53,NW,306,2.1,2.5,21,-99.99,,,0.00,0,rob ver 1B,2013-03-12 07:06:00,
2013-03-12 00:07:00,67.0,25.9,29.53,NW,305,2.4,2.9,21,-99.99,,,0.00,0,rob ver 1B,2013-03-12 07:07:00,
2013-03-12 00:08:00,59.8,25.9,29.53,NNE,27,3.8,4.2,27,-99.99,,,0.00,0,rob ver 1A,2013-03-12 07:08:00,
2013-03-12 00:09:00,67.2,25.9,29.53,WNW,302,2.5,3.1,21,-99.99,,,0.00,0,rob ver 1B,2013-03-12 07:09:00,
2013-03-12 00:10:00,67.0,25.8,29.53,West,280,2.0,2.6,21,-99.99,,,0.00,0,rob ver 1B,2013-03-12 07:10:00,
2013-03-12 00:11:00,66.8,25.9,29.53,WSW,240,2.5,2.9,21,-99.99,,,0.00,0,rob ver 1B,2013-03-12 07:11:00,
2013-03-12 00:12:00,66.3,25.9,29.53,SW,231,2.9,3.4,21,-99.99,,,0.00,0,rob ver 1B,2013-03-12 07:12:00,
2013-03-12 00:13:00,66.0,26.0,29.53,WSW,237,2.4,2.7,22,-99.99,,,0.00,0,rob ver 1B,2013-03-12 07:13:00,
2013-03-12 00:14:00,59.5,25.8,29.53,NNE,27,3.5,4.2,27,-99.99,,,0.00,0,rob ver 1A,2013-03-12 07:14:00,
2013-03-12 00:15:00,65.4,26.4,29.53,SW,223,2.0,2.6,22,-99.99,,,0.00,0,rob ver 1B,2013-03-12 07:15:00,
2013-03-12 00:16:00,65.1,26.5,29.53,SW,226,1.9,2.2,23,-99.99,,,0.00,0,rob ver 1B,2013-03-12 07:16:00,
2013-03-12 00:17:00,64.8,26.4,29.53,SW,226,1.9,2.2,23,-99.99,,,0.00,0,rob ver 1B,2013-03-12 07:17:00,
2013-03-12 00:18:00,64.6,26.4,29.53,SW,228,2.1,2.7,23,-99.99,,,0.00,0,rob ver 1B,2013-03-12 07:18:00,
2013-03-12 00:19:00,59.2,25.8,29.53,NNE,21,3.8,4.4,27,-99.99,,,0.00,0,rob ver 1A,2013-03-12 07:19:00,
2013-03-12 00:20:00,64.0,26.3,29.53,SW,234,3.0,3.5,23,-99.99,,,0.00,0,rob ver 1B,2013-03-12 07:20:00,
2013-03-12 00:21:00,63.8,26.3,29.53,WSW,257,3.1,3.7,23,-99.99,,,0.00,0,rob ver 1B,2013-03-12 07:21:00,
2013-03-12 00:22:00,63.9,26.3,29.53,West,264,2.5,2.9,23,-99.99,,,0.00,0,rob ver 1B,2013-03-12 07:22:00,
2013-03-12 00:23:00,64.0,26.3,29.53,WSW,258,2.1,2.5,23,-99.99,,,0.00,0,rob ver 1B,2013-03-12 07:23:00,
2013-03-12 00:24:00,59.2,26.1,29.53,North,8,5.0,5.4,27,-99.99,,,0.00,0,rob ver 1A,2013-03-12 07:24:00,
2013-03-12 00:25:00,64.0,26.3,29.53,WSW,248,2.2,2.5,23,-99.99,,,0.00,0,rob ver 1B,2013-03-12 07:25:00,
2013-03-12 00:26:00,64.0,26.3,29.53,WSW,247,2.4,2.8,23,-99.99,,,0.00,0,rob ver 1B,2013-03-12 07:26:00,
2013-03-12 00:27:00,64.3,26.2,29.53,West,259,2.4,2.6,23,-99.99,,,0.00,0,rob ver 1B,2013-03-12 07:27:00,
2013-03-12 00:28:00,64.7,26.2,29.53,West,261,2.4,2.6,23,-99.99,,,0.00,0,rob ver 1B,2013-03-12 07:28:00,
2013-03-12 00:29:00,59.2,26.2,29.50,North,6,4.2,4.5,28,-99.99,,,0.00,0,rob ver 1A,2013-03-12 07:29:00,
2013-03-12 00:30:00,65.1,26.4,29.53,SW,219,2.3,2.4,23,-99.99,,,0.00,0,rob ver 1B,2013-03-12 07:30:00,
2013-03-12 00:31:00,65.0,26.5,29.53,SSW,213,2.0,2.2,23,-99.99,,,0.00,0,rob ver 1B,2013-03-12 07:31:00,
2013-03-12 00:32:00,65.0,26.5,29.53,SSW,213,1.8,2.0,23,-99.99,,,0.00,0,rob ver 1B,2013-03-12 07:32:00,
2013-03-12 00:33:00,64.9,26.5,29.53,SSW,210,1.6,1.8,23,-99.99,,,0.00,0,rob ver 1B,2013-03-12 07:33:00,
2013-03-12 00:34:00,58.9,26.2,29.50,NNE,12,4.2,4.4,28,-99.99,,,0.00,0,rob ver 1A,2013-03-12 07:34:00,
2013-03-12 00:35:00,64.7,26.5,29.53,SW,219,1.6,1.8,23,-99.99,,,0.00,0,rob ver 1B,2013-03-12 07:35:00,
2013-03-12 00:36:00,64.7,26.5,29.53,SW,221,1.3,1.5,23,-99.99,,,0.00,0,rob ver 1B,2013-03-12 07:36:00,
2013-03-12 00:37:00,64.6,26.5,29.53,WSW,237,1.3,1.9,23,-99.99,,,0.00,0,rob ver 1B,2013-03-12 07:37:00,
2013-03-12 00:38:00,64.6,26.4,29.53,SW,235,1.0,1.3,23,-99.99,,,0.00,0,rob ver 1B,2013-03-12 07:38:00,
2013-03-12 00:39:00,58.3,26.1,29.50,NNE,20,2.9,3.4,28,-99.99,,,0.00,0,rob ver 1A,2013-03-12 07:39:00,
2013-03-12 00:40:00,64.6,26.5,29.53,East,87,0.5,0.7,23,-99.99,,,0.00,0,rob ver 1B,2013-03-12 07:40:00,
2013-03-12 00:41:00,64.5,26.4,29.53,ENE,64,0.4,0.8,23,-99.99,,,0.00,0,rob ver 1B,2013-03-12 07:41:00,
2013-03-12 00:42:00,64.5,26.3,29.53,NNE,25,1.0,1.6,23,-99.99,,,0.00,0,rob ver 1B,2013-03-12 07:42:00,
2013-03-12 00:43:00,64.5,26.3,29.53,NNE,30,1.1,1.6,23,-99.99,,,0.00,0,rob ver 1B,2013-03-12 07:43:00,
2013-03-12 00:44:00,58.7,26.2,29.50,NNE,30,3.1,3.5,28,-99.99,,,0.00,0,rob ver 1A,2013-03-12 07:44:00,
2013-03-12 00:45:00,64.7,26.2,29.53,NNE,21,1.3,1.5,22,-99.99,,,0.00,0,rob ver 1B,2013-03-12 07:45:00,
2013-03-12 00:46:00,64.9,26.2,29.53,North,7,1.2,1.6,22,-99.99,,,0.00,0,rob ver 1B,2013-03-12 07:46:00,
2013-03-12 00:47:00,65.1,26.1,29.53,NNE,14,1.5,2.0,22,-99.99,,,0.00,0,rob ver 1B,2013-03-12 07:47:00,
2013-03-12 00:48:00,65.2,26.1,29.53,North,6,2.1,2.8,22,-99.99,,,0.00,0,rob ver 1B,2013-03-12 07:48:00,
2013-03-12 00:49:00,59.0,26.0,29.50,NE,36,4.5,4.9,28,-99.99,,,0.00,0,rob ver 1A,2013-03-12 07:49:00,
2013-03-12 00:50:00,65.4,25.9,29.53,North,349,2.4,2.9,22,-99.99,,,0.00,0,rob ver 1B,2013-03-12 07:50:00,
2013-03-12 00:51:00,65.6,25.8,29.53,NNW,348,2.3,2.6,21,-99.99,,,0.00,0,rob ver 1B,2013-03-12 07:51:00,
2013-03-12 00:52:00,65.8,25.9,29.53,NNW,335,1.7,2.1,21,-99.99,,,0.00,0,rob ver 1B,2013-03-12 07:52:00,
2013-03-12 00:53:00,65.9,26.0,29.53,NW,318,1.4,1.9,21,-99.99,,,0.00,0,rob ver 1B,2013-03-12 07:53:00,
2013-03-12 00:54:00,58.5,26.3,29.50,NE,35,4.3,4.6,29,-99.99,,,0.00,0,rob ver 1A,2013-03-12 07:54:00,
2013-03-12 00:55:00,65.7,26.1,29.53,WSW,251,1.6,1.8,22,-99.99,,,0.00,0,rob ver 1B,2013-03-12 07:55:00,
2013-03-12 00:56:00,65.5,26.0,29.53,WSW,250,1.3,1.5,22,-99.99,,,0.00,0,rob ver 1B,2013-03-12 07:56:00,
2013-03-12 00:57:00,65.4,26.0,29.53,WSW,244,1.1,1.3,22,-99.99,,,0.00,0,rob ver 1B,2013-03-12 07:57:00,
2013-03-12 00:58:00,65.4,26.1,29.53,SW,234,1.4,1.6,22,-99.99,,,0.00,0,rob ver 1B,2013-03-12 07:58:00,
2013-03-12 00:59:00,58.3,26.1,29.50,NNE,24,4.5,5.2,28,-99.99,,,0.00,0,rob ver 1A,2013-03-12 07:59:00,
2013-03-12 01:00:00,65.4,26.3,29.53,SW,219,1.7,2.1,22,-99.99,,,0.00,0,rob ver 1B,2013-03-12 08:00:00,
2013-03-12 01:01:00,65.4,26.3,29.53,SW,217,2.4,2.6,22,-99.99,,,0.00,0,rob ver 1B,2013-03-12 08:01:00,
2013-03-12 01:02:00,65.4,26.3,29.53,SSW,212,2.7,2.8,22,-99.99,,,0.00,0,rob ver 1B,2013-03-12 08:02:00,
2013-03-12 01:03:00,65.3,26.3,29.53,SSW,206,2.7,2.8,22,-99.99,,,0.00,0,rob ver 1B,2013-03-12 08:03:00,
2013-03-12 01:04:00,58.1,26.0,29.50,NE,36,2.8,3.3,28,-99.99,,,0.00,0,rob ver 1A,2013-03-12 08:04:00,
2013-03-12 01:05:00,65.1,26.4,29.53,SSW,197,2.4,2.5,22,-99.99,,,0.00,0,rob ver 1B,2013-03-12 08:05:00,
2013-03-12 01:08:00,64.8,26.4,29.53,South,184,1.6,1.9,23,-99.99,,,0.00,0,rob ver 1B,2013-03-12 08:08:00,
2013-03-12 01:09:00,64.7,26.5,29.53,SSE,166,1.6,1.8,23,-99.99,,,0.00,0,rob ver 1B,2013-03-12 08:09:00,
2013-03-12 01:10:00,58.6,26.4,29.50,NE,38,4.3,4.7,29,-99.99,,,0.00,0,rob ver 1A,2013-03-12 08:10:00,
2013-03-12 01:11:00,64.1,26.4,29.53,ESE,103,2.2,2.6,24,-99.99,,,0.00,0,rob ver 1B,2013-03-12 08:11:00,
2013-03-12 01:12:00,63.8,26.4,29.53,ESE,109,2.1,2.3,24,-99.99,,,0.00,0,rob ver 1B,2013-03-12 08:12:00,
2013-03-12 01:13:00,63.8,26.4,29.53,ESE,112,1.9,2.1,24,-99.99,,,0.00,0,rob ver 1B,2013-03-12 08:13:00,
2013-03-12 01:14:00,63.9,26.5,29.53,ESE,117,1.7,1.9,23,-99.99,,,0.00,0,rob ver 1B,2013-03-12 08:14:00,
2013-03-12 01:15:00,57.8,26.9,29.50,NE,37,4.6,5.1,30,-99.99,,,0.00,0,rob ver 1A,2013-03-12 08:15:00,
2013-03-12 01:16:00,64.1,26.5,29.53,SE,127,1.0,1.1,23,-99.99,,,0.00,0,rob ver 1B,2013-03-12 08:16:00,
2013-03-12 01:17:00,64.2,26.5,29.53,ESE,117,0.7,0.9,23,-99.99,,,0.00,0,rob ver 1B,2013-03-12 08:17:00,
2013-03-12 01:18:00,64.1,26.5,29.53,ESE,106,0.7,0.9,23,-99.99,,,0.00,0,rob ver 1B,2013-03-12 08:18:00,
2013-03-12 01:19:00,64.0,26.5,29.53,ENE,69,0.7,0.8,24,-99.99,,,0.00,0,rob ver 1B,2013-03-12 08:19:00,
2013-03-12 01:20:00,57.1,27.0,29.50,NE,34,4.4,4.7,31,-99.99,,,0.00,0,rob ver 1A,2013-03-12 08:20:00,
2013-03-12 01:21:00,63.9,26.5,29.53,NNW,346,0.4,0.8,23,-99.99,,,0.00,0,rob ver 1B,2013-03-12 08:21:00,
2013-03-12 01:22:00,63.9,26.4,29.53,WSW,255,0.5,0.7,23,-99.99,,,0.00,0,rob ver 1B,2013-03-12 08:22:00,
2013-03-12 01:23:00,63.9,26.4,29.53,WNW,296,0.5,0.6,24,-99.99,,,0.00,0,rob ver 1B,2013-03-12 08:23:00,
2013-03-12 01:24:00,63.9,26.4,29.53,NW,323,0.6,0.8,24,-99.99,,,0.00,0,rob ver 1B,2013-03-12 08:24:00,
2013-03-12 01:25:00,57.1,27.1,29.50,NNE,27,4.0,4.4,31,-99.99,,,0.00,0,rob ver 1A,2013-03-12 08:25:00,
2013-03-12 01:26:00,64.0,26.3,29.53,WNW,302,1.0,1.1,23,-99.99,,,0.00,0,rob ver 1B,2013-03-12 08:26:00,
2013-03-12 01:27:00,64.1,26.4,29.53,WNW,289,0.9,1.1,23,-99.99,,,0.00,0,rob ver 1B,2013-03-12 08:27:00,
2013-03-12 01:28:00,64.1,26.4,29.53,West,273,1.0,1.1,23,-99.99,,,0.00,0,rob ver 1B,2013-03-12 08:28:00,
2013-03-12 01:29:00,64.1,26.4,29.53,WSW,255,1.1,1.4,23,-99.99,,,0.00,0,rob ver 1B,2013-03-12 08:29:00,
2013-03-12 01:30:00,56.9,26.5,29.50,North,1,3.6,3.9,30,-99.99,,,0.00,0,rob ver 1A,2013-03-12 08:30:00,
2013-03-12 01:31:00,64.1,26.4,29.53,West,270,1.1,1.2,23,-99.99,,,0.00,0,rob ver 1B,2013-03-12 08:31:00,
2013-03-12 01:32:00,64.1,26.3,29.53,West,272,1.2,1.3,23,-99.99,,,0.00,0,rob ver 1B,2013-03-12 08:32:00,
2013-03-12 01:33:00,64.2,26.4,29.53,West,272,1.1,1.3,23,-99.99,,,0.00,0,rob ver 1B,2013-03-12 08:33:00,
2013-03-12 01:34:00,64.2,26.4,29.53,West,272,0.9,1.0,23,-99.99,,,0.00,0,rob ver 1B,2013-03-12 08:34:00,
2013-03-12 01:35:00,57.9,26.6,29.50,North,5,4.6,4.8,29,-99.99,,,0.00,0,rob ver 1A,2013-03-12 08:35:00,
2013-03-12 01:36:00,64.1,26.4,29.53,WSW,255,1.0,1.2,23,-99.99,,,0.00,0,rob ver 1B,2013-03-12 08:36:00,
2013-03-12 01:37:00,64.1,26.4,29.53,WSW,241,1.0,1.1,23,-99.99,,,0.00,0,rob ver 1B,2013-03-12 08:37:00,
2013-03-12 01:38:00,64.1,26.4,29.53,SW,234,1.2,1.3,23,-99.99,,,0.00,0,rob ver 1B,2013-03-12 08:38:00,
2013-03-12 01:39:00,64.1,26.4,29.53,SW,233,1.4,1.6,23,-99.99,,,0.00,0,rob ver 1B,2013-03-12 08:39:00,
2013-03-12 01:40:00,57.9,26.7,29.50,North,1,4.1,4.6,30,-99.99,,,0.00,0,rob ver 1A,2013-03-12 08:40:00,
2013-03-12 01:41:00,64.1,26.4,29.53,WSW,238,0.9,1.3,23,-99.99,,,0.00,0,rob ver 1B,2013-03-12 08:41:00,
2013-03-12 01:42:00,64.0,26.4,29.53,SW,232,1.3,1.7,23,-99.99,,,0.00,0,rob ver 1B,2013-03-12 08:42:00,
2013-03-12 01:43:00,64.0,26.4,29.53,SW,221,1.7,1.9,23,-99.99,,,0.00,0,rob ver 1B,2013-03-12 08:43:00,
2013-03-12 01:44:00,64.0,26.4,29.53,SW,216,1.6,1.8,23,-99.99,,,0.00,0,rob ver 1B,2013-03-12 08:44:00,
2013-03-12 01:45:00,57.5,26.7,29.50,North,5,4.1,4.4,30,-99.99,,,0.00,0,rob ver 1A,2013-03-12 08:45:00,
2013-03-12 01:46:00,63.8,26.3,29.53,SSW,211,1.8,2.1,24,-99.99,,,0.00,0,rob ver 1B,2013-03-12 08:46:00,
2013-03-12 01:47:00,63.8,26.3,29.53,SSW,207,1.8,2.0,24,-99.99,,,0.00,0,rob ver 1B,2013-03-12 08:47:00,
2013-03-12 01:48:00,63.7,26.3,29.53,SSW,193,1.4,1.8,24,-99.99,,,0.00,0,rob ver 1B,2013-03-12 08:48:00,
2013-03-12 01:49:00,63.7,26.4,29.53,SSW,194,1.5,1.7,24,-99.99,,,0.00,0,rob ver 1B,2013-03-12 08:49:00,
2013-03-12 01:50:00,56.8,26.6,29.50,NNE,27,4.5,5.0,31,-99.99,,,0.00,0,rob ver 1A,2013-03-12 08:50:00,
2013-03-12 01:51:00,63.6,26.4,29.53,SSW,196,1.8,2.1,24,-99.99,,,0.00,0,rob ver 1B,2013-03-12 08:51:00,
2013-03-12 01:52:00,63.5,26.4,29.53,South,191,1.9,2.6,24,-99.99,,,0.00,0,rob ver 1B,2013-03-12 08:52:00,
2013-03-12 01:53:00,63.4,26.4,29.53,South,179,1.5,1.8,24,-99.99,,,0.00,0,rob ver 1B,2013-03-12 08:53:00,
2013-03-12 01:54:00,63.3,26.4,29.53,SSE,156,1.3,1.8,24,-99.99,,,0.00,0,rob ver 1B,2013-03-12 08:54:00,
2013-03-12 01:55:00,57.5,26.6,29.50,NE,36,4.2,4.5,30,-99.99,,,0.00,0,rob ver 1A,2013-03-12 08:55:00,
2013-03-12 01:56:00,63.3,26.4,29.53,SSE,166,1.6,2.0,24,-99.99,,,0.00,0,rob ver 1B,2013-03-12 08:56:00,
2013-03-12 01:57:00,63.3,26.4,29.53,South,180,1.7,2.1,24,-99.99,,,0.00,0,rob ver 1B,2013-03-12 08:57:00,
2013-03-12 01:58:00,63.3,26.4,29.53,South,190,1.9,2.3,24,-99.99,,,0.00,0,rob ver 1B,2013-03-12 08:58:00,
2013-03-12 01:59:00,63.2,26.4,29.53,South,187,2.3,2.6,24,-99.99,,,0.00,0,rob ver 1B,2013-03-12 08:59:00,
2013-03-12 02:00:00,57.1,26.5,29.50,North,6,3.4,4.3,30,-99.99,,,0.00,0,rob ver 1A,2013-03-12 09:00:00,
2013-03-12 02:01:00,63.2,26.3,29.53,South,191,2.9,3.8,24,-99.99,,,0.00,0,rob ver 1B,2013-03-12 09:01:00,
2013-03-12 02:02:00,63.3,26.4,29.53,SSW,195,2.5,3.4,24,-99.99,,,0.00,0,rob ver 1B,2013-03-12 09:02:00,
2013-03-12 02:03:00,63.3,26.3,29.53,SSW,195,2.7,3.1,24,-99.99,,,0.00,0,rob ver 1B,2013-03-12 09:03:00,
2013-03-12 02:04:00,63.2,26.4,29.53,South,188,2.4,2.9,24,-99.99,,,0.00,0,rob ver 1B,2013-03-12 09:04:00,
2013-03-12 02:05:00,57.1,26.7,29.50,North,6,5.6,5.8,30,-99.99,,,0.00,0,rob ver 1A,2013-03-12 09:05:00,
2013-03-12 02:06:00,63.0,26.4,29.53,SSE,153,2.4,2.7,24,-99.99,,,0.00,0,rob ver 1B,2013-03-12 09:06:00,
2013-03-12 02:07:00,62.9,26.5,29.53,SE,141,2.4,2.7,25,-99.99,,,0.00,0,rob ver 1B,2013-03-12 09:07:00,
2013-03-12 02:08:00,62.7,26.5,29.53,SE,125,2.3,3.0,25,-99.99,,,0.00,0,rob ver 1B,2013-03-12 09:08:00,
2013-03-12 02:09:00,62.6,26.5,29.53,SE,128,3.2,3.3,25,-99.99,,,0.00,0,rob ver 1B,2013-03-12 09:09:00,
2013-03-12 02:10:00,62.5,26.5,29.53,ESE,120,3.1,3.3,25,-99.99,,,0.00,0,rob ver 1B,2013-03-12 09:10:00,
2013-03-12 02:11:00,57.1,26.6,29.50,North,359,4.8,5.1,30,-99.99,,,0.00,0,rob ver 1A,2013-03-12 09:11:00,
2013-03-12 02:12:00,62.6,26.6,29.53,East,93,2.6,3.1,25,-99.99,,,0.00,0,rob ver 1B,2013-03-12 09:12:00,
2013-03-12 02:13:00,62.5,26.5,29.53,East,83,2.4,3.0,25,-99.99,,,0.00,0,rob ver 1B,2013-03-12 09:13:00,
2013-03-12 02:14:00,62.3,26.4,29.53,ENE,74,1.8,2.7,25,-99.99,,,0.00,0,rob ver 1B,2013-03-12 09:14:00,
2013-03-12 02:15:00,62.1,26.5,29.53,East,79,1.8,2.1,25,-99.99,,,0.00,0,rob ver 1B,2013-03-12 09:15:00,
2013-03-12 02:16:00,57.1,26.7,29.50,NNW,344,4.2,4.5,30,-99.99,,,0.00,0,rob ver 1A,2013-03-12 09:16:00,
2013-03-12 02:17:00,62.1,26.5,29.53,ENE,78,1.3,1.5,25,-99.99,,,0.00,0,rob ver 1B,2013-03-12 09:17:00,
2013-03-12 02:18:00,62.2,26.4,29.53,East,94,0.7,1.1,25,-99.99,,,0.00,0,rob ver 1B,2013-03-12 09:18:00,
2013-03-12 02:19:00,62.4,26.4,29.53,NE,40,0.8,1.3,25,-99.99,,,0.00,0,rob ver 1B,2013-03-12 09:19:00,
2013-03-12 02:20:00,62.5,26.4,29.53,NNE,12,0.9,1.4,25,-99.99,,,0.00,0,rob ver 1B,2013-03-12 09:20:00,
2013-03-12 02:21:00,58.2,25.9,29.50,NNW,329,5.0,5.5,28,-99.99,,,0.00,0,rob ver 1A,2013-03-12 09:21:00,
2013-03-12 02:22:00,62.7,26.3,29.53,NNW,342,1.1,1.5,24,-99.99,,,0.00,0,rob ver 1B,2013-03-12 09:22:00,
2013-03-12 02:23:00,62.7,26.3,29.53,NNW,342,1.4,1.7,24,-99.99,,,0.00,0,rob ver 1B,2013-03-12 09:23:00,
2013-03-12 02:24:00,62.8,26.5,29.53,NNW,339,2.1,2.5,25,-99.99,,,0.00,0,rob ver 1B,2013-03-12 09:24:00,
2013-03-12 02:25:00,62.7,26.7,29.53,NNW,340,2.1,2.5,25,-99.99,,,0.00,0,rob ver 1B,2013-03-12 09:25:00,
2013-03-12 02:26:00,59.2,25.8,29.50,NNW,328,4.7,5.3,27,-99.99,,,0.00,0,rob ver 1A,2013-03-12 09:26:00,
2013-03-12 02:27:00,62.7,26.3,29.53,NNW,334,2.2,2.4,24,-99.99,,,0.00,0,rob ver 1B,2013-03-12 09:27:00,
2013-03-12 02:28:00,62.8,26.3,29.53,NNW,336,2.2,2.5,24,-99.99,,,0.00,0,rob ver 1B,2013-03-12 09:28:00,
2013-03-12 02:29:00,62.9,26.3,29.53,NNW,342,2.2,2.4,24,-99.99,,,0.00,0,rob ver 1B,2013-03-12 09:29:00,
2013-03-12 02:30:00,62.9,26.3,29.53,NNW,335,2.0,2.1,24,-99.99,,,0.00,0,rob ver 1B,2013-03-12 09:30:00,
2013-03-12 02:31:00,59.2,25.8,29.50,NNW,334,4.8,5.2,27,-99.99,,,0.00,0,rob ver 1A,2013-03-12 09:31:00,
2013-03-12 02:32:00,62.8,26.3,29.53,NNW,337,1.9,2.0,24,-99.99,,,0.00,0,rob ver 1B,2013-03-12 09:32:00,
2013-03-12 02:33:00,62.5,26.4,29.53,NNW,341,1.8,2.1,25,-99.99,,,0.00,0,rob ver 1B,2013-03-12 09:33:00,
2013-03-12 02:34:00,62.3,26.5,29.53,NNW,327,1.4,1.6,25,-99.99,,,0.00,0,rob ver 1B,2013-03-12 09:34:00,
2013-03-12 02:35:00,62.1,26.4,29.53,NW,315,1.2,1.3,25,-99.99,,,0.00,0,rob ver 1B,2013-03-12 09:35:00,
2013-03-12 02:36:00,58.9,25.9,29.50,NNW,343,4.2,4.5,28,-99.99,,,0.00,0,rob ver 1A,2013-03-12 09:36:00,
2013-03-12 02:37:00,61.9,26.4,29.53,WNW,303,0.9,1.0,25,-99.99,,,0.00,0,rob ver 1B,2013-03-12 09:37:00,
2013-03-12 02:38:00,61.8,26.4,29.53,NW,321,0.8,0.9,25,-99.99,,,0.00,0,rob ver 1B,2013-03-12 09:38:00,
2013-03-12 02:39:00,61.8,26.3,29.53,NNW,338,0.7,0.8,25,-99.99,,,0.00,0,rob ver 1B,2013-03-12 09:39:00,
2013-03-12 02:40:00,61.7,26.3,29.53,North,6,1.1,1.7,25,-99.99,,,0.00,0,rob ver 1B,2013-03-12 09:40:00,
2013-03-12 02:41:00,58.2,26.0,29.50,NNW,341,5.4,5.9,28,-99.99,,,0.00,0,rob ver 1A,2013-03-12 09:41:00,
2013-03-12 02:42:00,61.8,26.3,29.53,NNE,25,1.6,1.9,25,-99.99,,,0.00,0,rob ver 1B,2013-03-12 09:42:00,
2013-03-12 02:43:00,61.8,26.3,29.53,NNE,33,1.5,1.7,25,-99.99,,,0.00,0,rob ver 1B,2013-03-12 09:43:00,
2013-03-12 02:44:00,61.8,26.3,29.53,NE,42,2.2,2.7,25,-99.99,,,0.00,0,rob ver 1B,2013-03-12 09:44:00,
2013-03-12 02:45:00,61.9,26.3,29.53,NE,45,2.7,3.2,25,-99.99,,,0.00,0,rob ver 1B,2013-03-12 09:45:00,
2013-03-12 02:46:00,59.3,26.0,29.50,NW,320,5.0,5.5,27,-99.99,,,0.00,0,rob ver 1A,2013-03-12 09:46:00,
2013-03-12 02:47:00,61.5,26.3,29.53,NE,46,2.4,2.9,25,-99.99,,,0.00,0,rob ver 1B,2013-03-12 09:47:00,
2013-03-12 02:48:00,61.3,26.3,29.53,NE,49,2.6,2.9,26,-99.99,,,0.00,0,rob ver 1B,2013-03-12 09:48:00,
2013-03-12 02:49:00,61.2,26.2,29.53,NE,46,1.9,2.3,26,-99.99,,,0.00,0,rob ver 1B,2013-03-12 09:49:00,
2013-03-12 02:50:00,61.4,26.2,29.53,NE,43,1.5,1.9,25,-99.99,,,0.00,0,rob ver 1B,2013-03-12 09:50:00,
2013-03-12 02:51:00,58.8,26.2,29.50,NW,314,4.3,4.6,28,-99.99,,,0.00,0,rob ver 1A,2013-03-12 09:51:00,
2013-03-12 02:52:00,62.2,26.2,29.53,NNE,19,1.5,2.0,25,-99.99,,,0.00,0,rob ver 1B,2013-03-12 09:52:00,
2013-03-12 02:53:00,62.5,26.2,29.53,North,8,1.3,1.6,24,-99.99,,,0.00,0,rob ver 1B,2013-03-12 09:53:00,
2013-03-12 02:54:00,62.7,26.3,29.53,North,1,1.5,1.8,24,-99.99,,,0.00,0,rob ver 1B,2013-03-12 09:54:00,
2013-03-12 02:55:00,62.6,26.3,29.53,NNE,14,2.0,2.4,25,-99.99,,,0.00,0,rob ver 1B,2013-03-12 09:55:00,
2013-03-12 02:56:00,58.2,26.0,29.50,WNW,291,1.7,2.6,28,-99.99,,,0.00,0,rob ver 1A,2013-03-12 09:56:00,
2013-03-12 02:57:00,62.4,26.2,29.53,North,359,2.2,2.6,25,-99.99,,,0.00,0,rob ver 1B,2013-03-12 09:57:00,
2013-03-12 02:58:00,62.7,26.3,29.50,North,359,2.4,2.6,24,-99.99,,,0.00,0,rob ver 1B,2013-03-12 09:58:00,
2013-03-12 02:59:00,62.9,26.2,29.50,North,358,2.4,2.7,24,-99.99,,,0.00,0,rob ver 1B,2013-03-12 09:59:00,
2013-03-12 03:00:00,63.1,26.3,29.50,NNW,345,2.3,2.7,24,-99.99,,,0.00,0,rob ver 1B,2013-03-12 10:00:00,
2013-03-12 03:01:00,56.0,25.9,29.50,West,275,2.1,2.4,31,-99.99,,,0.00,0,rob ver 1A,2013-03-12 10:01:00,
2013-03-12 03:02:00,63.4,26.3,29.53,North,355,2.9,3.2,24,-99.99,,,0.00,0,rob ver 1B,2013-03-12 10:02:00,
2013-03-12 03:03:00,63.4,26.3,29.50,North,357,3.0,3.4,24,-99.99,,,0.00,0,rob ver 1B,2013-03-12 10:03:00,
2013-03-12 03:04:00,63.5,26.2,29.50,North,354,2.9,3.1,24,-99.99,,,0.00,0,rob ver 1B,2013-03-12 10:04:00,
2013-03-12 03:05:00,63.5,26.3,29.50,NNW,347,2.8,3.0,24,-99.99,,,0.00,0,rob ver 1B,2013-03-12 10:05:00,
2013-03-12 03:06:00,54.9,25.6,29.50,West,260,1.7,2.0,32,-99.99,,,0.00,0,rob ver 1A,2013-03-12 10:06:00,
2013-03-12 03:07:00,63.4,26.3,29.50,NNW,345,2.6,2.8,24,-99.99,,,0.00,0,rob ver 1B,2013-03-12 10:07:00,
2013-03-12 03:08:00,63.4,26.3,29.50,NNW,341,2.6,2.9,24,-99.99,,,0.00,0,rob ver 1B,2013-03-12 10:08:00,
2013-03-12 03:09:00,63.3,26.3,29.50,NNW,337,2.7,2.9,24,-99.99,,,0.00,0,rob ver 1B,2013-03-12 10:09:00,
2013-03-12 03:10:00,63.2,26.3,29.50,NNW,334,3.0,3.5,24,-99.99,,,0.00,0,rob ver 1B,2013-03-12 10:10:00,
2013-03-12 03:11:00,53.1,25.7,29.50,SE,145,1.4,2.1,34,-99.99,,,0.00,0,rob ver 1A,2013-03-12 10:11:00,
2013-03-12 03:12:00,63.0,26.4,29.50,NNW,344,3.2,3.5,24,-99.99,,,0.00,0,rob ver 1B,2013-03-12 10:12:00,
2013-03-12 03:13:00,62.8,26.4,29.50,NNW,342,2.9,3.1,25,-99.99,,,0.00,0,rob ver 1B,2013-03-12 10:13:00,
2013-03-12 03:14:00,62.5,26.5,29.50,NNW,338,2.5,2.8,25,-99.99,,,0.00,0,rob ver 1B,2013-03-12 10:14:00,
2013-03-12 03:15:00,62.3,26.4,29.50,NNW,339,2.5,2.8,25,-99.99,,,0.00,0,rob ver 1B,2013-03-12 10:15:00,
2013-03-12 03:16:00,62.2,26.4,29.50,North,350,2.6,2.7,25,-99.99,,,0.00,0,rob ver 1B,2013-03-12 10:16:00,
2013-03-12 03:17:00,53.4,25.9,29.50,SSE,159,0.7,1.0,34,-99.99,,,0.00,0,rob ver 1A,2013-03-12 10:17:00,
2013-03-12 03:18:00,61.8,26.3,29.50,North,359,2.2,2.6,25,-99.99,,,0.00,0,rob ver 1B,2013-03-12 10:18:00,
2013-03-12 03:19:00,61.5,26.3,29.50,North,1,1.9,2.2,26,-99.99,,,0.00,0,rob ver 1B,2013-03-12 10:19:00,
2013-03-12 03:20:00,61.2,26.2,29.53,NNE,29,1.1,1.6,26,-99.99,,,0.00,0,rob ver 1B,2013-03-12 10:20:00,
2013-03-12 03:21:00,61.0,26.2,29.50,ENE,73,1.1,1.6,26,-99.99,,,0.00,0,rob ver 1B,2013-03-12 10:21:00,
2013-03-12 03:22:00,53.3,25.9,29.47,South,187,0.8,0.9,34,-99.99,,,0.00,0,rob ver 1A,2013-03-12 10:22:00,
2013-03-12 03:23:00,60.3,26.2,29.50,East,88,1.8,2.3,27,-99.99,,,0.00,0,rob ver 1B,2013-03-12 10:23:00,
2013-03-12 03:24:00,60.3,26.3,29.53,East,86,2.9,3.6,26,-99.99,,,0.00,0,rob ver 1B,2013-03-12 10:24:00,
2013-03-12 03:25:00,60.3,26.3,29.53,East,84,3.3,3.8,27,-99.99,,,0.00,0,rob ver 1B,2013-03-12 10:25:00,
2013-03-12 03:26:00,60.2,26.4,29.50,East,85,3.9,4.5,27,-99.99,,,0.00,0,rob ver 1B,2013-03-12 10:26:00,
2013-03-12 03:27:00,53.4,26.1,29.47,East,87,0.6,0.8,34,-99.99,,,0.00,0,rob ver 1A,2013-03-12 10:27:00,
2013-03-12 03:28:00,59.3,26.5,29.50,ENE,74,3.5,3.7,28,-99.99,,,0.00,0,rob ver 1B,2013-03-12 10:28:00,
2013-03-12 03:29:00,59.2,26.5,29.53,ENE,74,3.1,3.5,28,-99.99,,,0.00,0,rob ver 1B,2013-03-12 10:29:00,
2013-03-12 03:30:00,59.6,26.5,29.50,ENE,74,2.9,3.1,27,-99.99,,,0.00,0,rob ver 1B,2013-03-12 10:30:00,
2013-03-12 03:31:00,60.3,26.5,29.50,ENE,63,2.8,3.1,27,-99.99,,,0.00,0,rob ver 1B,2013-03-12 10:31:00,
2013-03-12 03:32:00,53.6,26.0,29.47,ESE,103,1.1,1.3,34,-99.99,,,0.00,0,rob ver 1A,2013-03-12 10:32:00,
2013-03-12 03:33:00,60.9,26.4,29.50,NNE,27,3.3,4.0,26,-99.99,,,0.00,0,rob ver 1B,2013-03-12 10:33:00,
2013-03-12 03:34:00,60.8,26.4,29.50,NNE,27,3.4,4.1,26,-99.99,,,0.00,0,rob ver 1B,2013-03-12 10:34:00,
2013-03-12 03:35:00,60.4,26.5,29.50,North,4,3.7,4.5,27,-99.99,,,0.00,0,rob ver 1B,2013-03-12 10:35:00,
2013-03-12 03:36:00,60.0,26.5,29.50,NNE,29,3.6,4.3,27,-99.99,,,0.00,0,rob ver 1B,2013-03-12 10:36:00,
2013-03-12 03:37:00,54.1,26.1,29.47,ENE,64,1.7,2.0,33,-99.99,,,0.00,0,rob ver 1A,2013-03-12 10:37:00,
2013-03-12 03:38:00,60.8,26.5,29.50,North,3,3.7,5.2,26,-99.99,,,0.00,0,rob ver 1B,2013-03-12 10:38:00,
2013-03-12 03:39:00,61.3,26.5,29.50,NNW,332,4.9,6.3,25,-99.99,,,0.00,0,rob ver 1B,2013-03-12 10:39:00,
2013-03-12 03:40:00,62.0,26.7,29.50,NNW,339,3.9,5.2,25,-99.99,,,0.00,0,rob ver 1B,2013-03-12 10:40:00,
2013-03-12 03:41:00,62.0,26.7,29.50,NW,323,4.1,5.5,25,-99.99,,,0.00,0,rob ver 1B,2013-03-12 10:41:00,
2013-03-12 03:42:00,55.0,26.2,29.47,East,84,2.7,3.3,32,-99.99,,,0.00,0,rob ver 1A,2013-03-12 10:42:00,
2013-03-12 03:43:00,62.8,26.5,29.50,NW,319,4.7,5.5,24,-99.99,,,0.00,0,rob ver 1B,2013-03-12 10:43:00,
2013-03-12 03:44:00,62.9,26.5,29.50,NW,321,3.9,4.7,24,-99.99,,,0.00,0,rob ver 1B,2013-03-12 10:44:00,
2013-03-12 03:45:00,62.9,26.5,29.50,NW,322,3.7,4.4,24,-99.99,,,0.00,0,rob ver 1B,2013-03-12 10:45:00,
2013-03-12 03:46:00,63.0,26.5,29.50,NW,325,3.0,3.8,24,-99.99,,,0.00,0,rob ver 1B,2013-03-12 10:46:00,
2013-03-12 03:47:00,54.0,26.3,29.47,ESE,123,3.4,3.6,34,-99.99,,,0.00,0,rob ver 1A,2013-03-12 10:47:00,
2013-03-12 03:48:00,62.6,26.5,29.50,NW,312,4.0,4.4,25,-99.99,,,0.00,0,rob ver 1B,2013-03-12 10:48:00,
2013-03-12 03:49:00,62.6,26.4,29.50,NW,304,4.3,5.0,25,-99.99,,,0.00,0,rob ver 1B,2013-03-12 10:49:00,
2013-03-12 03:50:00,62.6,26.4,29.50,WNW,303,4.1,4.7,25,-99.99,,,0.00,0,rob ver 1B,2013-03-12 10:50:00,
2013-03-12 03:51:00,62.7,26.5,29.50,WNW,300,3.9,4.2,25,-99.99,,,0.00,0,rob ver 1B,2013-03-12 10:51:00,
2013-03-12 03:52:00,52.9,27.2,29.47,East,92,2.3,2.6,37,-99.99,,,0.00,0,rob ver 1A,2013-03-12 10:52:00,
2013-03-12 03:53:00,62.7,26.5,29.50,WNW,294,3.5,3.7,25,-99.99,,,0.00,0,rob ver 1B,2013-03-12 10:53:00,
2013-03-12 03:54:00,62.6,26.5,29.50,WNW,293,3.4,4.0,25,-99.99,,,0.00,0,rob ver 1B,2013-03-12 10:54:00,
2013-03-12 03:55:00,62.4,26.4,29.50,WNW,292,3.8,4.0,25,-99.99,,,0.00,0,rob ver 1B,2013-03-12 10:55:00,
2013-03-12 03:56:00,62.3,26.4,29.50,WNW,290,3.8,4.2,25,-99.99,,,0.00,0,rob ver 1B,2013-03-12 10:56:00,
2013-03-12 03:57:00,53.0,27.3,29.47,NE,40,3.4,3.7,36,-99.99,,,0.00,0,rob ver 1A,2013-03-12 10:57:00,
2013-03-12 03:58:00,61.9,26.4,29.50,WNW,290,4.9,5.1,25,-99.99,,,0.00,0,rob ver 1B,2013-03-12 10:58:00,
2013-03-12 03:59:00,62.0,26.4,29.50,WNW,289,4.7,4.9,25,-99.99,,,0.00,0,rob ver 1B,2013-03-12 10:59:00,
2013-03-12 04:00:00,62.0,26.4,29.50,WNW,289,5.0,5.2,25,-99.99,,,0.00,0,rob ver 1B,2013-03-12 11:00:00,
2013-03-12 04:01:00,61.9,26.4,29.50,WNW,291,5.2,5.6,25,-99.99,,,0.00,0,rob ver 1B,2013-03-12 11:01:00,
2013-03-12 04:02:00,54.2,26.6,29.47,North,11,3.5,3.9,34,-99.99,,,0.00,0,rob ver 1A,2013-03-12 11:02:00,
2013-03-12 04:03:00,61.4,26.4,29.50,WNW,294,4.3,4.7,26,-99.99,,,0.00,0,rob ver 1B,2013-03-12 11:03:00,
2013-03-12 04:04:00,61.0,26.3,29.50,WNW,294,4.1,4.7,26,-99.99,,,0.00,0,rob ver 1B,2013-03-12 11:04:00,
2013-03-12 04:05:00,60.9,26.3,29.50,WNW,298,3.8,4.1,26,-99.99,,,0.00,0,rob ver 1B,2013-03-12 11:05:00,
2013-03-12 04:06:00,60.9,26.4,29.50,WNW,297,4.0,4.4,26,-99.99,,,0.00,0,rob ver 1B,2013-03-12 11:06:00,
2013-03-12 04:07:00,60.9,26.4,29.50,WNW,301,4.0,4.3,26,-99.99,,,0.00,0,rob ver 1B,2013-03-12 11:07:00,
2013-03-12 04:08:00,54.3,26.6,29.47,NNW,342,3.1,3.4,34,-99.99,,,0.00,0,rob ver 1A,2013-03-12 11:08:00,
2013-03-12 04:09:00,61.0,26.4,29.50,WNW,302,4.0,4.3,26,-99.99,,,0.00,0,rob ver 1B,2013-03-12 11:09:00,
2013-03-12 04:10:00,61.0,26.4,29.50,WNW,297,4.0,4.3,26,-99.99,,,0.00,0,rob ver 1B,2013-03-12 11:10:00,
2013-03-12 04:11:00,61.0,26.4,29.50,WNW,299,4.0,4.2,26,-99.99,,,0.00,0,rob ver 1B,2013-03-12 11:11:00,
2013-03-12 04:12:00,60.9,26.4,29.50,WNW,301,4.0,4.5,26,-99.99,,,0.00,0,rob ver 1B,2013-03-12 11:12:00,
2013-03-12 04:13:00,53.7,26.2,29.47,NW,309,1.6,2.1,34,-99.99,,,0.00,0,rob ver 1A,2013-03-12 11:13:00,
2013-03-12 04:14:00,60.7,26.5,29.50,NW,311,4.3,4.6,27,-99.99,,,0.00,0,rob ver 1B,2013-03-12 11:14:00,
2013-03-12 04:15:00,60.5,26.6,29.50,NW,316,4.3,4.5,27,-99.99,,,0.00,0,rob ver 1B,2013-03-12 11:15:00,
2013-03-12 04:16:00,60.4,26.6,29.50,NW,310,4.1,4.5,27,-99.99,,,0.00,0,rob ver 1B,2013-03-12 11:16:00,
2013-03-12 04:17:00,60.3,26.6,29.50,NW,311,3.9,4.1,27,-99.99,,,0.00,0,rob ver 1B,2013-03-12 11:17:00,
2013-03-12 04:18:00,52.5,26.5,29.47,West,261,1.8,2.0,36,-99.99,,,0.00,0,rob ver 1A,2013-03-12 11:18:00,
2013-03-12 04:19:00,60.1,26.6,29.50,NW,320,3.2,3.7,27,-99.99,,,0.00,0,rob ver 1B,2013-03-12 11:19:00,
2013-03-12 04:20:00,60.0,26.6,29.50,NNW,331,2.7,3.3,27,-99.99,,,0.00,0,rob ver 1B,2013-03-12 11:20:00,
2013-03-12 04:21:00,59.9,26.6,29.50,NNW,337,2.4,3.0,27,-99.99,,,0.00,0,rob ver 1B,2013-03-12 11:21:00,
2013-03-12 04:22:00,59.7,26.6,29.50,NNW,339,2.1,2.7,28,-99.99,,,0.00,0,rob ver 1B,2013-03-12 11:22:00,
2013-03-12 04:23:00,53.2,26.3,29.47,WSW,258,3.6,4.1,34,-99.99,,,0.00,0,rob ver 1A,2013-03-12 11:23:00,
2013-03-12 04:24:00,59.6,26.7,29.50,NNW,332,1.6,2.1,28,-99.99,,,0.00,0,rob ver 1B,2013-03-12 11:24:00,
2013-03-12 04:25:00,59.6,26.7,29.50,NW,326,1.9,2.4,28,-99.99,,,0.00,0,rob ver 1B,2013-03-12 11:25:00,
2013-03-12 04:26:00,59.6,26.7,29.50,NNW,328,1.7,2.0,28,-99.99,,,0.00,0,rob ver 1B,2013-03-12 11:26:00,
2013-03-12 04:27:00,59.7,26.7,29.50,NW,324,1.3,2.0,28,-99.99,,,0.00,0,rob ver 1B,2013-03-12 11:27:00,
2013-03-12 04:28:00,52.3,26.5,29.47,WSW,252,3.8,4.2,36,-99.99,,,0.00,0,rob ver 1A,2013-03-12 11:28:00,
2013-03-12 04:29:00,59.8,26.7,29.50,WNW,301,1.1,1.8,28,-99.99,,,0.00,0,rob ver 1B,2013-03-12 11:29:00,
2013-03-12 04:30:00,59.8,26.7,29.50,NW,313,0.6,1.4,28,-99.99,,,0.00,0,rob ver 1B,2013-03-12 11:30:00,
2013-03-12 04:31:00,59.8,26.7,29.50,NE,36,0.3,0.7,28,-99.99,,,0.00,0,rob ver 1B,2013-03-12 11:31:00,
2013-03-12 04:32:00,59.7,26.7,29.50,East,83,0.4,0.7,28,-99.99,,,0.00,0,rob ver 1B,2013-03-12 11:32:00,
2013-03-12 04:33:00,51.7,26.5,29.47,West,275,3.1,3.5,37,-99.99,,,0.00,0,rob ver 1A,2013-03-12 11:33:00,
2013-03-12 04:34:00,59.4,26.6,29.50,ESE,114,0.8,1.1,28,-99.99,,,0.00,0,rob ver 1B,2013-03-12 11:34:00,
2013-03-12 04:35:00,59.3,26.6,29.50,East,93,1.3,1.9,28,-99.99,,,0.00,0,rob ver 1B,2013-03-12 11:35:00,
2013-03-12 04:36:00,59.4,26.7,29.50,ENE,75,1.9,2.3,28,-99.99,,,0.00,0,rob ver 1B,2013-03-12 11:36:00,
2013-03-12 04:37:00,59.4,26.6,29.53,NE,51,2.7,3.0,28,-99.99,,,0.00,0,rob ver 1B,2013-03-12 11:37:00,
2013-03-12 04:38:00,59.5,26.7,29.53,NE,49,2.4,3.0,28,-99.99,,,0.00,0,rob ver 1B,2013-03-12 11:38:00,
2013-03-12 04:39:00,51.7,26.5,29.47,WNW,284,2.8,3.1,37,-99.99,,,0.00,0,rob ver 1A,2013-03-12 11:39:00,
2013-03-12 04:40:00,59.7,26.7,29.50,NE,37,2.2,2.5,28,-99.99,,,0.00,0,rob ver 1B,2013-03-12 11:40:00,
2013-03-12 04:41:00,59.9,26.7,29.50,NNE,26,2.0,2.5,27,-99.99,,,0.00,0,rob ver 1B,2013-03-12 11:41:00,
2013-03-12 04:42:00,60.2,26.8,29.53,NNE,27,1.9,2.4,27,-99.99,,,0.00,0,rob ver 1B,2013-03-12 11:42:00,
2013-03-12 04:43:00,60.4,26.8,29.53,NNE,24,2.3,2.7,27,-99.99,,,0.00,0,rob ver 1B,2013-03-12 11:43:00,
2013-03-12 04:44:00,52.4,26.2,29.47,WNW,300,2.1,2.3,35,-99.99,,,0.00,0,rob ver 1A,2013-03-12 11:44:00,
2013-03-12 04:45:00,60.9,26.8,29.50,NNE,19,2.7,3.3,27,-99.99,,,0.00,0,rob ver 1B,2013-03-12 11:45:00,
2013-03-12 04:46:00,61.0,26.9,29.53,North,9,3.1,3.4,27,-99.99,,,0.00,0,rob ver 1B,2013-03-12 11:46:00,
2013-03-12 04:47:00,61.2,26.9,29.53,North,9,2.7,3.3,26,-99.99,,,0.00,0,rob ver 1B,2013-03-12 11:47:00,
2013-03-12 04:48:00,61.4,26.9,29.53,North,2,3.4,4.4,26,-99.99,,,0.00,0,rob ver 1B,2013-03-12 11:48:00,
2013-03-12 04:49:00,52.4,26.2,29.47,NW,312,2.8,3.0,35,-99.99,,,0.00,0,rob ver 1A,2013-03-12 11:49:00,
2013-03-12 04:50:00,61.2,26.8,29.53,North,351,3.6,4.5,26,-99.99,,,0.00,0,rob ver 1B,2013-03-12 11:50:00,
2013-03-12 04:51:00,61.1,26.9,29.53,NNW,342,3.3,3.9,27,-99.99,,,0.00,0,rob ver 1B,2013-03-12 11:51:00,
2013-03-12 04:52:00,61.1,27.0,29.53,NNW,346,3.4,3.9,27,-99.99,,,0.00,0,rob ver 1B,2013-03-12 11:52:00,
2013-03-12 04:53:00,61.2,27.0,29.53,NNW,348,3.8,4.3,26,-99.99,,,0.00,0,rob ver 1B,2013-03-12 11:53:00,
2013-03-12 04:54:00,52.3,26.2,29.47,NNW,332,3.0,3.3,36,-99.99,,,0.00,0,rob ver 1A,2013-03-12 11:54:00,
2013-03-12 04:55:00,61.5,27.1,29.53,NNW,335,2.9,3.3,26,-99.99,,,0.00,0,rob ver 1B,2013-03-12 11:55:00,
2013-03-12 04:56:00,61.5,27.0,29.53,NW,324,3.2,3.6,26,-99.99,,,0.00,0,rob ver 1B,2013-03-12 11:56:00,
2013-03-12 04:57:00,61.5,27.0,29.53,NW,323,3.4,4.2,26,-99.99,,,0.00,0,rob ver 1B,2013-03-12 11:57:00,
2013-03-12 04:58:00,61.5,27.0,29.53,NW,318,3.8,4.2,26,-99.99,,,0.00,0,rob ver 1B,2013-03-12 11:58:00,
2013-03-12 04:59:00,52.6,25.9,29.47,North,349,3.0,3.1,34,-99.99,,,0.00,0,rob ver 1A,2013-03-12 11:59:00,
2013-03-12 05:00:00,61.4,27.0,29.53,NW,324,4.5,5.0,26,-99.99,,,0.00,0,rob ver 1B,2013-03-12 12:00:00,
2013-03-12 05:01:00,61.4,27.1,29.53,NW,322,4.8,5.5,26,-99.99,,,0.00,0,rob ver 1B,2013-03-12 12:01:00,
2013-03-12 05:02:00,61.5,27.2,29.53,NW,322,4.6,5.4,26,-99.99,,,0.00,0,rob ver 1B,2013-03-12 12:02:00,
2013-03-12 05:03:00,61.5,27.2,29.53,NW,318,4.8,5.3,26,-99.99,,,0.00,0,rob ver 1B,2013-03-12 12:03:00,
2013-03-12 05:04:00,53.5,25.8,29.47,North,359,3.7,4.1,33,-99.99,,,0.00,0,rob ver 1A,2013-03-12 12:04:00,
2013-03-12 05:05:00,61.5,27.1,29.53,NW,309,5.1,5.6,26,-99.99,,,0.00,0,rob ver 1B,2013-03-12 12:05:00,
2013-03-12 05:06:00,61.3,27.1,29.53,NW,311,5.3,5.7,27,-99.99,,,0.00,0,rob ver 1B,2013-03-12 12:06:00,
2013-03-12 05:07:00,61.1,27.1,29.53,NW,310,5.2,5.5,27,-99.99,,,0.00,0,rob ver 1B,2013-03-12 12:07:00,
2013-03-12 05:08:00,60.8,27.1,29.53,NW,313,5.0,5.3,27,-99.99,,,0.00,0,rob ver 1B,2013-03-12 12:08:00,
2013-03-12 05:09:00,54.7,25.7,29.47,North,7,3.6,3.9,32,-99.99,,,0.00,0,rob ver 1A,2013-03-12 12:09:00,
2013-03-12 05:10:00,60.8,27.2,29.53,NW,317,5.0,5.2,27,-99.99,,,0.00,0,rob ver 1B,2013-03-12 12:10:00,
2013-03-12 05:11:00,61.0,27.2,29.53,NW,325,4.5,5.0,27,-99.99,,,0.00,0,rob ver 1B,2013-03-12 12:11:00,
2013-03-12 05:12:00,61.1,27.2,29.53,NW,319,4.1,5.0,27,-99.99,,,0.00,0,rob ver 1B,2013-03-12 12:12:00,
2013-03-12 05:13:00,61.0,27.1,29.53,NNW,329,3.7,4.5,27,-99.99,,,0.00,0,rob ver 1B,2013-03-12 12:13:00,
2013-03-12 05:14:00,55.4,25.7,29.47,North,351,2.2,2.6,31,-99.99,,,0.00,0,rob ver 1A,2013-03-12 12:14:00,
2013-03-12 05:15:00,60.7,27.2,29.53,NW,325,4.7,5.2,27,-99.99,,,0.00,0,rob ver 1B,2013-03-12 12:15:00,
2013-03-12 05:16:00,60.7,27.3,29.53,NW,320,4.7,5.2,27,-99.99,,,0.00,0,rob ver 1B,2013-03-12 12:16:00,
2013-03-12 05:17:00,60.8,27.3,29.53,NW,316,4.7,5.1,27,-99.99,,,0.00,0,rob ver 1B,2013-03-12 12:17:00,
2013-03-12 05:18:00,60.9,27.2,29.53,NW,313,4.9,5.4,27,-99.99,,,0.00,0,rob ver 1B,2013-03-12 12:18:00,
2013-03-12 05:19:00,55.9,25.6,29.47,NNW,335,1.9,2.1,30,-99.99,,,0.00,0,rob ver 1A,2013-03-12 12:19:00,
2013-03-12 05:20:00,60.8,27.2,29.53,NW,311,4.8,5.0,27,-99.99,,,0.00,0,rob ver 1B,2013-03-12 12:20:00,
2013-03-12 05:21:00,60.8,27.3,29.53,NW,315,4.7,5.1,27,-99.99,,,0.00,0,rob ver 1B,2013-03-12 12:21:00,
2013-03-12 05:22:00,60.8,27.3,29.53,NW,319,4.2,4.5,27,-99.99,,,0.00,0,rob ver 1B,2013-03-12 12:22:00,
2013-03-12 05:23:00,60.8,27.3,29.53,NW,325,3.5,4.3,27,-99.99,,,0.00,0,rob ver 1B,2013-03-12 12:23:00,
2013-03-12 05:24:00,56.3,25.7,29.50,NW,313,2.6,3.0,30,-99.99,,,0.00,0,rob ver 1A,2013-03-12 12:24:00,
2013-03-12 05:25:00,60.5,27.3,29.53,NNW,338,2.4,2.8,28,-99.99,,,0.00,0,rob ver 1B,2013-03-12 12:25:00,
2013-03-12 05:26:00,60.2,27.2,29.53,NNW,333,2.3,2.8,28,-99.99,,,0.00,0,rob ver 1B,2013-03-12 12:26:00,
2013-03-12 05:27:00,60.2,27.3,29.53,NW,326,2.0,2.5,28,-99.99,,,0.00,0,rob ver 1B,2013-03-12 12:27:00,
2013-03-12 05:28:00,60.2,27.3,29.53,NW,326,1.7,2.1,28,-99.99,,,0.00,0,rob ver 1B,2013-03-12 12:28:00,
2013-03-12 05:29:00,54.1,25.5,29.47,WNW,286,2.7,3.1,33,-99.99,,,0.00,0,rob ver 1A,2013-03-12 12:29:00,
2013-03-12 05:30:00,60.1,27.2,29.53,NE,43,2.2,2.9,28,-99.99,,,0.00,0,rob ver 1B,2013-03-12 12:30:00,
2013-03-12 05:31:00,60.0,27.2,29.53,NE,51,2.1,2.6,28,-99.99,,,0.00,0,rob ver 1B,2013-03-12 12:31:00,
2013-03-12 05:32:00,59.9,27.2,29.53,NE,55,2.4,3.4,28,-99.99,,,0.00,0,rob ver 1B,2013-03-12 12:32:00,
2013-03-12 05:33:00,59.8,27.2,29.53,ENE,62,2.6,3.3,28,-99.99,,,0.00,0,rob ver 1B,2013-03-12 12:33:00,
2013-03-12 05:34:00,53.9,25.8,29.50,WNW,286,3.6,3.8,33,-99.99,,,0.00,0,rob ver 1A,2013-03-12 12:34:00,
2013-03-12 05:35:00,59.7,27.0,29.53,ENE,57,2.5,2.9,28,-99.99,,,0.00,0,rob ver 1B,2013-03-12 12:35:00,
2013-03-12 05:36:00,59.5,27.0,29.53,ENE,72,1.4,1.9,28,-99.99,,,0.00,0,rob ver 1B,2013-03-12 12:36:00,
2013-03-12 05:37:00,59.4,27.1,29.53,East,83,1.4,2.1,28,-99.99,,,0.00,0,rob ver 1B,2013-03-12 12:37:00,
2013-03-12 05:38:00,59.6,27.2,29.53,NNE,15,1.3,2.1,28,-99.99,,,0.00,0,rob ver 1B,2013-03-12 12:38:00,
2013-03-12 05:39:00,54.2,26.1,29.50,WNW,287,3.3,3.5,33,-99.99,,,0.00,0,rob ver 1A,2013-03-12 12:39:00,
2013-03-12 05:40:00,59.7,27.1,29.53,NW,319,0.2,1.0,28,-99.99,,,0.00,0,rob ver 1B,2013-03-12 12:40:00,
2013-03-12 05:41:00,59.7,27.2,29.53,NW,325,0.8,1.2,28,-99.99,,,0.00,0,rob ver 1B,2013-03-12 12:41:00,
2013-03-12 05:42:00,59.7,27.1,29.53,NW,310,1.0,1.4,28,-99.99,,,0.00,0,rob ver 1B,2013-03-12 12:42:00,
2013-03-12 05:43:00,59.8,27.1,29.53,NW,305,1.4,1.7,28,-99.99,,,0.00,0,rob ver 1B,2013-03-12 12:43:00,
2013-03-12 05:44:00,53.8,26.5,29.50,WNW,294,4.0,4.5,34,-99.99,,,0.00,0,rob ver 1A,2013-03-12 12:44:00,
2013-03-12 05:45:00,60.1,27.1,29.53,WNW,292,2.1,2.6,28,-99.99,,,0.00,0,rob ver 1B,2013-03-12 12:45:00,
2013-03-12 05:46:00,60.3,27.1,29.53,North,350,1.4,2.2,27,-99.99,,,0.00,0,rob ver 1B,2013-03-12 12:46:00,
2013-03-12 05:47:00,60.1,27.1,29.53,NW,313,1.4,2.1,28,-99.99,,,0.00,0,rob ver 1B,2013-03-12 12:47:00,
2013-03-12 05:48:00,59.9,27.2,29.53,NW,308,1.6,1.9,28,-99.99,,,0.00,0,rob ver 1B,2013-03-12 12:48:00,
2013-03-12 05:49:00,53.2,26.9,29.47,WNW,303,4.7,4.9,36,-99.99,,,0.00,0,rob ver 1A,2013-03-12 12:49:00,
2013-03-12 05:50:00,59.9,27.1,29.53,NNW,331,2.0,2.3,28,-99.99,,,0.00,0,rob ver 1B,2013-03-12 12:50:00,
2013-03-12 05:51:00,60.0,27.2,29.53,NNW,332,2.5,3.0,28,-99.99,,,0.00,0,rob ver 1B,2013-03-12 12:51:00,
2013-03-12 05:52:00,60.0,27.2,29.53,NW,323,2.9,4.1,28,-99.99,,,0.00,0,rob ver 1B,2013-03-12 12:52:00,
2013-03-12 05:53:00,60.0,27.1,29.53,NW,313,2.7,3.8,28,-99.99,,,0.00,0,rob ver 1B,2013-03-12 12:53:00,
2013-03-12 05:54:00,52.2,27.7,29.50,NW,311,4.5,4.9,38,-99.99,,,0.00,0,rob ver 1A,2013-03-12 12:54:00,
2013-03-12 05:55:00,60.2,27.1,29.53,WNW,303,3.3,3.9,28,-99.99,,,0.00,0,rob ver 1B,2013-03-12 12:55:00,
2013-03-12 05:56:00,60.5,27.1,29.53,NW,304,3.7,4.9,27,-99.99,,,0.00,0,rob ver 1B,2013-03-12 12:56:00,
2013-03-12 05:57:00,60.8,27.2,29.53,WNW,291,3.7,4.1,27,-99.99,,,0.00,0,rob ver 1B,2013-03-12 12:57:00,
2013-03-12 05:58:00,61.1,27.2,29.53,WNW,285,4.5,5.3,27,-99.99,,,0.00,0,rob ver 1B,2013-03-12 12:58:00,
2013-03-12 05:59:00,61.4,27.2,29.53,WNW,287,5.0,5.9,26,-99.99,,,0.00,0,rob ver 1B,2013-03-12 12:59:00,
2013-03-12 06:00:00,52.1,28.2,29.50,NW,319,3.3,3.5,39,-99.99,,,0.00,0,rob ver 1A,2013-03-12 13:00:00,
2013-03-12 06:01:00,61.6,27.2,29.53,WNW,295,5.3,6.1,26,-99.99,,,0.00,0,rob ver 1B,2013-03-12 13:01:00,
2013-03-12 06:02:00,61.4,27.2,29.53,WNW,297,6.1,6.7,27,-99.99,,,0.00,0,rob ver 1B,2013-03-12 13:02:00,
2013-03-12 06:03:00,61.4,27.1,29.53,WNW,301,6.0,6.9,27,-99.99,,,0.00,0,rob ver 1B,2013-03-12 13:03:00,
2013-03-12 06:04:00,60.9,27.1,29.53,WNW,297,6.9,7.4,27,-99.99,,,0.00,0,rob ver 1B,2013-03-12 13:04:00,
2013-03-12 06:05:00,52.3,28.3,29.50,NNW,336,1.8,2.0,39,-99.99,,,0.00,0,rob ver 1A,2013-03-12 13:05:00,
2013-03-12 06:06:00,60.9,27.2,29.53,WNW,297,6.8,7.1,27,-99.99,,,0.00,0,rob ver 1B,2013-03-12 13:06:00,
2013-03-12 06:07:00,61.0,27.3,29.53,WNW,301,7.0,7.2,27,-99.99,,,0.00,0,rob ver 1B,2013-03-12 13:07:00,
2013-03-12 06:08:00,61.1,27.3,29.53,WNW,298,7.5,8.7,27,-99.99,,,0.00,0,rob ver 1B,2013-03-12 13:08:00,
2013-03-12 06:09:00,61.3,27.3,29.53,WNW,293,8.0,8.7,27,-99.99,,,0.00,0,rob ver 1B,2013-03-12 13:09:00,
2013-03-12 06:10:00,52.7,28.4,29.50,NNW,333,1.1,1.5,38,-99.99,,,0.00,0,rob ver 1A,2013-03-12 13:10:00,
2013-03-12 06:11:00,61.5,27.4,29.53,WNW,303,6.1,7.2,27,-99.99,,,0.00,0,rob ver 1B,2013-03-12 13:11:00,
2013-03-12 06:12:00,61.2,27.4,29.53,NW,308,5.5,6.2,27,-99.99,,,0.00,0,rob ver 1B,2013-03-12 13:12:00,
2013-03-12 06:13:00,61.0,27.3,29.53,WNW,303,5.2,6.0,27,-99.99,,,0.00,0,rob ver 1B,2013-03-12 13:13:00,
2013-03-12 06:14:00,60.9,27.3,29.53,WNW,301,5.0,5.6,27,-99.99,,,0.00,0,rob ver 1B,2013-03-12 13:14:00,
2013-03-12 06:15:00,52.3,27.7,29.50,SE,142,4.1,5.2,38,-99.99,,,0.00,0,rob ver 1A,2013-03-12 13:15:00,
2013-03-12 06:16:00,61.0,27.4,29.53,WNW,302,4.8,5.3,27,-99.99,,,0.00,0,rob ver 1B,2013-03-12 13:16:00,
2013-03-12 06:17:00,61.1,27.4,29.53,WNW,302,4.6,5.5,27,-99.99,,,0.00,0,rob ver 1B,2013-03-12 13:17:00,
2013-03-12 06:18:00,61.1,27.4,29.53,WNW,300,3.5,4.2,27,-99.99,,,0.00,0,rob ver 1B,2013-03-12 13:18:00,
2013-03-12 06:19:00,61.1,27.4,29.53,NW,305,2.9,4.6,27,-99.99,,,0.00,0,rob ver 1B,2013-03-12 13:19:00,
2013-03-12 06:20:00,50.1,27.9,29.50,ESE,115,3.4,3.7,42,-99.99,,,0.00,0,rob ver 1A,2013-03-12 13:20:00,
2013-03-12 06:21:00,60.8,27.4,29.53,NE,37,1.1,1.9,27,-99.99,,,0.00,0,rob ver 1B,2013-03-12 13:21:00,
2013-03-12 06:22:00,60.5,27.3,29.53,East,83,2.0,3.0,28,-99.99,,,0.00,0,rob ver 1B,2013-03-12 13:22:00,
2013-03-12 06:23:00,59.9,27.1,29.53,East,87,2.9,3.2,28,-99.99,,,0.00,0,rob ver 1B,2013-03-12 13:23:00,
2013-03-12 06:24:00,59.5,27.1,29.53,East,96,3.3,3.6,29,-99.99,,,0.00,0,rob ver 1B,2013-03-12 13:24:00,
2013-03-12 06:25:00,50.2,27.9,29.50,SE,130,3.1,3.4,41,-99.99,,,0.00,0,rob ver 1A,2013-03-12 13:25:00,
2013-03-12 06:26:00,59.0,27.2,29.53,ESE,123,3.0,3.4,29,-99.99,,,0.00,0,rob ver 1B,2013-03-12 13:26:00,
2013-03-12 06:27:00,59.0,27.3,29.53,SE,134,2.8,3.2,29,-99.99,,,0.00,0,rob ver 1B,2013-03-12 13:27:00,
2013-03-12 06:28:00,59.3,27.4,29.53,SE,142,1.9,2.3,29,-99.99,,,0.00,0,rob ver 1B,2013-03-12 13:28:00,
2013-03-12 06:29:00,59.7,27.5,29.53,South,189,0.8,1.7,29,-99.99,,,0.00,0,rob ver 1B,2013-03-12 13:29:00,
2013-03-12 06:30:00,49.7,27.8,29.50,SE,127,3.0,3.3,42,-99.99,,,0.00,0,rob ver 1A,2013-03-12 13:30:00,
2013-03-12 06:31:00,59.9,27.4,29.53,WNW,301,2.0,3.2,28,-99.99,,,0.00,.164,rob ver 1B,2013-03-12 13:31:00,
2013-03-12 06:32:00,60.1,27.4,29.53,WNW,299,3.2,4.7,28,-99.99,,,0.00,.329,rob ver 1B,2013-03-12 13:32:00,
2013-03-12 06:33:00,60.5,27.5,29.56,NW,306,3.3,4.3,28,-99.99,,,0.00,.329,rob ver 1B,2013-03-12 13:33:00,
2013-03-12 06:34:00,60.9,27.5,29.56,NW,313,3.7,4.9,27,-99.99,,,0.00,.329,rob ver 1B,2013-03-12 13:34:00,
2013-03-12 06:35:00,49.6,27.7,29.50,SE,127,2.5,3.0,42,-99.99,,,0.00,.329,rob ver 1A,2013-03-12 13:35:00,
2013-03-12 06:36:00,61.2,27.6,29.53,NW,321,4.4,6.3,27,-99.99,,,0.00,.329,rob ver 1B,2013-03-12 13:36:00,
2013-03-12 06:37:00,61.5,27.5,29.56,NNW,335,2.9,4.8,27,-99.99,,,0.00,.493,rob ver 1B,2013-03-12 13:37:00,
2013-03-12 06:38:00,61.6,27.5,29.56,NNW,345,2.3,3.2,27,-99.99,,,0.00,.821,rob ver 1B,2013-03-12 13:38:00,
2013-03-12 06:39:00,61.5,27.5,29.56,NNE,33,2.0,2.7,27,-99.99,,,0.00,.986,rob ver 1B,2013-03-12 13:39:00,
2013-03-12 06:40:00,50.0,27.9,29.50,SE,128,2.1,2.3,41,-99.99,,,0.00,.986,rob ver 1A,2013-03-12 13:40:00,
2013-03-12 06:41:00,60.0,27.0,29.56,East,85,3.4,4.8,28,-99.99,,,0.00,1.478,rob ver 1B,2013-03-12 13:41:00,
2013-03-12 06:42:00,58.9,27.1,29.56,ENE,78,3.6,4.6,29,-99.99,,,0.00,1.643,rob ver 1B,2013-03-12 13:42:00,
2013-03-12 06:43:00,58.2,27.0,29.56,ESE,112,2.9,4.0,30,-99.99,,,0.00,1.971,rob ver 1B,2013-03-12 13:43:00,
2013-03-12 06:44:00,57.4,27.0,29.56,ESE,114,2.2,3.1,31,-99.99,,,0.00,2.3,rob ver 1B,2013-03-12 13:44:00,
2013-03-12 06:45:00,50.2,27.7,29.50,East,91,1.7,1.8,41,-99.99,,,0.00,2.301,rob ver 1A,2013-03-12 13:45:00,
2013-03-12 06:46:00,56.8,27.2,29.56,East,83,1.6,2.1,32,-99.99,,,0.00,2.957,rob ver 1B,2013-03-12 13:46:00,
2013-03-12 06:47:00,56.7,27.4,29.56,ENE,66,1.4,2.7,32,-99.99,,,0.00,3.285,rob ver 1B,2013-03-12 13:47:00,
2013-03-12 06:48:00,56.7,27.4,29.56,NE,42,1.4,2.0,32,-99.99,,,0.00,3.614,rob ver 1B,2013-03-12 13:48:00,
2013-03-12 06:49:00,56.8,27.5,29.56,NE,42,2.5,3.6,32,-99.99,,,0.00,4.271,rob ver 1B,2013-03-12 13:49:00,
2013-03-12 06:50:00,50.3,27.8,29.50,ENE,77,3.5,3.8,41,-99.99,,,0.00,4.601,rob ver 1A,2013-03-12 13:50:00,
2013-03-12 06:51:00,57.4,27.7,29.56,NE,45,3.9,4.8,31,-99.99,,,0.00,5.256,rob ver 1B,2013-03-12 13:51:00,
2013-03-12 06:52:00,57.7,27.7,29.56,ENE,57,4.3,5.8,31,-99.99,,,0.00,5.913,rob ver 1B,2013-03-12 13:52:00,
2013-03-12 06:53:00,57.8,27.7,29.56,NE,53,4.4,6.0,31,-99.99,,,0.00,6.57,rob ver 1B,2013-03-12 13:53:00,
2013-03-12 06:54:00,57.7,27.7,29.56,NE,52,4.5,5.3,31,-99.99,,,0.00,8.21,rob ver 1B,2013-03-12 13:54:00,
2013-03-12 06:55:00,57.6,27.8,29.56,NE,45,4.3,5.4,31,-99.99,,,0.00,11.5,rob ver 1B,2013-03-12 13:55:00,
2013-03-12 06:56:00,50.4,27.6,29.50,ENE,70,4.4,4.8,41,-99.99,,,0.00,10.85,rob ver 1A,2013-03-12 13:56:00,
2013-03-12 06:57:00,57.4,27.7,29.56,NNE,29,3.6,3.9,32,-99.99,,,0.00,15.77,rob ver 1B,2013-03-12 13:57:00,
2013-03-12 06:58:00,57.1,27.6,29.56,NE,42,3.3,4.2,32,-99.99,,,0.00,17.74,rob ver 1B,2013-03-12 13:58:00,
2013-03-12 06:59:00,57.0,27.5,29.56,NNE,25,3.0,4.0,32,-99.99,,,0.00,20.37,rob ver 1B,2013-03-12 13:59:00,
2013-03-12 07:00:00,57.1,27.5,29.56,North,11,3.5,4.4,32,-99.99,,,0.00,23,rob ver 1B,2013-03-12 14:00:00,
2013-03-12 07:01:00,52.1,27.6,29.50,East,79,3.0,3.5,38,-99.99,,,0.00,21.69,rob ver 1A,2013-03-12 14:01:00,
2013-03-12 07:02:00,57.7,27.7,29.56,North,4,3.4,3.7,31,-99.99,,,0.00,26.94,rob ver 1B,2013-03-12 14:02:00,
2013-03-12 07:03:00,58.0,27.7,29.56,NNE,16,3.3,3.8,31,-99.99,,,0.00,28.91,rob ver 1B,2013-03-12 14:03:00,
2013-03-12 07:04:00,58.1,27.7,29.56,NNE,19,3.3,3.6,31,-99.99,,,0.00,31.37,rob ver 1B,2013-03-12 14:04:00,
2013-03-12 07:05:00,58.2,27.7,29.56,NNE,15,2.5,3.5,30,-99.99,,,0.00,34,rob ver 1B,2013-03-12 14:05:00,
2013-03-12 07:06:00,52.6,27.3,29.50,ENE,63,3.6,4.0,37,-99.99,,,0.00,33.2,rob ver 1A,2013-03-12 14:06:00,
2013-03-12 07:07:00,58.5,27.7,29.56,NNE,17,2.4,2.8,30,-99.99,,,0.00,38.44,rob ver 1B,2013-03-12 14:07:00,
2013-03-12 07:08:00,58.7,27.8,29.56,North,7,2.2,2.7,30,-99.99,,,0.00,41.06,rob ver 1B,2013-03-12 14:08:00,
2013-03-12 07:09:00,58.9,27.7,29.56,North,353,1.9,2.3,30,-99.99,,,0.00,43.69,rob ver 1B,2013-03-12 14:09:00,
2013-03-12 07:10:00,59.0,27.8,29.56,NNW,340,1.9,2.6,30,-99.99,,,0.00,45.99,rob ver 1B,2013-03-12 14:10:00,
2013-03-12 07:11:00,53.8,26.6,29.50,East,83,1.8,2.5,34,-99.99,,,0.00,45.03,rob ver 1A,2013-03-12 14:11:00,
2013-03-12 07:12:00,59.3,27.9,29.56,North,353,2.9,3.4,29,-99.99,,,0.00,51.25,rob ver 1B,2013-03-12 14:12:00,
2013-03-12 07:13:00,59.6,28.0,29.56,North,3,2.8,3.2,29,-99.99,,,0.00,53.55,rob ver 1B,2013-03-12 14:13:00,
2013-03-12 07:14:00,59.6,28.1,29.56,North,355,3.2,3.8,29,-99.99,,,0.00,56.5,rob ver 1B,2013-03-12 14:14:00,
2013-03-12 07:15:00,59.6,28.1,29.56,North,353,2.9,3.5,30,-99.99,,,0.00,59.13,rob ver 1B,2013-03-12 14:15:00,
2013-03-12 07:16:00,52.7,27.3,29.50,ENE,74,4.6,5.3,37,-99.99,,,0.00,57.19,rob ver 1A,2013-03-12 14:16:00,
2013-03-12 07:17:00,59.3,27.9,29.56,NNE,17,3.2,4.0,30,-99.99,,,0.00,64.39,rob ver 1B,2013-03-12 14:17:00,
2013-03-12 07:18:00,59.2,28.0,29.56,NNE,14,2.7,3.2,30,-99.99,,,0.00,67.34,rob ver 1B,2013-03-12 14:18:00,
2013-03-12 07:19:00,59.3,28.2,29.56,North,10,2.6,3.2,30,-99.99,,,0.00,70.3,rob ver 1B,2013-03-12 14:19:00,
2013-03-12 07:20:00,59.5,28.2,29.56,North,2,2.3,3.2,30,-99.99,,,0.00,72.3,rob ver 1B,2013-03-12 14:20:00,
2013-03-12 07:21:00,52.1,27.5,29.53,ENE,58,3.7,4.5,38,-99.99,,,0.00,71.5,rob ver 1A,2013-03-12 14:21:00,
2013-03-12 07:22:00,59.9,28.3,29.56,NNE,16,3.6,4.2,29,-99.99,,,0.00,78.2,rob ver 1B,2013-03-12 14:22:00,
2013-03-12 07:23:00,60.0,28.3,29.56,NNE,16,4.2,4.7,29,-99.99,,,0.00,81.5,rob ver 1B,2013-03-12 14:23:00,
2013-03-12 07:24:00,60.4,28.3,29.56,North,10,4.2,4.7,29,-99.99,,,0.00,84.1,rob ver 1B,2013-03-12 14:24:00,
2013-03-12 07:25:00,60.8,28.4,29.56,North,356,3.9,4.6,29,-99.99,,,0.00,86.7,rob ver 1B,2013-03-12 14:25:00,
2013-03-12 07:26:00,53.1,27.3,29.53,ENE,61,4.7,5.9,36,-99.99,,,0.00,86.1,rob ver 1A,2013-03-12 14:26:00,
2013-03-12 07:27:00,61.2,28.6,29.56,NNW,344,3.7,4.2,28,-99.99,,,0.00,92.6,rob ver 1B,2013-03-12 14:27:00,
2013-03-12 07:28:00,61.3,28.9,29.56,NNW,344,3.3,4.1,28,-99.99,,,0.00,95.3,rob ver 1B,2013-03-12 14:28:00,
2013-03-12 07:29:00,61.3,28.8,29.56,NNW,346,3.2,3.9,28,-99.99,,,0.00,98.6,rob ver 1B,2013-03-12 14:29:00,
2013-03-12 07:30:00,61.2,28.6,29.56,North,359,4.1,4.4,28,-99.99,,,0.00,101.8,rob ver 1B,2013-03-12 14:30:00,
2013-03-12 07:31:00,61.1,28.5,29.56,North,4,4.1,4.4,28,-99.99,,,0.00,104.5,rob ver 1B,2013-03-12 14:31:00,
2013-03-12 07:32:00,54.4,26.6,29.53,NE,50,4.5,6.2,34,-99.99,,,0.00,101.2,rob ver 1A,2013-03-12 14:32:00,
2013-03-12 07:33:00,61.2,28.5,29.56,North,353,3.3,3.5,28,-99.99,,,0.00,110.4,rob ver 1B,2013-03-12 14:33:00,
2013-03-12 07:34:00,61.4,28.6,29.56,NNW,342,3.0,3.4,28,-99.99,,,0.00,113.3,rob ver 1B,2013-03-12 14:34:00,
2013-03-12 07:35:00,61.6,28.6,29.56,NNW,336,2.9,3.4,28,-99.99,,,0.00,116.3,rob ver 1B,2013-03-12 14:35:00,
2013-03-12 07:36:00,61.7,28.6,29.56,NNW,337,3.1,3.5,28,-99.99,,,0.00,119.6,rob ver 1B,2013-03-12 14:36:00,
2013-03-12 07:37:00,54.2,26.7,29.53,NE,52,4.1,4.7,34,-99.99,,,0.00,116.7,rob ver 1A,2013-03-12 14:37:00,
2013-03-12 07:38:00,62.0,28.8,29.56,NNW,334,2.7,3.3,28,-99.99,,,0.00,125.8,rob ver 1B,2013-03-12 14:38:00,
2013-03-12 07:39:00,62.2,29.1,29.56,NNW,330,2.3,2.7,28,-99.99,,,0.00,128.8,rob ver 1B,2013-03-12 14:39:00,
2013-03-12 07:40:00,62.3,29.1,29.56,NNW,337,2.9,3.4,28,-99.99,,,0.00,132.1,rob ver 1B,2013-03-12 14:40:00,
2013-03-12 07:41:00,62.2,28.9,29.56,NNW,341,3.6,4.0,27,-99.99,,,0.00,135.3,rob ver 1B,2013-03-12 14:41:00,
2013-03-12 07:42:00,54.2,27.1,29.53,NE,37,3.6,4.5,34,-99.99,,,0.00,135.4,rob ver 1A,2013-03-12 14:42:00,
2013-03-12 07:43:00,62.2,28.7,29.56,NNW,329,3.9,4.6,28,-99.99,,,0.00,141.3,rob ver 1B,2013-03-12 14:43:00,
2013-03-12 07:44:00,62.3,29.0,29.56,NW,326,3.5,3.9,27,-99.99,,,0.00,144.5,rob ver 1B,2013-03-12 14:44:00,
2013-03-12 07:45:00,62.4,28.8,29.56,NW,324,3.5,4.2,27,-99.99,,,0.00,147.8,rob ver 1B,2013-03-12 14:45:00,
2013-03-12 07:46:00,62.6,28.7,29.59,NNW,327,3.2,3.6,27,-99.99,,,0.00,151.4,rob ver 1B,2013-03-12 14:46:00,
2013-03-12 07:47:00,54.8,27.0,29.53,NE,37,4.1,4.7,33,-99.99,,,0.00,148.6,rob ver 1A,2013-03-12 14:47:00,
2013-03-12 07:48:00,63.2,28.6,29.56,NW,325,2.5,3.3,26,-99.99,,,0.00,158.3,rob ver 1B,2013-03-12 14:48:00,
2013-03-12 07:49:00,63.6,28.8,29.56,NNW,329,2.1,2.6,26,-99.99,,,0.00,161.6,rob ver 1B,2013-03-12 14:49:00,
2013-03-12 07:50:00,63.9,29.0,29.59,NNW,340,2.1,2.6,26,-99.99,,,0.00,164.6,rob ver 1B,2013-03-12 14:50:00,
2013-03-12 07:51:00,64.0,29.1,29.59,NNW,344,2.3,2.7,26,-99.99,,,0.00,168.2,rob ver 1B,2013-03-12 14:51:00,
2013-03-12 07:52:00,55.8,26.4,29.53,ENE,63,6.0,6.9,31,-99.99,,,0.00,170.1,rob ver 1A,2013-03-12 14:52:00,
2013-03-12 07:53:00,64.1,29.1,29.56,North,356,2.4,2.8,26,-99.99,,,0.00,175.4,rob ver 1B,2013-03-12 14:53:00,
2013-03-12 07:54:00,64.2,29.1,29.59,North,4,2.1,2.5,26,-99.99,,,0.00,178.7,rob ver 1B,2013-03-12 14:54:00,
2013-03-12 07:55:00,64.4,29.1,29.59,NNE,13,2.2,2.4,25,-99.99,,,0.00,182,rob ver 1B,2013-03-12 14:55:00,
2013-03-12 07:56:00,64.5,28.9,29.59,North,4,2.3,2.4,25,-99.99,,,0.00,185.9,rob ver 1B,2013-03-12 14:56:00,
2013-03-12 07:57:00,64.7,29.0,29.59,North,354,2.3,2.5,25,-99.99,,,0.00,189.2,rob ver 1B,2013-03-12 14:57:00,
2013-03-12 07:58:00,57.7,26.9,29.53,NW,326,2.6,3.2,30,-99.99,,,0.00,187.2,rob ver 1A,2013-03-12 14:58:00,
2013-03-12 07:59:00,64.9,29.3,29.59,North,351,2.3,2.5,26,-99.99,,,0.00,195.8,rob ver 1B,2013-03-12 14:59:00,
2013-03-12 08:00:00,65.0,29.6,29.59,North,352,2.0,2.3,26,-99.99,,,0.00,199.7,rob ver 1B,2013-03-12 15:00:00,
2013-03-12 08:01:00,65.1,29.9,29.59,North,356,1.7,2.0,26,-99.99,,,0.00,203.3,rob ver 1B,2013-03-12 15:01:00,
2013-03-12 08:02:00,65.4,29.9,29.59,North,358,1.7,1.9,25,-99.99,,,0.00,206.9,rob ver 1B,2013-03-12 15:02:00,
2013-03-12 08:03:00,59.0,27.1,29.53,NNW,344,2.7,3.6,29,-99.99,,,0.00,205.7,rob ver 1A,2013-03-12 15:03:00,
2013-03-12 08:04:00,65.9,30.2,29.59,NNW,346,1.2,1.5,25,-99.99,,,0.00,213.5,rob ver 1B,2013-03-12 15:04:00,
2013-03-12 08:05:00,66.2,30.1,29.59,NW,326,1.4,1.6,25,-99.99,,,0.00,217.4,rob ver 1B,2013-03-12 15:05:00,
2013-03-12 08:06:00,66.5,30.5,29.59,WNW,302,1.0,1.7,25,-99.99,,,0.00,220.7,rob ver 1B,2013-03-12 15:06:00,
2013-03-12 08:07:00,66.7,30.6,29.59,WNW,300,0.9,1.2,25,-99.99,,,0.00,224.6,rob ver 1B,2013-03-12 15:07:00,
2013-03-12 08:08:00,59.2,27.5,29.53,NW,314,2.9,3.7,29,-99.99,,,0.00,223.2,rob ver 1A,2013-03-12 15:08:00,
2013-03-12 08:09:00,67.0,30.8,29.59,NW,316,1.1,2.1,25,-99.99,,,0.00,231.4,rob ver 1B,2013-03-12 15:09:00,
2013-03-12 08:10:00,67.2,30.9,29.59,WNW,300,1.5,1.9,25,-99.99,,,0.00,235.1,rob ver 1B,2013-03-12 15:10:00,
2013-03-12 08:11:00,67.2,31.0,29.59,WNW,296,1.4,1.9,25,-99.99,,,0.00,238.4,rob ver 1B,2013-03-12 15:11:00,
2013-03-12 08:12:00,67.1,30.3,29.59,WNW,295,1.8,2.8,24,-99.99,,,0.00,242.4,rob ver 1B,2013-03-12 15:12:00,
2013-03-12 08:13:00,60.2,27.8,29.56,NNW,336,2.3,3.2,29,-99.99,,,0.00,244.2,rob ver 1A,2013-03-12 15:13:00,
2013-03-12 08:14:00,66.7,30.2,29.59,WNW,285,1.8,2.4,25,-99.99,,,0.00,249.6,rob ver 1B,2013-03-12 15:14:00,
2013-03-12 08:15:00,66.7,30.0,29.59,WNW,283,2.3,2.9,25,-99.99,,,0.00,253.2,rob ver 1B,2013-03-12 15:15:00,
2013-03-12 08:16:00,66.5,29.9,29.59,West,276,2.6,3.0,25,-99.99,,,0.00,256.8,rob ver 1B,2013-03-12 15:16:00,
2013-03-12 08:17:00,66.4,29.4,29.59,WNW,286,2.9,3.2,24,-99.99,,,0.00,260.1,rob ver 1B,2013-03-12 15:17:00,
2013-03-12 08:18:00,61.8,26.9,29.56,NNE,18,3.5,4.0,26,-99.99,,,0.00,262.2,rob ver 1A,2013-03-12 15:18:00,
2013-03-12 08:19:00,66.5,29.4,29.59,WNW,289,2.7,3.1,24,-99.99,,,0.00,268,rob ver 1B,2013-03-12 15:19:00,
2013-03-12 08:20:00,66.5,29.3,29.59,WNW,291,2.7,3.0,24,-99.99,,,0.00,271.3,rob ver 1B,2013-03-12 15:20:00,
2013-03-12 08:21:00,66.6,29.8,29.59,WNW,285,3.3,4.8,25,-99.99,,,0.00,274.9,rob ver 1B,2013-03-12 15:21:00,
2013-03-12 08:22:00,66.7,29.8,29.59,WNW,290,4.3,5.3,24,-99.99,,,0.00,278.5,rob ver 1B,2013-03-12 15:22:00,
2013-03-12 08:23:00,62.7,26.8,29.56,NNE,31,4.9,5.7,25,-99.99,,,0.00,280,rob ver 1A,2013-03-12 15:23:00,
2013-03-12 08:24:00,66.9,28.9,29.59,WNW,295,5.3,5.9,23,-99.99,,,0.00,285.7,rob ver 1B,2013-03-12 15:24:00,
2013-03-12 08:25:00,66.9,29.0,29.59,WNW,288,5.1,5.8,23,-99.99,,,0.00,289.5,rob ver 1B,2013-03-12 15:25:00,
2013-03-12 08:26:00,67.0,28.9,29.59,WNW,289,4.6,5.3,24,-99.99,,,0.00,292.9,rob ver 1B,2013-03-12 15:26:00,
2013-03-12 08:27:00,67.0,29.0,29.59,WNW,289,5.0,6.1,23,-99.99,,,0.00,296.2,rob ver 1B,2013-03-12 15:27:00,
2013-03-12 08:28:00,63.1,26.7,29.56,NNE,29,5.8,6.7,25,-99.99,,,0.00,298.7,rob ver 1A,2013-03-12 15:28:00,
2013-03-12 08:29:00,67.0,29.0,29.59,WNW,284,4.5,5.2,24,-99.99,,,0.00,303.7,rob ver 1B,2013-03-12 15:29:00,
2013-03-12 08:30:00,67.0,29.2,29.59,WNW,286,4.1,5.1,24,-99.99,,,0.00,307.4,rob ver 1B,2013-03-12 15:30:00,
2013-03-12 08:31:00,67.2,29.0,29.59,WNW,286,4.0,4.9,23,-99.99,,,0.00,311.3,rob ver 1B,2013-03-12 15:31:00,
2013-03-12 08:32:00,67.2,29.1,29.59,WNW,298,3.5,4.3,23,-99.99,,,0.00,314.6,rob ver 1B,2013-03-12 15:32:00,
2013-03-12 08:33:00,67.4,29.2,29.59,NW,305,3.3,3.8,23,-99.99,,,0.00,318.5,rob ver 1B,2013-03-12 15:33:00,
2013-03-12 08:34:00,63.6,26.9,29.56,NNE,33,4.3,5.2,24,-99.99,,,0.00,316.7,rob ver 1A,2013-03-12 15:34:00,
2013-03-12 08:35:00,67.6,29.3,29.59,NW,310,4.3,5.1,24,-99.99,,,0.00,325.7,rob ver 1B,2013-03-12 15:35:00,
2013-03-12 08:36:00,67.6,29.3,29.59,NW,307,3.7,4.1,23,-99.99,,,0.00,329,rob ver 1B,2013-03-12 15:36:00,
2013-03-12 08:37:00,67.7,29.3,29.59,NW,307,3.6,4.2,23,-99.99,,,0.00,332.3,rob ver 1B,2013-03-12 15:37:00,
2013-03-12 08:38:00,67.8,29.4,29.59,NW,305,3.6,4.2,23,-99.99,,,0.00,336.2,rob ver 1B,2013-03-12 15:38:00,
2013-03-12 08:39:00,64.1,27.3,29.56,NNE,21,4.9,5.7,24,-99.99,,,0.00,334.4,rob ver 1A,2013-03-12 15:39:00,
2013-03-12 08:40:00,67.9,29.2,29.59,WNW,291,3.8,4.8,23,-99.99,,,0.00,343.4,rob ver 1B,2013-03-12 15:40:00,
2013-03-12 08:41:00,67.9,29.3,29.59,WNW,294,4.0,4.8,23,-99.99,,,0.00,347.4,rob ver 1B,2013-03-12 15:41:00,
2013-03-12 08:42:00,67.9,29.3,29.59,WNW,295,4.8,5.3,23,-99.99,,,0.00,350.7,rob ver 1B,2013-03-12 15:42:00,
2013-03-12 08:43:00,67.9,29.3,29.59,WNW,288,4.5,5.5,23,-99.99,,,0.00,354.6,rob ver 1B,2013-03-12 15:43:00,
2013-03-12 08:44:00,64.7,27.8,29.56,NNE,24,4.2,5.0,24,-99.99,,,0.00,352.2,rob ver 1A,2013-03-12 15:44:00,
2013-03-12 08:45:00,68.1,29.5,29.59,WNW,290,3.9,4.8,23,-99.99,,,0.00,361.8,rob ver 1B,2013-03-12 15:45:00,
2013-03-12 08:46:00,68.2,29.4,29.59,WNW,283,3.8,4.7,23,-99.99,,,0.00,365.1,rob ver 1B,2013-03-12 15:46:00,
2013-03-12 08:47:00,68.3,29.3,29.59,WNW,284,5.2,6.1,23,-99.99,,,0.00,368.9,rob ver 1B,2013-03-12 15:47:00,
2013-03-12 08:48:00,68.2,29.1,29.59,West,278,5.4,6.1,23,-99.99,,,0.00,372.3,rob ver 1B,2013-03-12 15:48:00,
2013-03-12 08:49:00,65.6,27.9,29.56,NNE,14,3.7,4.2,24,-99.99,,,0.00,373.1,rob ver 1A,2013-03-12 15:49:00,
2013-03-12 08:50:00,68.4,29.4,29.59,WNW,291,4.3,5.4,23,-99.99,,,0.00,380.2,rob ver 1B,2013-03-12 15:50:00,
2013-03-12 08:51:00,68.4,29.3,29.59,WNW,284,5.2,6.2,23,-99.99,,,0.00,383.4,rob ver 1B,2013-03-12 15:51:00,
2013-03-12 08:52:00,68.4,29.4,29.59,West,279,5.5,6.2,23,-99.99,,,0.00,386.7,rob ver 1B,2013-03-12 15:52:00,
2013-03-12 08:53:00,68.4,29.3,29.59,WNW,290,4.7,5.7,23,-99.99,,,0.00,390,rob ver 1B,2013-03-12 15:53:00,
2013-03-12 08:54:00,66.3,27.7,29.56,North,352,3.7,4.3,23,-99.99,,,0.00,386.9,rob ver 1A,2013-03-12 15:54:00,
2013-03-12 08:55:00,68.6,29.8,29.59,WNW,293,4.3,5.0,23,-99.99,,,0.00,397.2,rob ver 1B,2013-03-12 15:55:00,
2013-03-12 08:56:00,68.8,29.6,29.59,WNW,287,4.6,5.5,22,-99.99,,,0.00,401.2,rob ver 1B,2013-03-12 15:56:00,
2013-03-12 08:57:00,68.9,29.6,29.59,WNW,289,4.5,5.5,22,-99.99,,,0.00,404.4,rob ver 1B,2013-03-12 15:57:00,
2013-03-12 08:58:00,68.9,29.6,29.59,WNW,297,4.8,5.5,22,-99.99,,,0.00,407.7,rob ver 1B,2013-03-12 15:58:00,
2013-03-12 08:59:00,67.1,27.7,29.56,NNW,345,2.7,3.7,22,-99.99,,,0.00,407.9,rob ver 1A,2013-03-12 15:59:00,
2013-03-12 09:00:00,69.2,29.8,29.59,WNW,288,4.7,5.3,22,-99.99,,,0.00,414.6,rob ver 1B,2013-03-12 16:00:00,
2013-03-12 09:01:00,69.3,29.7,29.59,WNW,289,4.4,5.1,22,-99.99,,,0.00,418.4,rob ver 1B,2013-03-12 16:01:00,
2013-03-12 09:02:00,69.4,29.7,29.59,WNW,291,4.7,5.7,22,-99.99,,,0.00,421.8,rob ver 1B,2013-03-12 16:02:00,
2013-03-12 09:03:00,69.5,29.9,29.59,WNW,297,4.2,5.5,22,-99.99,,,0.00,425.6,rob ver 1B,2013-03-12 16:03:00,
2013-03-12 09:04:00,69.7,29.8,29.59,WNW,285,5.0,5.8,22,-99.99,,,0.00,428.7,rob ver 1B,2013-03-12 16:04:00,
2013-03-12 09:05:00,67.3,27.8,29.56,NNW,343,3.1,4.0,22,-99.99,,,0.00,425.8,rob ver 1A,2013-03-12 16:05:00,
2013-03-12 09:06:00,69.7,29.7,29.59,West,278,5.0,6.0,22,-99.99,,,0.00,435.9,rob ver 1B,2013-03-12 16:06:00,
2013-03-12 09:07:00,69.8,29.6,29.59,West,281,4.9,6.2,22,-99.99,,,0.00,439.2,rob ver 1B,2013-03-12 16:07:00,
2013-03-12 09:08:00,69.9,29.7,29.59,WNW,282,5.1,6.1,22,-99.99,,,0.00,442.5,rob ver 1B,2013-03-12 16:08:00,
2013-03-12 09:09:00,70.1,29.7,29.59,WNW,283,4.8,5.4,22,-99.99,,,0.00,445.9,rob ver 1B,2013-03-12 16:09:00,
2013-03-12 09:10:00,68.4,28.2,29.56,NNW,340,2.3,3.0,22,-99.99,,,0.00,442,rob ver 1A,2013-03-12 16:10:00,
2013-03-12 09:11:00,70.5,29.9,29.59,WNW,291,4.3,5.8,21,-99.99,,,0.00,452.6,rob ver 1B,2013-03-12 16:11:00,
2013-03-12 09:12:00,70.6,29.8,29.59,West,281,4.9,5.9,22,-99.99,,,0.00,456.2,rob ver 1B,2013-03-12 16:12:00,
2013-03-12 09:13:00,70.5,29.9,29.59,West,281,5.1,6.4,21,-99.99,,,0.00,459.3,rob ver 1B,2013-03-12 16:13:00,
2013-03-12 09:14:00,70.5,29.9,29.59,WNW,284,3.8,4.9,22,-99.99,,,0.00,463.4,rob ver 1B,2013-03-12 16:14:00,
2013-03-12 09:15:00,69.0,28.1,29.56,NNW,342,1.3,1.7,21,-99.99,,,0.00,459.1,rob ver 1A,2013-03-12 16:15:00,
2013-03-12 09:16:00,70.7,30.1,29.59,West,276,3.9,4.8,22,-99.99,,,0.00,469.5,rob ver 1B,2013-03-12 16:16:00,
2013-03-12 09:17:00,70.7,29.9,29.59,West,281,3.9,5.0,22,-99.99,,,0.00,472.6,rob ver 1B,2013-03-12 16:17:00,
2013-03-12 09:18:00,70.7,30.1,29.59,WNW,283,3.9,4.6,21,-99.99,,,0.00,476.5,rob ver 1B,2013-03-12 16:18:00,
2013-03-12 09:19:00,70.9,30.2,29.59,WNW,283,3.5,4.2,22,-99.99,,,0.00,479.2,rob ver 1B,2013-03-12 16:19:00,
2013-03-12 09:20:00,69.3,27.4,29.56,North,10,1.6,2.6,20,-99.99,,,0.00,476.1,rob ver 1A,2013-03-12 16:20:00,
2013-03-12 09:21:00,71.1,30.5,29.59,WNW,290,4.0,4.6,22,-99.99,,,0.00,486,rob ver 1B,2013-03-12 16:21:00,
2013-03-12 09:22:00,71.2,30.6,29.59,WNW,298,3.3,4.4,22,-99.99,,,0.00,489.2,rob ver 1B,2013-03-12 16:22:00,
2013-03-12 09:23:00,71.4,30.5,29.59,WNW,293,3.5,4.5,21,-99.99,,,0.00,492.9,rob ver 1B,2013-03-12 16:23:00,
2013-03-12 09:24:00,71.6,30.2,29.59,NW,309,2.9,3.7,21,-99.99,,,0.00,495.5,rob ver 1B,2013-03-12 16:24:00,
2013-03-12 09:25:00,70.5,28.1,29.56,NE,36,2.4,3.2,20,-99.99,,,0.00,493.2,rob ver 1A,2013-03-12 16:25:00,
2013-03-12 09:26:00,72.0,30.5,29.59,WNW,300,2.9,3.9,21,-99.99,,,0.00,502.1,rob ver 1B,2013-03-12 16:26:00,
2013-03-12 09:27:00,72.0,30.9,29.59,WNW,290,2.4,3.9,21,-99.99,,,0.00,504.7,rob ver 1B,2013-03-12 16:27:00,
2013-03-12 09:28:00,72.2,31.0,29.59,West,271,3.6,4.4,21,-99.99,,,0.00,509.5,rob ver 1B,2013-03-12 16:28:00,
2013-03-12 09:29:00,72.2,30.8,29.59,WNW,295,3.9,4.4,21,-99.99,,,0.00,511.4,rob ver 1B,2013-03-12 16:29:00,
2013-03-12 09:30:00,70.3,28.2,29.56,North,6,1.4,2.7,20,-99.99,,,0.00,512.1,rob ver 1A,2013-03-12 16:30:00,
2013-03-12 09:31:00,72.2,30.9,29.59,WNW,292,4.0,4.9,22,-99.99,,,0.00,518,rob ver 1B,2013-03-12 16:31:00,
2013-03-12 09:32:00,72.2,30.9,29.59,WNW,284,4.7,5.5,21,-99.99,,,0.00,521.1,rob ver 1B,2013-03-12 16:32:00,
2013-03-12 09:33:00,72.2,31.0,29.59,West,279,4.2,6.1,21,-99.99,,,0.00,524.6,rob ver 1B,2013-03-12 16:33:00,
2013-03-12 09:34:00,72.2,30.9,29.59,WNW,286,5.0,6.4,21,-99.99,,,0.00,528.5,rob ver 1B,2013-03-12 16:34:00,
2013-03-12 09:35:00,71.3,28.6,29.56,North,359,2.6,3.8,20,-99.99,,,0.00,528.2,rob ver 1A,2013-03-12 16:35:00,
2013-03-12 09:36:00,72.3,31.0,29.59,WNW,287,4.6,5.3,21,-99.99,,,0.00,534.2,rob ver 1B,2013-03-12 16:36:00,
2013-03-12 09:37:00,72.4,31.1,29.59,WNW,288,4.9,6.3,21,-99.99,,,0.00,536.9,rob ver 1B,2013-03-12 16:37:00,
2013-03-12 09:38:00,72.6,30.6,29.59,WNW,294,5.8,6.5,21,-99.99,,,0.00,540.9,rob ver 1B,2013-03-12 16:38:00,
2013-03-12 09:39:00,72.8,30.6,29.59,WNW,295,5.6,6.5,21,-99.99,,,0.00,543.2,rob ver 1B,2013-03-12 16:39:00,
2013-03-12 09:40:00,73.0,30.5,29.59,WNW,294,6.7,8.2,20,-99.99,,,0.00,546.9,rob ver 1B,2013-03-12 16:40:00,
2013-03-12 09:41:00,71.8,28.9,29.56,ESE,104,1.5,2.2,20,-99.99,,,0.00,543.6,rob ver 1A,2013-03-12 16:41:00,
2013-03-12 09:42:00,73.5,30.1,29.59,WNW,293,7.0,8.7,19,-99.99,,,0.00,552.6,rob ver 1B,2013-03-12 16:42:00,
2013-03-12 09:43:00,73.6,30.4,29.59,WNW,296,7.4,9.9,20,-99.99,,,0.00,555.9,rob ver 1B,2013-03-12 16:43:00,
2013-03-12 09:44:00,73.5,30.1,29.59,WNW,297,8.0,9.2,19,-99.99,,,0.00,558.9,rob ver 1B,2013-03-12 16:44:00,
2013-03-12 09:45:00,73.5,30.3,29.59,WNW,300,7.9,9.1,20,-99.99,,,0.00,561.7,rob ver 1B,2013-03-12 16:45:00,
2013-03-12 09:46:00,71.1,28.7,29.56,ENE,59,3.8,4.9,20,-99.99,,,0.00,559.3,rob ver 1A,2013-03-12 16:46:00,
2013-03-12 09:47:00,73.3,30.4,29.59,WNW,294,7.3,9.0,20,-99.99,,,0.00,567.3,rob ver 1B,2013-03-12 16:47:00,
2013-03-12 09:48:00,73.4,30.3,29.59,NW,310,6.7,8.2,20,-99.99,,,0.00,571.4,rob ver 1B,2013-03-12 16:48:00,
2013-03-12 09:49:00,73.5,30.4,29.59,WNW,300,6.5,7.7,20,-99.99,,,0.00,573.7,rob ver 1B,2013-03-12 16:49:00,
2013-03-12 09:50:00,73.7,30.5,29.59,WNW,294,5.7,6.8,20,-99.99,,,0.00,577.3,rob ver 1B,2013-03-12 16:50:00,
2013-03-12 09:51:00,71.9,27.9,29.56,ENE,64,1.8,2.6,18,-99.99,,,0.00,573.5,rob ver 1A,2013-03-12 16:51:00,
2013-03-12 09:52:00,74.0,30.5,29.59,WNW,291,6.2,7.4,20,-99.99,,,0.00,583.3,rob ver 1B,2013-03-12 16:52:00,
2013-03-12 09:53:00,74.0,30.6,29.62,West,271,6.1,7.1,19,-99.99,,,0.00,586.1,rob ver 1B,2013-03-12 16:53:00,
2013-03-12 09:54:00,74.0,30.5,29.59,WNW,287,5.7,6.7,20,-99.99,,,0.00,588.8,rob ver 1B,2013-03-12 16:54:00,
2013-03-12 09:55:00,74.0,30.6,29.59,WNW,292,5.4,6.3,19,-99.99,,,0.00,592.2,rob ver 1B,2013-03-12 16:55:00,
2013-03-12 09:56:00,71.3,27.6,29.56,ENE,58,4.5,5.9,19,-99.99,,,0.00,588.3,rob ver 1A,2013-03-12 16:56:00,
2013-03-12 09:57:00,74.6,30.5,29.59,WNW,292,3.9,5.5,19,-99.99,,,0.00,597.6,rob ver 1B,2013-03-12 16:57:00,
2013-03-12 09:58:00,74.8,30.7,29.59,West,277,5.8,7.4,19,-99.99,,,0.00,600.4,rob ver 1B,2013-03-12 16:58:00,
2013-03-12 09:59:00,74.6,30.4,29.59,West,274,5.8,7.5,19,-99.99,,,0.00,603.8,rob ver 1B,2013-03-12 16:59:00,
2013-03-12 10:00:00,74.4,30.4,29.59,WNW,282,4.5,5.7,19,-99.99,,,0.00,606.6,rob ver 1B,2013-03-12 17:00:00,
2013-03-12 10:01:00,72.8,28.1,29.56,ESE,105,1.1,1.9,19,-99.99,,,0.00,602.2,rob ver 1A,2013-03-12 17:01:00,
2013-03-12 10:02:00,74.8,30.6,29.59,West,276,5.8,7.4,19,-99.99,,,0.00,611.7,rob ver 1B,2013-03-12 17:02:00,
2013-03-12 10:03:00,74.8,30.4,29.59,West,274,5.1,6.5,19,-99.99,,,0.00,614.8,rob ver 1B,2013-03-12 17:03:00,
2013-03-12 10:04:00,74.7,30.5,29.59,WNW,284,5.3,6.5,19,-99.99,,,0.00,617.1,rob ver 1B,2013-03-12 17:04:00,
2013-03-12 10:05:00,74.9,30.5,29.59,WNW,289,3.3,5.7,19,-99.99,,,0.00,619.7,rob ver 1B,2013-03-12 17:05:00,
2013-03-12 10:06:00,73.1,27.1,29.56,North,8,4.4,5.7,18,-99.99,,,0.00,619.4,rob ver 1A,2013-03-12 17:06:00,
2013-03-12 10:07:00,75.3,30.6,29.59,WSW,252,4.2,6.0,19,-99.99,,,0.00,624.9,rob ver 1B,2013-03-12 17:07:00,
2013-03-12 10:08:00,75.5,30.5,29.59,WSW,257,5.3,6.3,18,-99.99,,,0.00,628.5,rob ver 1B,2013-03-12 17:08:00,
2013-03-12 10:09:00,75.4,30.4,29.59,WSW,255,3.3,5.1,19,-99.99,,,0.00,630.8,rob ver 1B,2013-03-12 17:09:00,
2013-03-12 10:10:00,75.6,30.5,29.59,West,271,2.4,3.6,19,-99.99,,,0.00,633.6,rob ver 1B,2013-03-12 17:10:00,
2013-03-12 10:11:00,73.3,27.7,29.56,East,94,2.3,3.4,18,-99.99,,,0.00,633.3,rob ver 1A,2013-03-12 17:11:00,
2013-03-12 10:12:00,76.3,30.4,29.59,West,275,5.0,6.1,18,-99.99,,,0.00,639.3,rob ver 1B,2013-03-12 17:12:00,
2013-03-12 10:13:00,76.2,30.4,29.62,WNW,283,4.8,7.0,18,-99.99,,,0.00,641.8,rob ver 1B,2013-03-12 17:13:00,
2013-03-12 10:14:00,76.2,30.3,29.59,West,280,5.9,7.0,18,-99.99,,,0.00,644.6,rob ver 1B,2013-03-12 17:14:00,
2013-03-12 10:15:00,76.2,30.4,29.59,WNW,287,4.6,6.1,18,-99.99,,,0.00,647.2,rob ver 1B,2013-03-12 17:15:00,
2013-03-12 10:16:00,76.4,30.4,29.59,NW,312,3.3,4.5,18,-99.99,,,0.00,649.5,rob ver 1B,2013-03-12 17:16:00,
2013-03-12 10:17:00,72.3,27.0,29.56,SSE,163,1.8,2.6,18,-99.99,,,0.00,646.7,rob ver 1A,2013-03-12 17:17:00,
2013-03-12 10:18:00,76.9,30.4,29.59,West,269,3.5,5.2,18,-99.99,,,0.00,654.4,rob ver 1B,2013-03-12 17:18:00,
2013-03-12 10:19:00,76.9,30.3,29.59,West,265,5.7,7.6,17,-99.99,,,0.00,657,rob ver 1B,2013-03-12 17:19:00,
2013-03-12 10:20:00,76.7,30.1,29.59,WSW,257,4.1,6.6,18,-99.99,,,0.00,659.3,rob ver 1B,2013-03-12 17:20:00,
2013-03-12 10:21:00,76.7,30.2,29.59,West,262,4.0,5.6,18,-99.99,,,0.00,662.7,rob ver 1B,2013-03-12 17:21:00,
2013-03-12 10:22:00,73.7,26.8,29.56,WSW,256,1.4,2.7,17,-99.99,,,0.00,657.8,rob ver 1A,2013-03-12 17:22:00,
2013-03-12 10:23:00,76.9,29.8,29.59,WSW,256,3.5,6.2,17,-99.99,,,0.00,668.1,rob ver 1B,2013-03-12 17:23:00,
2013-03-12 10:24:00,76.8,29.9,29.59,WSW,242,4.9,6.0,17,-99.99,,,0.00,670.4,rob ver 1B,2013-03-12 17:24:00,
2013-03-12 10:25:00,76.8,30.0,29.59,WSW,238,3.5,5.0,17,-99.99,,,0.00,672.7,rob ver 1B,2013-03-12 17:25:00,
2013-03-12 10:26:00,77.1,30.0,29.59,SW,227,3.5,6.3,17,-99.99,,,0.00,673.7,rob ver 1B,2013-03-12 17:26:00,
2013-03-12 10:27:00,74.0,26.6,29.56,North,3,3.1,4.0,16,-99.99,,,0.00,670.7,rob ver 1A,2013-03-12 17:27:00,
2013-03-12 10:28:00,77.4,30.0,29.59,SSW,204,2.7,4.0,17,-99.99,,,0.00,680.4,rob ver 1B,2013-03-12 17:28:00,
2013-03-12 10:29:00,77.7,30.0,29.59,WSW,242,5.1,7.4,17,-99.99,,,0.00,682.2,rob ver 1B,2013-03-12 17:29:00,
2013-03-12 10:30:00,77.7,30.0,29.59,WSW,243,5.6,7.6,17,-99.99,,,0.00,685.5,rob ver 1B,2013-03-12 17:30:00,
2013-03-12 10:31:00,77.6,29.9,29.59,WSW,244,4.0,6.5,17,-99.99,,,0.00,687,rob ver 1B,2013-03-12 17:31:00,
2013-03-12 10:32:00,73.3,26.4,29.56,NNW,339,2.8,3.8,17,-99.99,,,0.00,683.6,rob ver 1A,2013-03-12 17:32:00,
2013-03-12 10:33:00,77.7,30.0,29.62,West,264,5.9,8.5,17,-99.99,,,0.00,692.4,rob ver 1B,2013-03-12 17:33:00,
2013-03-12 10:34:00,77.6,30.1,29.62,West,259,3.1,5.0,17,-99.99,,,0.00,695.6,rob ver 1B,2013-03-12 17:34:00,
2013-03-12 10:35:00,77.8,30.3,29.59,WSW,249,5.6,8.1,17,-99.99,,,0.00,696.6,rob ver 1B,2013-03-12 17:35:00,
2013-03-12 10:36:00,78.0,30.4,29.59,WSW,249,4.4,6.4,17,-99.99,,,0.00,698.9,rob ver 1B,2013-03-12 17:36:00,
2013-03-12 10:37:00,73.8,26.4,29.56,NNE,13,2.8,4.6,17,-99.99,,,0.00,697.7,rob ver 1A,2013-03-12 17:37:00,
2013-03-12 10:38:00,78.2,30.4,29.59,SW,231,5.4,6.8,17,-99.99,,,0.00,704,rob ver 1B,2013-03-12 17:38:00,
2013-03-12 10:39:00,78.4,30.3,29.59,West,265,6.7,8.2,17,-99.99,,,0.00,705,rob ver 1B,2013-03-12 17:39:00,
2013-03-12 10:40:00,78.5,30.4,29.59,West,272,4.8,8.2,17,-99.99,,,0.00,709,rob ver 1B,2013-03-12 17:40:00,
2013-03-12 10:41:00,78.6,30.5,29.59,West,266,5.3,8.0,17,-99.99,,,0.00,711,rob ver 1B,2013-03-12 17:41:00,
2013-03-12 10:42:00,78.7,30.4,29.59,West,273,7.3,9.3,17,-99.99,,,0.00,713,rob ver 1B,2013-03-12 17:42:00,
2013-03-12 10:43:00,75.4,25.9,29.59,NNE,21,2.8,4.2,15,-99.99,,,0.00,709,rob ver 1A,2013-03-12 17:43:00,
2013-03-12 10:44:00,78.7,30.5,29.59,West,265,5.5,7.6,16,-99.99,,,0.00,718,rob ver 1B,2013-03-12 17:44:00,
2013-03-12 10:45:00,78.8,30.4,29.59,WNW,282,6.0,7.6,16,-99.99,,,0.00,720,rob ver 1B,2013-03-12 17:45:00,
2013-03-12 10:46:00,78.9,30.4,29.59,WNW,291,4.3,6.1,16,-99.99,,,0.00,722,rob ver 1B,2013-03-12 17:46:00,
2013-03-12 10:47:00,79.2,30.6,29.59,West,269,3.7,5.4,17,-99.99,,,0.00,723,rob ver 1B,2013-03-12 17:47:00,
2013-03-12 10:48:00,74.8,25.5,29.59,WSW,244,2.4,3.5,15,-99.99,,,0.00,720,rob ver 1A,2013-03-12 17:48:00,
2013-03-12 10:49:00,79.8,30.5,29.59,WNW,284,3.5,5.6,16,-99.99,,,0.00,728,rob ver 1B,2013-03-12 17:49:00,
2013-03-12 10:50:00,80.0,30.6,29.59,West,271,2.5,3.4,16,-99.99,,,0.00,731,rob ver 1B,2013-03-12 17:50:00,
2013-03-12 10:51:00,80.2,30.8,29.59,West,263,4.2,5.4,16,-99.99,,,0.00,733,rob ver 1B,2013-03-12 17:51:00,
2013-03-12 10:52:00,80.1,30.5,29.59,WSW,254,3.6,5.5,16,-99.99,,,0.00,735,rob ver 1B,2013-03-12 17:52:00,
2013-03-12 10:53:00,74.4,25.3,29.56,ESE,120,4.3,5.6,15,-99.99,,,0.00,730,rob ver 1A,2013-03-12 17:53:00,
2013-03-12 10:54:00,80.3,30.6,29.59,WNW,290,3.8,5.6,16,-99.99,,,0.00,738,rob ver 1B,2013-03-12 17:54:00,
2013-03-12 10:55:00,80.3,30.6,29.59,West,263,5.5,7.0,16,-99.99,,,0.00,740,rob ver 1B,2013-03-12 17:55:00,
2013-03-12 10:56:00,80.0,30.7,29.59,WSW,257,5.6,7.3,16,-99.99,,,0.00,742,rob ver 1B,2013-03-12 17:56:00,
2013-03-12 10:57:00,79.9,30.4,29.59,West,260,6.3,9.1,16,-99.99,,,0.00,744,rob ver 1B,2013-03-12 17:57:00,
2013-03-12 10:58:00,75.9,25.8,29.56,ENE,73,1.2,2.4,15,-99.99,,,0.00,744,rob ver 1A,2013-03-12 17:58:00,
2013-03-12 10:59:00,79.8,30.4,29.59,West,266,5.3,9.6,16,-99.99,,,0.00,748,rob ver 1B,2013-03-12 17:59:00,
2013-03-12 11:00:00,79.7,30.3,29.59,West,263,4.5,7.0,16,-99.99,,,0.00,750,rob ver 1B,2013-03-12 18:00:00,
2013-03-12 11:01:00,79.8,30.4,29.59,West,277,6.0,8.0,16,-99.99,,,0.00,752,rob ver 1B,2013-03-12 18:01:00,
2013-03-12 11:02:00,79.9,30.6,29.59,WNW,289,4.9,6.8,16,-99.99,,,0.00,754,rob ver 1B,2013-03-12 18:02:00,
2013-03-12 11:03:00,75.2,25.0,29.59,WSW,257,1.0,1.6,15,-99.99,,,0.00,752,rob ver 1A,2013-03-12 18:03:00,
2013-03-12 11:04:00,80.0,30.5,29.59,West,267,7.9,9.7,16,-99.99,,,0.00,758,rob ver 1B,2013-03-12 18:04:00,
2013-03-12 11:05:00,79.8,30.4,29.59,West,260,5.4,7.9,16,-99.99,,,0.00,760,rob ver 1B,2013-03-12 18:05:00,
2013-03-12 11:06:00,79.8,30.4,29.59,WSW,250,5.2,7.2,16,-99.99,,,0.00,761,rob ver 1B,2013-03-12 18:06:00,
2013-03-12 11:07:00,79.9,30.5,29.59,SW,235,3.3,5.2,16,-99.99,,,0.00,763,rob ver 1B,2013-03-12 18:07:00,
2013-03-12 11:08:00,76.9,23.6,29.59,ENE,59,2.0,3.2,13,-99.99,,,0.00,761,rob ver 1A,2013-03-12 18:08:00,
2013-03-12 11:09:00,80.3,30.5,29.59,WNW,294,6.1,8.8,16,-99.99,,,0.00,767,rob ver 1B,2013-03-12 18:09:00,
2013-03-12 11:10:00,80.4,30.9,29.59,WNW,294,4.4,6.4,16,-99.99,,,0.00,769,rob ver 1B,2013-03-12 18:10:00,
2013-03-12 11:11:00,80.8,31.0,29.59,West,280,5.3,7.4,16,-99.99,,,0.00,772,rob ver 1B,2013-03-12 18:11:00,
2013-03-12 11:12:00,80.9,30.7,29.59,WNW,284,4.9,6.4,16,-99.99,,,0.00,772,rob ver 1B,2013-03-12 18:12:00,
2013-03-12 11:13:00,74.9,23.9,29.56,ESE,110,5.5,7.3,14,-99.99,,,0.00,769,rob ver 1A,2013-03-12 18:13:00,
2013-03-12 11:14:00,81.4,30.9,29.59,West,269,4.3,5.6,15,-99.99,,,0.00,775,rob ver 1B,2013-03-12 18:14:00,
2013-03-12 11:15:00,81.3,30.9,29.59,West,274,5.7,8.0,16,-99.99,,,0.00,778,rob ver 1B,2013-03-12 18:15:00,
2013-03-12 11:16:00,81.1,31.0,29.59,WSW,254,4.2,6.0,16,-99.99,,,0.00,779,rob ver 1B,2013-03-12 18:16:00,
2013-03-12 11:17:00,81.3,31.4,29.59,WSW,253,4.8,8.4,16,-99.99,,,0.00,782,rob ver 1B,2013-03-12 18:17:00,
2013-03-12 11:18:00,74.5,23.8,29.56,East,99,1.9,4.5,15,-99.99,,,0.00,779,rob ver 1A,2013-03-12 18:18:00,
2013-03-12 11:19:00,81.1,31.1,29.59,West,271,7.0,8.9,16,-99.99,,,0.00,785,rob ver 1B,2013-03-12 18:19:00,
2013-03-12 11:20:00,80.9,30.9,29.59,WNW,287,3.4,5.3,16,-99.99,,,0.00,786,rob ver 1B,2013-03-12 18:20:00,
2013-03-12 11:21:00,81.1,31.1,29.59,WNW,290,4.2,6.3,16,-99.99,,,0.00,787,rob ver 1B,2013-03-12 18:21:00,
2013-03-12 11:22:00,81.6,31.2,29.59,WNW,291,4.7,6.4,15,-99.99,,,0.00,789,rob ver 1B,2013-03-12 18:22:00,
2013-03-12 11:23:00,81.9,30.9,29.59,WNW,289,7.2,9.3,15,-99.99,,,0.00,790,rob ver 1B,2013-03-12 18:23:00,
2013-03-12 11:24:00,75.1,25.4,29.56,SSE,149,4.0,7.2,15,-99.99,,,0.00,786,rob ver 1A,2013-03-12 18:24:00,
2013-03-12 11:25:00,81.5,30.9,29.59,NW,309,2.1,3.9,15,-99.99,,,0.00,793,rob ver 1B,2013-03-12 18:25:00,
2013-03-12 11:26:00,82.1,30.9,29.59,NW,315,1.4,3.0,15,-99.99,,,0.00,795,rob ver 1B,2013-03-12 18:26:00,
2013-03-12 11:27:00,82.8,31.1,29.59,South,184,2.1,4.3,14,-99.99,,,0.00,797,rob ver 1B,2013-03-12 18:27:00,
2013-03-12 11:28:00,82.9,30.4,29.59,SW,220,3.4,6.2,14,-99.99,,,0.00,798,rob ver 1B,2013-03-12 18:28:00,
2013-03-12 11:29:00,75.1,24.5,29.56,SE,138,1.4,2.2,15,-99.99,,,0.00,795,rob ver 1A,2013-03-12 18:29:00,
2013-03-12 11:30:00,82.4,30.3,29.59,SSW,209,2.7,5.1,14,-99.99,,,0.00,800,rob ver 1B,2013-03-12 18:30:00,
2013-03-12 11:31:00,82.4,30.3,29.59,SW,226,1.9,3.2,15,-99.99,,,0.00,802,rob ver 1B,2013-03-12 18:31:00,
2013-03-12 11:32:00,82.7,30.4,29.59,SSW,196,1.9,2.8,14,-99.99,,,0.00,802,rob ver 1B,2013-03-12 18:32:00,
2013-03-12 11:33:00,83.2,30.2,29.59,SW,224,2.1,5.3,14,-99.99,,,0.00,806,rob ver 1B,2013-03-12 18:33:00,
2013-03-12 11:34:00,76.4,23.7,29.56,South,183,3.3,5.3,13,-99.99,,,0.00,802,rob ver 1A,2013-03-12 18:34:00,
2013-03-12 11:35:00,83.3,30.0,29.59,WSW,238,3.9,5.2,14,-99.99,,,0.00,807,rob ver 1B,2013-03-12 18:35:00,
2013-03-12 11:36:00,83.1,29.7,29.59,SW,221,3.9,5.4,14,-99.99,,,0.00,809,rob ver 1B,2013-03-12 18:36:00,
2013-03-12 11:37:00,83.0,29.4,29.59,SW,224,3.2,4.8,14,-99.99,,,0.00,810,rob ver 1B,2013-03-12 18:37:00,
2013-03-12 11:38:00,83.0,29.9,29.59,SSW,204,3.8,5.0,14,-99.99,,,0.00,811,rob ver 1B,2013-03-12 18:38:00,
2013-03-12 11:39:00,76.5,23.4,29.56,SE,132,1.4,3.1,13,-99.99,,,0.00,808,rob ver 1A,2013-03-12 18:39:00,
2013-03-12 11:40:00,83.3,29.5,29.59,SE,137,1.6,2.7,14,-99.99,,,0.00,814,rob ver 1B,2013-03-12 18:40:00,
2013-03-12 11:41:00,83.4,29.3,29.59,SE,126,2.6,3.6,13,-99.99,,,0.00,815,rob ver 1B,2013-03-12 18:41:00,
2013-03-12 11:42:00,83.2,29.3,29.59,ESE,121,2.5,4.0,14,-99.99,,,0.00,817,rob ver 1B,2013-03-12 18:42:00,
2013-03-12 11:43:00,83.4,29.5,29.59,SE,125,2.1,3.0,14,-99.99,,,0.00,819,rob ver 1B,2013-03-12 18:43:00,
2013-03-12 11:44:00,83.8,29.7,29.59,NW,323,1.1,1.9,13,-99.99,,,0.00,819,rob ver 1B,2013-03-12 18:44:00,
2013-03-12 11:45:00,77.2,24.8,29.56,West,277,0.8,1.8,14,-99.99,,,0.00,815,rob ver 1A,2013-03-12 18:45:00,
2013-03-12 11:46:00,84.9,29.4,29.59,WSW,241,2.2,4.0,13,-99.99,,,0.00,821,rob ver 1B,2013-03-12 18:46:00,
2013-03-12 11:47:00,84.8,29.5,29.59,SW,224,3.5,6.0,13,-99.99,,,0.00,822,rob ver 1B,2013-03-12 18:47:00,
2013-03-12 11:48:00,84.5,29.3,29.59,SSW,202,4.1,6.3,13,-99.99,,,0.00,822,rob ver 1B,2013-03-12 18:48:00,
2013-03-12 11:49:00,84.4,29.2,29.59,WSW,255,6.7,8.4,13,-99.99,,,0.00,826,rob ver 1B,2013-03-12 18:49:00,
2013-03-12 11:50:00,76.2,23.8,29.56,SE,136,2.8,3.9,14,-99.99,,,0.00,821,rob ver 1A,2013-03-12 18:50:00,
2013-03-12 11:51:00,83.9,29.1,29.59,SW,232,4.3,6.8,13,-99.99,,,0.00,826,rob ver 1B,2013-03-12 18:51:00,
2013-03-12 11:52:00,83.9,29.0,29.59,WSW,247,2.3,3.8,13,-99.99,,,0.00,827,rob ver 1B,2013-03-12 18:52:00,
2013-03-12 11:53:00,84.2,29.1,29.59,SW,227,1.7,2.4,13,-99.99,,,0.00,828,rob ver 1B,2013-03-12 18:53:00,
2013-03-12 11:54:00,84.3,29.0,29.59,SE,126,1.2,2.3,13,-99.99,,,0.00,830,rob ver 1B,2013-03-12 18:54:00,
2013-03-12 11:55:00,76.3,23.4,29.56,West,264,3.3,5.7,13,-99.99,,,0.00,826,rob ver 1A,2013-03-12 18:55:00,
2013-03-12 11:56:00,85.4,29.4,29.59,SSE,165,1.4,2.5,13,-99.99,,,0.00,832,rob ver 1B,2013-03-12 18:56:00,
2013-03-12 11:57:00,85.7,29.3,29.59,SW,225,3.7,5.7,13,-99.99,,,0.00,833,rob ver 1B,2013-03-12 18:57:00,
2013-03-12 11:58:00,85.6,29.1,29.59,SW,222,4.5,8.2,12,-99.99,,,0.00,833,rob ver 1B,2013-03-12 18:58:00,
2013-03-12 11:59:00,85.2,28.9,29.59,SW,216,5.6,6.9,13,-99.99,,,0.00,835,rob ver 1B,2013-03-12 18:59:00,
2013-03-12 12:00:00,77.4,23.3,29.56,ESE,108,1.0,1.6,13,-99.99,,,0.00,832,rob ver 1A,2013-03-12 19:00:00,
2013-03-12 12:01:00,84.9,28.7,29.59,SSW,196,4.5,6.3,12,-99.99,,,0.00,836,rob ver 1B,2013-03-12 19:01:00,
2013-03-12 12:02:00,85.0,28.6,29.59,South,190,3.3,6.1,12,-99.99,,,0.00,838,rob ver 1B,2013-03-12 19:02:00,
2013-03-12 12:03:00,85.2,28.8,29.59,SSW,210,4.6,6.0,12,-99.99,,,0.00,838,rob ver 1B,2013-03-12 19:03:00,
2013-03-12 12:04:00,85.4,28.7,29.59,SSW,194,2.9,4.0,12,-99.99,,,0.00,839,rob ver 1B,2013-03-12 19:04:00,
2013-03-12 12:05:00,79.3,23.7,29.56,South,186,4.4,6.6,12,-99.99,,,0.00,836,rob ver 1A,2013-03-12 19:05:00,
2013-03-12 12:06:00,86.0,29.1,29.59,WSW,251,5.1,8.8,12,-99.99,,,0.00,840,rob ver 1B,2013-03-12 19:06:00,
2013-03-12 12:07:00,86.0,28.7,29.59,West,277,5.6,9.1,12,-99.99,,,0.00,841,rob ver 1B,2013-03-12 19:07:00,
2013-03-12 12:08:00,85.7,28.5,29.59,WNW,287,2.0,5.0,12,-99.99,,,0.00,841,rob ver 1B,2013-03-12 19:08:00,
2013-03-12 12:09:00,85.9,28.5,29.59,South,181,1.5,2.7,12,-99.99,,,0.00,843,rob ver 1B,2013-03-12 19:09:00,
2013-03-12 12:10:00,77.5,23.5,29.56,ESE,109,3.9,4.9,13,-99.99,,,0.00,841,rob ver 1A,2013-03-12 19:10:00,
2013-03-12 12:11:00,86.6,28.9,29.59,WNW,295,4.0,6.3,12,-99.99,,,0.00,845,rob ver 1B,2013-03-12 19:11:00,
2013-03-12 12:12:00,86.6,28.9,29.59,WSW,252,3.3,7.7,12,-99.99,,,0.00,844,rob ver 1B,2013-03-12 19:12:00,
2013-03-12 12:13:00,86.8,29.0,29.59,NNE,16,2.1,3.6,12,-99.99,,,0.00,845,rob ver 1B,2013-03-12 19:13:00,
2013-03-12 12:14:00,87.2,28.9,29.59,East,88,2.1,4.5,12,-99.99,,,0.00,849,rob ver 1B,2013-03-12 19:14:00,
2013-03-12 12:15:00,77.6,23.6,29.56,SSE,161,4.5,6.7,13,-99.99,,,0.00,843,rob ver 1A,2013-03-12 19:15:00,
2013-03-12 12:16:00,87.2,29.3,29.56,WNW,293,5.5,9.4,12,-99.99,,,0.00,847,rob ver 1B,2013-03-12 19:16:00,
2013-03-12 12:17:00,87.4,28.8,29.59,West,266,4.9,7.2,12,-99.99,,,0.00,849,rob ver 1B,2013-03-12 19:17:00,
2013-03-12 12:18:00,86.9,28.7,29.59,West,280,3.9,6.2,12,-99.99,,,0.00,849,rob ver 1B,2013-03-12 19:18:00,
2013-03-12 12:19:00,86.4,28.4,29.59,South,174,2.0,5.0,12,-99.99,,,0.00,849,rob ver 1B,2013-03-12 19:19:00,
2013-03-12 12:20:00,78.6,24.8,29.56,South,182,2.5,5.0,13,-99.99,,,0.00,847,rob ver 1A,2013-03-12 19:20:00,
2013-03-12 12:21:00,86.2,28.6,29.59,South,173,2.4,3.2,12,-99.99,,,0.00,851,rob ver 1B,2013-03-12 19:21:00,
2013-03-12 12:22:00,86.8,28.9,29.59,SSE,161,1.6,3.2,12,-99.99,,,0.00,851,rob ver 1B,2013-03-12 19:22:00,
2013-03-12 12:23:00,87.3,28.8,29.59,SW,221,4.6,6.5,11,-99.99,,,0.00,852,rob ver 1B,2013-03-12 19:23:00,
2013-03-12 12:24:00,87.2,28.2,29.56,WSW,243,3.8,6.0,11,-99.99,,,0.00,852,rob ver 1B,2013-03-12 19:24:00,
2013-03-12 12:25:00,79.1,24.6,29.56,East,98,1.4,2.5,13,-99.99,,,0.00,850,rob ver 1A,2013-03-12 19:25:00,
2013-03-12 12:26:00,86.6,28.3,29.56,SSW,199,1.8,3.6,12,-99.99,,,0.00,854,rob ver 1B,2013-03-12 19:26:00,
2013-03-12 12:27:00,86.9,28.4,29.56,WNW,295,2.9,5.7,11,-99.99,,,0.00,854,rob ver 1B,2013-03-12 19:27:00,
2013-03-12 12:28:00,87.2,28.5,29.56,NNW,346,4.3,7.5,11,-99.99,,,0.00,855,rob ver 1B,2013-03-12 19:28:00,
2013-03-12 12:29:00,87.3,28.6,29.56,NNE,18,3.9,7.5,12,-99.99,,,0.00,854,rob ver 1B,2013-03-12 19:29:00,
2013-03-12 12:30:00,87.3,28.5,29.56,North,357,5.1,7.5,12,-99.99,,,0.00,857,rob ver 1B,2013-03-12 19:30:00,
2013-03-12 12:31:00,79.3,24.1,29.56,SSW,205,5.4,8.0,12,-99.99,,,0.00,852,rob ver 1A,2013-03-12 19:31:00,
2013-03-12 12:32:00,87.3,28.6,29.56,NNW,347,2.6,4.2,11,-99.99,,,0.00,856,rob ver 1B,2013-03-12 19:32:00,
2013-03-12 12:33:00,87.6,28.6,29.56,North,3,2.5,3.7,11,-99.99,,,0.00,857,rob ver 1B,2013-03-12 19:33:00,
2013-03-12 12:34:00,87.9,29.1,29.56,WNW,293,4.0,7.8,12,-99.99,,,0.00,855,rob ver 1B,2013-03-12 19:34:00,
2013-03-12 12:35:00,88.2,28.8,29.56,South,187,5.2,9.3,11,-99.99,,,0.00,856,rob ver 1B,2013-03-12 19:35:00,
2013-03-12 12:36:00,79.8,24.0,29.56,NNW,328,0.8,2.7,12,-99.99,,,0.00,852,rob ver 1A,2013-03-12 19:36:00,
2013-03-12 12:37:00,88.1,28.3,29.56,North,359,4.2,7.2,11,-99.99,,,0.00,858,rob ver 1B,2013-03-12 19:37:00,
2013-03-12 12:38:00,88.0,28.5,29.56,NW,325,6.3,9.5,11,-99.99,,,0.00,858,rob ver 1B,2013-03-12 19:38:00,
2013-03-12 12:39:00,87.6,28.1,29.56,WNW,303,5.0,9.7,11,-99.99,,,0.00,859,rob ver 1B,2013-03-12 19:39:00,
2013-03-12 12:40:00,87.3,28.3,29.56,WNW,299,2.6,4.4,11,-99.99,,,0.00,857,rob ver 1B,2013-03-12 19:40:00,
2013-03-12 12:41:00,79.1,23.6,29.56,WSW,241,3.9,6.1,12,-99.99,,,0.00,853,rob ver 1A,2013-03-12 19:41:00,
2013-03-12 12:42:00,87.6,28.2,29.56,NNE,33,1.5,3.8,11,-99.99,,,0.00,858,rob ver 1B,2013-03-12 19:42:00,
2013-03-12 12:43:00,87.9,28.3,29.56,WSW,254,1.1,3.3,11,-99.99,,,0.00,858,rob ver 1B,2013-03-12 19:43:00,
2013-03-12 12:44:00,88.1,28.3,29.56,SE,127,1.1,2.3,11,-99.99,,,0.00,859,rob ver 1B,2013-03-12 19:44:00,
2013-03-12 12:45:00,88.3,28.3,29.56,ESE,120,1.9,3.8,11,-99.99,,,0.00,858,rob ver 1B,2013-03-12 19:45:00,
2013-03-12 12:46:00,79.3,23.8,29.56,West,280,3.2,4.4,12,-99.99,,,0.00,854,rob ver 1A,2013-03-12 19:46:00,
2013-03-12 12:47:00,88.4,28.3,29.56,WSW,252,4.3,7.5,11,-99.99,,,0.00,858,rob ver 1B,2013-03-12 19:47:00,
2013-03-12 12:48:00,88.2,28.1,29.56,SSW,212,5.1,7.5,11,-99.99,,,0.00,858,rob ver 1B,2013-03-12 19:48:00,
2013-03-12 12:49:00,87.7,27.9,29.56,South,182,4.5,6.8,11,-99.99,,,0.00,859,rob ver 1B,2013-03-12 19:49:00,
2013-03-12 12:50:00,87.7,28.0,29.56,SW,234,6.1,8.6,11,-99.99,,,0.00,855,rob ver 1B,2013-03-12 19:50:00,
2013-03-12 12:51:00,79.0,23.4,29.56,WSW,248,2.6,4.4,12,-99.99,,,0.00,854,rob ver 1A,2013-03-12 19:51:00,
2013-03-12 12:52:00,87.6,28.4,29.56,SW,226,5.0,7.0,12,-99.99,,,0.00,858,rob ver 1B,2013-03-12 19:52:00,
2013-03-12 12:53:00,87.9,28.6,29.56,SW,231,7.1,11.3,11,-99.99,,,0.00,857,rob ver 1B,2013-03-12 19:53:00,
2013-03-12 12:54:00,87.8,28.4,29.56,SW,230,8.9,12.0,11,-99.99,,,0.00,857,rob ver 1B,2013-03-12 19:54:00,
2013-03-12 12:55:00,87.5,28.4,29.56,WSW,252,8.1,11.0,11,-99.99,,,0.00,857,rob ver 1B,2013-03-12 19:55:00,
2013-03-12 12:56:00,79.4,23.5,29.53,South,188,6.3,7.7,12,-99.99,,,0.00,855,rob ver 1A,2013-03-12 19:56:00,
2013-03-12 12:57:00,87.2,28.3,29.56,West,276,8.0,9.8,12,-99.99,,,0.00,857,rob ver 1B,2013-03-12 19:57:00,
2013-03-12 12:58:00,87.0,28.2,29.56,West,270,6.6,11.5,11,-99.99,,,0.00,857,rob ver 1B,2013-03-12 19:58:00,
2013-03-12 12:59:00,87.0,28.2,29.56,NNE,25,1.3,2.4,11,-99.99,,,0.00,856,rob ver 1B,2013-03-12 19:59:00,
2013-03-12 13:00:00,87.5,28.6,29.56,West,263,1.6,5.8,11,-99.99,,,0.00,857,rob ver 1B,2013-03-12 20:00:00,
2013-03-12 13:01:00,80.2,23.7,29.53,SSW,194,6.5,8.1,12,-99.99,,,0.00,853,rob ver 1A,2013-03-12 20:01:00,
2013-03-12 13:02:00,88.0,28.8,29.56,NW,308,2.3,4.9,11,-99.99,,,0.00,856,rob ver 1B,2013-03-12 20:02:00,
2013-03-12 13:03:00,88.5,29.0,29.56,NW,307,2.6,7.0,11,-99.99,,,0.00,856,rob ver 1B,2013-03-12 20:03:00,
2013-03-12 13:04:00,88.8,29.0,29.56,South,190,5.2,8.0,11,-99.99,,,0.00,855,rob ver 1B,2013-03-12 20:04:00,
2013-03-12 13:05:00,88.9,28.7,29.56,SW,226,6.6,9.5,11,-99.99,,,0.00,855,rob ver 1B,2013-03-12 20:05:00,
2013-03-12 13:06:00,79.9,23.6,29.53,SSW,201,6.6,8.5,12,-99.99,,,0.00,853,rob ver 1A,2013-03-12 20:06:00,
2013-03-12 13:07:00,88.6,28.6,29.56,WSW,238,6.6,10.8,11,-99.99,,,0.00,856,rob ver 1B,2013-03-12 20:07:00,
2013-03-12 13:08:00,89.1,28.7,29.56,NNW,334,4.7,7.1,11,-99.99,,,0.00,856,rob ver 1B,2013-03-12 20:08:00,
2013-03-12 13:09:00,89.2,28.6,29.56,NNW,333,4.5,6.4,11,-99.99,,,0.00,854,rob ver 1B,2013-03-12 20:09:00,
2013-03-12 13:10:00,89.1,28.7,29.56,NNW,340,4.4,9.3,11,-99.99,,,0.00,855,rob ver 1B,2013-03-12 20:10:00,
2013-03-12 13:11:00,79.6,23.6,29.53,ESE,119,4.7,7.1,12,-99.99,,,0.00,850,rob ver 1A,2013-03-12 20:11:00,
2013-03-12 13:12:00,89.4,28.8,29.56,West,275,7.1,9.0,11,-99.99,,,0.00,854,rob ver 1B,2013-03-12 20:12:00,
2013-03-12 13:13:00,89.2,28.5,29.56,WNW,302,6.6,9.6,11,-99.99,,,0.00,853,rob ver 1B,2013-03-12 20:13:00,
2013-03-12 13:14:00,88.6,28.3,29.56,WNW,299,5.6,10.8,11,-99.99,,,0.00,853,rob ver 1B,2013-03-12 20:14:00,
2013-03-12 13:15:00,88.1,28.4,29.56,West,270,6.4,9.4,11,-99.99,,,0.00,853,rob ver 1B,2013-03-12 20:15:00,
2013-03-12 13:16:00,87.9,28.2,29.56,SW,232,6.9,9.6,11,-99.99,,,0.00,852,rob ver 1B,2013-03-12 20:16:00,
2013-03-12 13:17:00,79.7,23.5,29.53,SE,134,6.0,8.5,12,-99.99,,,0.00,849,rob ver 1A,2013-03-12 20:17:00,
2013-03-12 13:18:00,87.7,28.1,29.56,SW,228,1.1,4.1,11,-99.99,,,0.00,851,rob ver 1B,2013-03-12 20:18:00,
2013-03-12 13:19:00,88.2,28.4,29.53,SE,132,1.4,2.1,11,-99.99,,,0.00,849,rob ver 1B,2013-03-12 20:19:00,
2013-03-12 13:20:00,88.6,28.2,29.53,East,87,1.9,2.8,11,-99.99,,,0.00,850,rob ver 1B,2013-03-12 20:20:00,
2013-03-12 13:21:00,88.8,28.3,29.53,SE,144,1.8,3.0,11,-99.99,,,0.00,850,rob ver 1B,2013-03-12 20:21:00,
2013-03-12 13:22:00,79.2,23.4,29.53,ESE,107,3.3,6.5,12,-99.99,,,0.00,847,rob ver 1A,2013-03-12 20:22:00,
2013-03-12 13:23:00,88.2,28.3,29.53,South,185,4.4,6.2,11,-99.99,,,0.00,847,rob ver 1B,2013-03-12 20:23:00,
2013-03-12 13:24:00,87.9,28.2,29.53,ESE,122,1.6,3.5,11,-99.99,,,0.00,847,rob ver 1B,2013-03-12 20:24:00,
2013-03-12 13:25:00,88.3,28.3,29.53,NE,46,0.9,1.6,11,-99.99,,,0.00,845,rob ver 1B,2013-03-12 20:25:00,
2013-03-12 13:26:00,89.0,28.7,29.53,NNE,25,1.7,3.3,11,-99.99,,,0.00,844,rob ver 1B,2013-03-12 20:26:00,
2013-03-12 13:27:00,80.0,23.6,29.53,SSW,202,5.9,8.6,12,-99.99,,,0.00,843,rob ver 1A,2013-03-12 20:27:00,
2013-03-12 13:28:00,89.4,28.7,29.53,WSW,242,5.0,8.4,11,-99.99,,,0.00,843,rob ver 1B,2013-03-12 20:28:00,
2013-03-12 13:29:00,89.2,28.5,29.53,SW,215,7.6,9.9,11,-99.99,,,0.00,843,rob ver 1B,2013-03-12 20:29:00,
2013-03-12 13:30:00,88.8,28.5,29.53,SW,222,5.5,9.3,11,-99.99,,,0.00,842,rob ver 1B,2013-03-12 20:30:00,
2013-03-12 13:31:00,88.6,28.4,29.53,WSW,249,6.4,8.2,11,-99.99,,,0.00,842,rob ver 1B,2013-03-12 20:31:00,
2013-03-12 13:32:00,79.9,23.4,29.53,East,100,3.2,4.0,12,-99.99,,,0.00,838,rob ver 1A,2013-03-12 20:32:00,
2013-03-12 13:33:00,88.1,28.1,29.53,SW,228,5.0,7.4,11,-99.99,,,0.00,841,rob ver 1B,2013-03-12 20:33:00,
2013-03-12 13:34:00,88.0,28.1,29.53,SW,226,3.4,5.8,11,-99.99,,,0.00,840,rob ver 1B,2013-03-12 20:34:00,
2013-03-12 13:35:00,88.1,28.2,29.53,SSW,195,3.8,6.2,11,-99.99,,,0.00,839,rob ver 1B,2013-03-12 20:35:00,
2013-03-12 13:36:00,88.2,28.0,29.53,SSE,157,2.8,3.7,11,-99.99,,,0.00,837,rob ver 1B,2013-03-12 20:36:00,
2013-03-12 13:37:00,80.7,23.5,29.53,SSE,147,3.6,4.8,12,-99.99,,,0.00,835,rob ver 1A,2013-03-12 20:37:00,
2013-03-12 13:38:00,88.8,28.5,29.53,SW,216,4.4,7.1,11,-99.99,,,0.00,836,rob ver 1B,2013-03-12 20:38:00,
2013-03-12 13:39:00,89.0,28.4,29.53,SSW,213,4.7,6.2,11,-99.99,,,0.00,834,rob ver 1B,2013-03-12 20:39:00,
2013-03-12 13:40:00,88.8,28.4,29.53,SSW,207,4.4,6.8,11,-99.99,,,0.00,833,rob ver 1B,2013-03-12 20:40:00,
2013-03-12 13:41:00,88.9,28.5,29.53,SSW,210,2.9,6.4,11,-99.99,,,0.00,833,rob ver 1B,2013-03-12 20:41:00,
2013-03-12 13:42:00,81.1,23.6,29.53,East,98,3.2,6.7,11,-99.99,,,0.00,830,rob ver 1A,2013-03-12 20:42:00,
2013-03-12 13:43:00,88.8,28.4,29.53,SSW,192,6.7,9.8,11,-99.99,,,0.00,831,rob ver 1B,2013-03-12 20:43:00,
2013-03-12 13:44:00,88.9,28.4,29.53,South,191,7.3,8.6,11,-99.99,,,0.00,831,rob ver 1B,2013-03-12 20:44:00,
2013-03-12 13:45:00,88.8,28.4,29.53,South,186,4.4,7.5,11,-99.99,,,0.00,831,rob ver 1B,2013-03-12 20:45:00,
2013-03-12 13:46:00,89.1,28.5,29.53,South,183,6.5,9.5,11,-99.99,,,0.00,829,rob ver 1B,2013-03-12 20:46:00,
2013-03-12 13:47:00,89.1,28.4,29.53,SSE,163,6.4,8.6,11,-99.99,,,0.00,828,rob ver 1B,2013-03-12 20:47:00,
2013-03-12 13:48:00,81.3,23.4,29.53,East,85,4.5,6.7,11,-99.99,,,0.00,826,rob ver 1A,2013-03-12 20:48:00,
2013-03-12 13:49:00,88.4,28.2,29.53,SSE,151,7.5,9.6,11,-99.99,,,0.00,826,rob ver 1B,2013-03-12 20:49:00,
2013-03-12 13:50:00,88.1,28.2,29.53,SE,139,7.2,9.6,11,-99.99,,,0.00,824,rob ver 1B,2013-03-12 20:50:00,
2013-03-12 13:51:00,88.3,28.3,29.53,SE,143,7.0,9.1,11,-99.99,,,0.00,824,rob ver 1B,2013-03-12 20:51:00,
2013-03-12 13:52:00,88.6,28.5,29.53,South,175,4.5,6.3,11,-99.99,,,0.00,823,rob ver 1B,2013-03-12 20:52:00,
2013-03-12 13:53:00,81.2,23.5,29.50,ESE,122,1.8,3.5,11,-99.99,,,0.00,819,rob ver 1A,2013-03-12 20:53:00,
2013-03-12 13:54:00,89.3,28.4,29.53,South,179,5.9,7.9,11,-99.99,,,0.00,819,rob ver 1B,2013-03-12 20:54:00,
2013-03-12 13:55:00,89.2,28.2,29.53,SSE,160,4.3,6.3,11,-99.99,,,0.00,820,rob ver 1B,2013-03-12 20:55:00,
2013-03-12 13:56:00,89.1,28.4,29.53,SE,146,5.4,8.5,11,-99.99,,,0.00,818,rob ver 1B,2013-03-12 20:56:00,
2013-03-12 13:57:00,89.3,28.4,29.53,SSW,197,4.3,6.8,11,-99.99,,,0.00,816,rob ver 1B,2013-03-12 20:57:00,
2013-03-12 13:58:00,82.4,23.5,29.50,South,177,3.0,4.4,11,-99.99,,,0.00,814,rob ver 1A,2013-03-12 20:58:00,
2013-03-12 13:59:00,89.6,28.4,29.53,WSW,258,4.8,6.9,11,-99.99,,,0.00,814,rob ver 1B,2013-03-12 20:59:00,
2013-03-12 14:00:00,89.4,28.5,29.53,West,273,4.6,6.9,11,-99.99,,,0.00,813,rob ver 1B,2013-03-12 21:00:00,
2013-03-12 14:01:00,89.5,28.5,29.53,NW,308,5.9,7.6,11,-99.99,,,0.00,813,rob ver 1B,2013-03-12 21:01:00,
2013-03-12 14:02:00,89.5,28.7,29.53,WNW,288,6.3,8.0,11,-99.99,,,0.00,810,rob ver 1B,2013-03-12 21:02:00,
2013-03-12 14:03:00,82.2,23.7,29.50,SSW,197,3.2,5.5,11,-99.99,,,0.00,809,rob ver 1A,2013-03-12 21:03:00,
2013-03-12 14:04:00,89.2,28.6,29.53,WSW,241,7.9,10.6,11,-99.99,,,0.00,806,rob ver 1B,2013-03-12 21:04:00,
2013-03-12 14:05:00,89.6,28.6,29.53,SW,226,10.1,12.9,11,-99.99,,,0.00,807,rob ver 1B,2013-03-12 21:05:00,
2013-03-12 14:06:00,89.6,28.4,29.53,SSW,212,9.5,12.8,11,-99.99,,,0.00,806,rob ver 1B,2013-03-12 21:06:00,
2013-03-12 14:07:00,89.2,28.3,29.53,SSW,195,7.2,8.4,11,-99.99,,,0.00,804,rob ver 1B,2013-03-12 21:07:00,
2013-03-12 14:08:00,82.8,23.9,29.50,South,169,3.8,6.1,11,-99.99,,,0.00,800,rob ver 1A,2013-03-12 21:08:00,
2013-03-12 14:09:00,89.2,28.4,29.50,SW,224,10.3,12.4,11,-99.99,,,0.00,801,rob ver 1B,2013-03-12 21:09:00,
2013-03-12 14:10:00,89.1,28.4,29.53,SW,228,7.6,10.2,11,-99.99,,,0.00,800,rob ver 1B,2013-03-12 21:10:00,
2013-03-12 14:11:00,89.2,28.4,29.53,WSW,254,10.4,12.7,11,-99.99,,,0.00,798,rob ver 1B,2013-03-12 21:11:00,
2013-03-12 14:12:00,89.1,28.4,29.53,WSW,253,8.7,13.0,11,-99.99,,,0.00,796,rob ver 1B,2013-03-12 21:12:00,
2013-03-12 14:13:00,82.5,23.8,29.50,SW,224,4.2,5.8,11,-99.99,,,0.00,792,rob ver 1A,2013-03-12 21:13:00,
2013-03-12 14:14:00,89.5,28.4,29.53,WSW,242,4.9,9.4,11,-99.99,,,0.00,795,rob ver 1B,2013-03-12 21:14:00,
2013-03-12 14:15:00,89.4,28.4,29.53,WSW,246,10.4,13.4,11,-99.99,,,0.00,793,rob ver 1B,2013-03-12 21:15:00,
2013-03-12 14:16:00,89.3,28.3,29.53,WSW,238,8.5,10.9,11,-99.99,,,0.00,792,rob ver 1B,2013-03-12 21:16:00,
2013-03-12 14:17:00,89.3,28.5,29.53,WSW,249,9.0,14.2,11,-99.99,,,0.00,791,rob ver 1B,2013-03-12 21:17:00,
2013-03-12 14:18:00,81.9,23.4,29.50,ENE,57,2.5,4.2,11,-99.99,,,0.00,788,rob ver 1A,2013-03-12 21:18:00,
2013-03-12 14:19:00,89.6,28.6,29.50,West,270,9.4,11.7,11,-99.99,,,0.00,788,rob ver 1B,2013-03-12 21:19:00,
2013-03-12 14:20:00,89.7,28.6,29.50,West,261,7.9,10.7,11,-99.99,,,0.00,785,rob ver 1B,2013-03-12 21:20:00,
2013-03-12 14:21:00,89.4,28.6,29.50,WSW,242,5.5,7.7,11,-99.99,,,0.00,784,rob ver 1B,2013-03-12 21:21:00,
2013-03-12 14:22:00,89.3,28.7,29.50,SW,230,5.5,7.4,11,-99.99,,,0.00,782,rob ver 1B,2013-03-12 21:22:00,
2013-03-12 14:23:00,89.5,28.7,29.50,South,185,4.0,6.5,11,-99.99,,,0.00,781,rob ver 1B,2013-03-12 21:23:00,
2013-03-12 14:24:00,82.7,23.6,29.50,West,269,2.4,5.3,11,-99.99,,,0.00,776,rob ver 1A,2013-03-12 21:24:00,
2013-03-12 14:25:00,89.9,28.8,29.50,SW,231,4.9,6.6,10,-99.99,,,0.00,777,rob ver 1B,2013-03-12 21:25:00,
2013-03-12 14:26:00,90.0,28.7,29.50,WSW,242,5.3,8.5,11,-99.99,,,0.00,775,rob ver 1B,2013-03-12 21:26:00,
2013-03-12 14:27:00,89.9,28.7,29.50,West,263,7.7,10.8,11,-99.99,,,0.00,773,rob ver 1B,2013-03-12 21:27:00,
2013-03-12 14:28:00,89.8,28.6,29.50,WSW,254,7.3,9.7,11,-99.99,,,0.00,772,rob ver 1B,2013-03-12 21:28:00,
2013-03-12 14:29:00,83.8,24.3,29.50,SSW,207,1.8,3.6,11,-99.99,,,0.00,770,rob ver 1A,2013-03-12 21:29:00,
2013-03-12 14:30:00,89.2,28.5,29.50,West,272,4.0,7.6,11,-99.99,,,0.00,767,rob ver 1B,2013-03-12 21:30:00,
2013-03-12 14:31:00,89.3,28.6,29.50,NNW,330,3.1,4.9,11,-99.99,,,0.00,766,rob ver 1B,2013-03-12 21:31:00,
2013-03-12 14:32:00,89.7,28.8,29.50,NW,321,1.6,4.2,11,-99.99,,,0.00,764,rob ver 1B,2013-03-12 21:32:00,
2013-03-12 14:33:00,90.1,28.7,29.50,West,278,3.6,6.2,10,-99.99,,,0.00,762,rob ver 1B,2013-03-12 21:33:00,
2013-03-12 14:34:00,83.5,23.8,29.50,NNE,26,2.2,5.0,11,-99.99,,,0.00,758,rob ver 1A,2013-03-12 21:34:00,
2013-03-12 14:35:00,90.1,28.8,29.50,SW,217,4.6,7.1,11,-99.99,,,0.00,759,rob ver 1B,2013-03-12 21:35:00,
2013-03-12 14:36:00,90.2,28.7,29.50,SSW,201,6.4,10.8,10,-99.99,,,0.00,757,rob ver 1B,2013-03-12 21:36:00,
2013-03-12 14:37:00,90.1,28.5,29.50,SSW,192,6.6,10.8,10,-99.99,,,0.00,756,rob ver 1B,2013-03-12 21:37:00,
2013-03-12 14:38:00,89.9,28.5,29.50,South,187,3.7,9.4,11,-99.99,,,0.00,753,rob ver 1B,2013-03-12 21:38:00,
2013-03-12 14:39:00,84.3,23.8,29.50,NE,56,2.3,6.2,10,-99.99,,,0.00,750,rob ver 1A,2013-03-12 21:39:00,
2013-03-12 14:40:00,89.7,28.5,29.50,SSW,202,5.9,7.8,11,-99.99,,,0.00,749,rob ver 1B,2013-03-12 21:40:00,
2013-03-12 14:41:00,89.7,28.5,29.50,South,190,4.9,6.2,11,-99.99,,,0.00,747,rob ver 1B,2013-03-12 21:41:00,
2013-03-12 14:42:00,89.9,28.7,29.50,SW,214,5.4,8.0,11,-99.99,,,0.00,744,rob ver 1B,2013-03-12 21:42:00,
2013-03-12 14:43:00,89.9,28.6,29.50,SSW,198,6.3,8.3,11,-99.99,,,0.00,744,rob ver 1B,2013-03-12 21:43:00,
2013-03-12 14:44:00,83.4,23.7,29.50,SSW,201,4.2,5.1,11,-99.99,,,0.00,739,rob ver 1A,2013-03-12 21:44:00,
2013-03-12 14:45:00,90.2,28.7,29.50,SE,133,4.6,7.9,10,-99.99,,,0.00,740,rob ver 1B,2013-03-12 21:45:00,
2013-03-12 14:46:00,90.5,28.8,29.50,WNW,294,6.1,7.9,10,-99.99,,,0.00,738,rob ver 1B,2013-03-12 21:46:00,
2013-03-12 14:47:00,90.8,28.7,29.50,WNW,297,5.0,7.3,10,-99.99,,,0.00,735,rob ver 1B,2013-03-12 21:47:00,
2013-03-12 14:48:00,90.8,28.8,29.50,WNW,283,4.4,6.4,10,-99.99,,,0.00,734,rob ver 1B,2013-03-12 21:48:00,
2013-03-12 14:49:00,83.1,23.6,29.50,South,177,3.1,4.9,11,-99.99,,,0.00,728,rob ver 1A,2013-03-12 21:49:00,
2013-03-12 14:50:00,90.9,28.6,29.50,West,263,8.5,12.9,10,-99.99,,,0.00,730,rob ver 1B,2013-03-12 21:50:00,
2013-03-12 14:51:00,90.3,28.4,29.50,WSW,258,8.3,13.2,10,-99.99,,,0.00,728,rob ver 1B,2013-03-12 21:51:00,
2013-03-12 14:52:00,89.8,28.3,29.50,West,267,5.6,7.5,11,-99.99,,,0.00,725,rob ver 1B,2013-03-12 21:52:00,
2013-03-12 14:53:00,89.8,28.5,29.50,West,265,6.3,9.5,10,-99.99,,,0.00,723,rob ver 1B,2013-03-12 21:53:00,
2013-03-12 14:54:00,83.4,24.0,29.50,SW,223,5.6,7.4,11,-99.99,,,0.00,721,rob ver 1A,2013-03-12 21:54:00,
2013-03-12 14:55:00,90.1,28.5,29.50,WSW,256,9.4,14.6,11,-99.99,,,0.00,719,rob ver 1B,2013-03-12 21:55:00,
2013-03-12 14:56:00,89.8,28.7,29.50,WSW,250,8.6,11.8,11,-99.99,,,0.00,716,rob ver 1B,2013-03-12 21:56:00,
2013-03-12 14:57:00,90.1,28.6,29.50,West,274,9.4,12.9,11,-99.99,,,0.00,715,rob ver 1B,2013-03-12 21:57:00,
2013-03-12 14:58:00,90.2,28.8,29.50,West,273,7.3,8.9,10,-99.99,,,0.00,712,rob ver 1B,2013-03-12 21:58:00,
2013-03-12 14:59:00,83.5,23.8,29.50,NW,312,2.5,4.3,11,-99.99,,,0.00,709,rob ver 1A,2013-03-12 21:59:00,
2013-03-12 15:00:00,90.7,28.9,29.50,WNW,292,6.5,9.2,10,-99.99,,,0.00,707,rob ver 1B,2013-03-12 22:00:00,
2013-03-12 15:01:00,90.9,28.8,29.50,WNW,290,6.7,9.4,10,-99.99,,,0.00,705,rob ver 1B,2013-03-12 22:01:00,
2013-03-12 15:02:00,90.5,28.7,29.50,West,278,8.3,10.6,10,-99.99,,,0.00,703,rob ver 1B,2013-03-12 22:02:00,
2013-03-12 15:03:00,90.1,28.7,29.50,West,267,5.7,7.7,11,-99.99,,,0.00,699.4,rob ver 1B,2013-03-12 22:03:00,
2013-03-12 15:04:00,90.2,28.8,29.50,WNW,285,7.3,8.8,11,-99.99,,,0.00,697.1,rob ver 1B,2013-03-12 22:04:00,
2013-03-12 15:05:00,83.9,24.0,29.50,SW,225,1.4,2.8,10,-99.99,,,0.00,696.2,rob ver 1A,2013-03-12 22:05:00,
2013-03-12 15:06:00,89.9,28.7,29.50,WSW,248,4.7,8.9,11,-99.99,,,0.00,693,rob ver 1B,2013-03-12 22:06:00,
2013-03-12 15:07:00,89.8,28.6,29.50,SW,223,3.4,5.6,11,-99.99,,,0.00,691.4,rob ver 1B,2013-03-12 22:07:00,
2013-03-12 15:08:00,89.9,28.7,29.50,WSW,239,3.8,5.4,11,-99.99,,,0.00,688.8,rob ver 1B,2013-03-12 22:08:00,
2013-03-12 15:09:00,90.1,28.7,29.50,West,275,3.8,6.8,11,-99.99,,,0.00,686.1,rob ver 1B,2013-03-12 22:09:00,
2013-03-12 15:10:00,84.3,23.9,29.47,East,91,1.8,3.4,10,-99.99,,,0.00,683.7,rob ver 1A,2013-03-12 22:10:00,
2013-03-12 15:11:00,90.6,29.2,29.50,WSW,237,5.3,14.1,11,-99.99,,,0.00,681.6,rob ver 1B,2013-03-12 22:11:00,
2013-03-12 15:12:00,90.8,29.2,29.50,WSW,251,11.3,15.5,11,-99.99,,,0.00,678.6,rob ver 1B,2013-03-12 22:12:00,
2013-03-12 15:13:00,90.6,29.2,29.50,West,280,6.1,8.1,11,-99.99,,,0.00,677.1,rob ver 1B,2013-03-12 22:13:00,
2013-03-12 15:14:00,90.3,29.1,29.50,WSW,247,8.8,10.4,11,-99.99,,,0.00,673.9,rob ver 1B,2013-03-12 22:14:00,
2013-03-12 15:15:00,84.7,23.9,29.47,SSW,209,7.2,9.8,10,-99.99,,,0.00,672.6,rob ver 1A,2013-03-12 22:15:00,
2013-03-12 15:16:00,89.8,29.1,29.50,SW,220,5.0,7.6,11,-99.99,,,0.00,668.6,rob ver 1B,2013-03-12 22:16:00,
2013-03-12 15:17:00,89.9,29.1,29.50,SW,228,9.4,14.1,11,-99.99,,,0.00,666.5,rob ver 1B,2013-03-12 22:17:00,
2013-03-12 15:18:00,89.7,29.1,29.50,West,261,4.0,5.6,11,-99.99,,,0.00,663.2,rob ver 1B,2013-03-12 22:18:00,
2013-03-12 15:19:00,89.9,29.4,29.50,West,271,4.1,5.3,11,-99.99,,,0.00,661.6,rob ver 1B,2013-03-12 22:19:00,
2013-03-12 15:20:00,83.9,23.6,29.47,SSE,150,3.8,6.4,10,-99.99,,,0.00,660.3,rob ver 1A,2013-03-12 22:20:00,
2013-03-12 15:21:00,90.4,29.2,29.50,WSW,245,2.7,4.9,11,-99.99,,,0.00,656,rob ver 1B,2013-03-12 22:21:00,
2013-03-12 15:22:00,90.4,29.2,29.50,SSW,206,5.5,8.6,11,-99.99,,,0.00,654,rob ver 1B,2013-03-12 22:22:00,
2013-03-12 15:23:00,90.1,29.0,29.50,SSE,165,2.4,4.2,11,-99.99,,,0.00,651.4,rob ver 1B,2013-03-12 22:23:00,
2013-03-12 15:24:00,90.1,29.2,29.50,SSE,148,2.4,5.3,11,-99.99,,,0.00,648.5,rob ver 1B,2013-03-12 22:24:00,
2013-03-12 15:25:00,84.6,24.0,29.47,WSW,239,6.4,8.8,10,-99.99,,,0.00,647.7,rob ver 1A,2013-03-12 22:25:00,
2013-03-12 15:26:00,90.1,28.9,29.50,SSE,154,3.5,5.9,11,-99.99,,,0.00,643.7,rob ver 1B,2013-03-12 22:26:00,
2013-03-12 15:27:00,90.3,29.2,29.50,SSW,194,5.5,9.1,11,-99.99,,,0.00,641.4,rob ver 1B,2013-03-12 22:27:00,
2013-03-12 15:28:00,90.4,29.1,29.50,SSW,193,7.1,10.4,11,-99.99,,,0.00,639.6,rob ver 1B,2013-03-12 22:28:00,
2013-03-12 15:29:00,90.7,29.2,29.50,SSW,207,8.7,11.6,11,-99.99,,,0.00,636.4,rob ver 1B,2013-03-12 22:29:00,
2013-03-12 15:30:00,85.0,24.4,29.47,WSW,240,5.8,9.1,10,-99.99,,,0.00,633.4,rob ver 1A,2013-03-12 22:30:00,
2013-03-12 15:31:00,90.3,29.2,29.50,SSE,160,6.5,10.7,11,-99.99,,,0.00,630.5,rob ver 1B,2013-03-12 22:31:00,
2013-03-12 15:32:00,90.0,29.1,29.50,South,173,8.1,9.8,11,-99.99,,,0.00,627.3,rob ver 1B,2013-03-12 22:32:00,
2013-03-12 15:33:00,90.0,29.1,29.50,South,178,6.8,10.3,11,-99.99,,,0.00,625.9,rob ver 1B,2013-03-12 22:33:00,
2013-03-12 15:34:00,90.0,29.2,29.50,SSE,154,4.0,5.8,11,-99.99,,,0.00,622.9,rob ver 1B,2013-03-12 22:34:00,
2013-03-12 15:35:00,84.6,24.1,29.47,West,269,4.5,6.6,10,-99.99,,,0.00,620.8,rob ver 1A,2013-03-12 22:35:00,
2013-03-12 15:36:00,90.1,29.2,29.50,SSW,198,6.6,8.4,11,-99.99,,,0.00,617,rob ver 1B,2013-03-12 22:36:00,
2013-03-12 15:37:00,90.3,29.2,29.50,SSW,196,7.5,9.1,11,-99.99,,,0.00,614.7,rob ver 1B,2013-03-12 22:37:00,
2013-03-12 15:38:00,90.4,29.2,29.50,SSW,193,5.5,8.1,11,-99.99,,,0.00,611.8,rob ver 1B,2013-03-12 22:38:00,
2013-03-12 15:39:00,90.4,29.2,29.50,SSW,201,5.0,7.0,11,-99.99,,,0.00,608.8,rob ver 1B,2013-03-12 22:39:00,
2013-03-12 15:40:00,86.1,24.7,29.47,SW,229,2.0,2.9,10,-99.99,,,0.00,606.5,rob ver 1A,2013-03-12 22:40:00,
2013-03-12 15:41:00,90.4,29.2,29.50,SSE,164,4.9,7.2,11,-99.99,,,0.00,601.6,rob ver 1B,2013-03-12 22:41:00,
2013-03-12 15:42:00,90.3,29.2,29.50,SSE,160,3.4,6.3,11,-99.99,,,0.00,599,rob ver 1B,2013-03-12 22:42:00,
2013-03-12 15:43:00,90.5,29.4,29.50,SSE,167,5.4,8.5,11,-99.99,,,0.00,596.1,rob ver 1B,2013-03-12 22:43:00,
2013-03-12 15:44:00,90.7,29.2,29.50,SSE,163,7.1,8.7,11,-99.99,,,0.00,595.1,rob ver 1B,2013-03-12 22:44:00,
2013-03-12 15:45:00,86.2,24.5,29.47,WNW,285,1.2,3.5,10,-99.99,,,0.00,591.3,rob ver 1A,2013-03-12 22:45:00,
2013-03-12 15:46:00,91.0,29.5,29.50,SSW,195,6.7,9.1,10,-99.99,,,0.00,588.5,rob ver 1B,2013-03-12 22:46:00,
2013-03-12 15:47:00,90.9,29.2,29.50,SSE,167,5.6,8.2,11,-99.99,,,0.00,586.6,rob ver 1B,2013-03-12 22:47:00,
2013-03-12 15:48:00,90.7,29.3,29.50,SSE,168,6.4,9.3,11,-99.99,,,0.00,583.3,rob ver 1B,2013-03-12 22:48:00,
2013-03-12 15:49:00,90.4,29.2,29.50,SSE,166,6.2,7.3,11,-99.99,,,0.00,579.7,rob ver 1B,2013-03-12 22:49:00,
2013-03-12 15:50:00,90.4,29.2,29.50,SSW,205,4.9,6.7,11,-99.99,,,0.00,577.1,rob ver 1B,2013-03-12 22:50:00,
2013-03-12 15:51:00,86.0,24.3,29.47,WNW,302,5.5,8.1,10,-99.99,,,0.00,573.6,rob ver 1A,2013-03-12 22:51:00,
2013-03-12 15:52:00,91.1,29.2,29.50,WNW,284,6.1,10.4,10,-99.99,,,0.00,571.8,rob ver 1B,2013-03-12 22:52:00,
2013-03-12 15:53:00,91.0,29.2,29.50,West,269,7.9,10.2,10,-99.99,,,0.00,568.6,rob ver 1B,2013-03-12 22:53:00,
2013-03-12 15:54:00,91.1,29.4,29.50,West,268,7.5,9.4,10,-99.99,,,0.00,565.4,rob ver 1B,2013-03-12 22:54:00,
2013-03-12 15:55:00,91.1,29.4,29.50,WSW,245,6.1,8.3,10,-99.99,,,0.00,563.2,rob ver 1B,2013-03-12 22:55:00,
2013-03-12 15:56:00,85.6,24.2,29.47,NNW,336,6.6,8.7,10,-99.99,,,0.00,560.2,rob ver 1A,2013-03-12 22:56:00,
2013-03-12 15:57:00,91.3,29.0,29.50,NW,314,10.6,12.6,10,-99.99,,,0.00,558.7,rob ver 1B,2013-03-12 22:57:00,
2013-03-12 15:58:00,91.0,29.1,29.50,NW,307,5.8,10.0,10,-99.99,,,0.00,554.6,rob ver 1B,2013-03-12 22:58:00,
2013-03-12 15:59:00,91.1,29.2,29.50,WNW,293,8.6,12.5,10,-99.99,,,0.00,551,rob ver 1B,2013-03-12 22:59:00,
2013-03-12 16:00:00,91.0,29.0,29.50,West,280,11.5,15.2,11,-99.99,,,0.00,548.1,rob ver 1B,2013-03-12 23:00:00,
2013-03-12 16:01:00,85.9,24.2,29.47,NNW,336,7.9,10.2,10,-99.99,,,0.00,544.8,rob ver 1A,2013-03-12 23:01:00,
2013-03-12 16:02:00,90.4,29.0,29.50,WNW,288,5.3,8.6,11,-99.99,,,0.00,542,rob ver 1B,2013-03-12 23:02:00,
2013-03-12 16:03:00,90.4,29.1,29.50,West,268,5.7,7.1,11,-99.99,,,0.00,537.8,rob ver 1B,2013-03-12 23:03:00,
2013-03-12 16:04:00,90.7,29.3,29.50,West,281,6.6,9.8,11,-99.99,,,0.00,535,rob ver 1B,2013-03-12 23:04:00,
2013-03-12 16:05:00,91.1,29.3,29.50,WSW,254,5.2,7.0,10,-99.99,,,0.00,532.7,rob ver 1B,2013-03-12 23:05:00,
2013-03-12 16:06:00,85.5,24.7,29.47,WNW,293,6.0,9.0,10,-99.99,,,0.00,524.8,rob ver 1A,2013-03-12 23:06:00,
2013-03-12 16:07:00,91.2,29.1,29.50,SSW,205,2.3,3.6,10,-99.99,,,0.00,526.3,rob ver 1B,2013-03-12 23:07:00,
2013-03-12 16:08:00,91.3,29.2,29.50,SW,226,4.5,9.2,10,-99.99,,,0.00,523.2,rob ver 1B,2013-03-12 23:08:00,
2013-03-12 16:09:00,91.3,29.1,29.50,SW,227,7.9,10.6,10,-99.99,,,0.00,519.4,rob ver 1B,2013-03-12 23:09:00,
2013-03-12 16:10:00,91.0,29.1,29.50,SW,227,7.1,8.8,10,-99.99,,,0.00,517,rob ver 1B,2013-03-12 23:10:00,
2013-03-12 16:11:00,84.8,24.4,29.47,WSW,257,7.8,9.8,10,-99.99,,,0.00,510.4,rob ver 1A,2013-03-12 23:11:00,
2013-03-12 16:12:00,91.2,29.4,29.47,SW,232,8.9,12.6,10,-99.99,,,0.00,510.6,rob ver 1B,2013-03-12 23:12:00,
2013-03-12 16:13:00,91.6,29.4,29.47,SW,234,9.0,11.9,10,-99.99,,,0.00,506.7,rob ver 1B,2013-03-12 23:13:00,
2013-03-12 16:14:00,91.5,29.2,29.47,SW,223,9.3,12.7,10,-99.99,,,0.00,503.2,rob ver 1B,2013-03-12 23:14:00,
2013-03-12 16:15:00,91.1,29.2,29.47,WSW,243,9.5,12.8,10,-99.99,,,0.00,501.1,rob ver 1B,2013-03-12 23:15:00,
2013-03-12 16:16:00,84.8,24.3,29.47,WSW,237,7.4,10.6,10,-99.99,,,0.00,493.8,rob ver 1A,2013-03-12 23:16:00,
2013-03-12 16:17:00,91.1,29.2,29.47,WSW,254,8.7,10.8,11,-99.99,,,0.00,493.4,rob ver 1B,2013-03-12 23:17:00,
2013-03-12 16:18:00,91.1,29.3,29.47,West,265,10.4,14.8,10,-99.99,,,0.00,490.4,rob ver 1B,2013-03-12 23:18:00,
2013-03-12 16:19:00,91.1,29.3,29.50,WSW,243,6.8,10.6,11,-99.99,,,0.00,488.5,rob ver 1B,2013-03-12 23:19:00,
2013-03-12 16:20:00,91.2,29.3,29.50,SW,226,7.6,13.4,10,-99.99,,,0.00,484.4,rob ver 1B,2013-03-12 23:20:00,
2013-03-12 16:21:00,85.0,24.3,29.47,WSW,245,8.3,12.6,10,-99.99,,,0.00,481.6,rob ver 1A,2013-03-12 23:21:00,
2013-03-12 16:22:00,91.0,29.2,29.47,WSW,242,9.6,11.3,10,-99.99,,,0.00,478.7,rob ver 1B,2013-03-12 23:22:00,
2013-03-12 16:23:00,90.9,29.2,29.47,WSW,243,7.9,9.6,10,-99.99,,,0.00,475.1,rob ver 1B,2013-03-12 23:23:00,
2013-03-12 16:24:00,90.7,29.2,29.47,SW,234,7.2,9.8,11,-99.99,,,0.00,471.6,rob ver 1B,2013-03-12 23:24:00,
2013-03-12 16:25:00,91.0,29.2,29.47,West,264,10.1,18.9,10,-99.99,,,0.00,468.7,rob ver 1B,2013-03-12 23:25:00,
2013-03-12 16:26:00,91.3,29.3,29.47,WSW,258,9.9,14.4,10,-99.99,,,0.00,464.4,rob ver 1B,2013-03-12 23:26:00,
2013-03-12 16:27:00,84.6,24.2,29.47,SW,233,6.9,8.6,10,-99.99,,,0.00,461.1,rob ver 1A,2013-03-12 23:27:00,
2013-03-12 16:28:00,91.0,29.1,29.47,WSW,249,11.2,14.5,10,-99.99,,,0.00,458.2,rob ver 1B,2013-03-12 23:28:00,
2013-03-12 16:29:00,90.7,29.2,29.47,WSW,246,10.5,13.0,11,-99.99,,,0.00,455.6,rob ver 1B,2013-03-12 23:29:00,
2013-03-12 16:30:00,90.4,29.2,29.47,WSW,252,10.6,13.2,11,-99.99,,,0.00,451.8,rob ver 1B,2013-03-12 23:30:00,
2013-03-12 16:31:00,90.4,29.2,29.47,WSW,239,9.5,12.2,11,-99.99,,,0.00,448.5,rob ver 1B,2013-03-12 23:31:00,
2013-03-12 16:32:00,84.9,24.5,29.47,West,277,8.3,10.0,10,-99.99,,,0.00,444.9,rob ver 1A,2013-03-12 23:32:00,
2013-03-12 16:33:00,90.5,29.1,29.47,WSW,256,9.0,12.3,11,-99.99,,,0.00,441.5,rob ver 1B,2013-03-12 23:33:00,
2013-03-12 16:34:00,90.2,29.2,29.47,WSW,245,9.1,13.4,11,-99.99,,,0.00,437.9,rob ver 1B,2013-03-12 23:34:00,
2013-03-12 16:35:00,90.1,29.1,29.47,WSW,241,9.8,11.6,11,-99.99,,,0.00,434.8,rob ver 1B,2013-03-12 23:35:00,
2013-03-12 16:36:00,90.2,29.1,29.47,WSW,239,7.8,10.9,11,-99.99,,,0.00,432.3,rob ver 1B,2013-03-12 23:36:00,
2013-03-12 16:37:00,84.9,24.4,29.47,West,272,6.7,8.9,10,-99.99,,,0.00,426.9,rob ver 1A,2013-03-12 23:37:00,
2013-03-12 16:38:00,90.4,29.2,29.47,WSW,248,10.8,14.1,11,-99.99,,,0.00,424,rob ver 1B,2013-03-12 23:38:00,
2013-03-12 16:39:00,90.5,29.1,29.47,WSW,252,11.3,14.9,11,-99.99,,,0.00,421,rob ver 1B,2013-03-12 23:39:00,
2013-03-12 16:40:00,90.5,28.9,29.47,WSW,247,10.3,13.3,11,-99.99,,,0.00,417.4,rob ver 1B,2013-03-12 23:40:00,
2013-03-12 16:41:00,90.3,28.9,29.47,WSW,237,7.0,9.5,11,-99.99,,,0.00,414.3,rob ver 1B,2013-03-12 23:41:00,
2013-03-12 16:42:00,84.7,24.3,29.47,WSW,241,4.4,7.7,11,-99.99,,,0.00,410.6,rob ver 1A,2013-03-12 23:42:00,
2013-03-12 16:43:00,90.1,29.0,29.47,SW,227,7.3,9.2,11,-99.99,,,0.00,406.8,rob ver 1B,2013-03-12 23:43:00,
2013-03-12 16:44:00,90.3,28.9,29.47,SSW,212,9.0,11.7,11,-99.99,,,0.00,403,rob ver 1B,2013-03-12 23:44:00,
2013-03-12 16:45:00,90.5,29.1,29.47,SW,235,8.7,11.4,11,-99.99,,,0.00,400.4,rob ver 1B,2013-03-12 23:45:00,
2013-03-12 16:46:00,90.7,29.0,29.47,WSW,243,9.8,12.5,11,-99.99,,,0.00,396.6,rob ver 1B,2013-03-12 23:46:00,
2013-03-12 16:47:00,84.8,24.1,29.47,SW,229,9.5,12.8,10,-99.99,,,0.00,393.1,rob ver 1A,2013-03-12 23:47:00,
2013-03-12 16:48:00,90.6,29.0,29.47,WSW,251,8.3,11.2,11,-99.99,,,0.00,390.1,rob ver 1B,2013-03-12 23:48:00,
2013-03-12 16:49:00,90.6,29.1,29.47,West,260,9.3,11.5,11,-99.99,,,0.00,386.6,rob ver 1B,2013-03-12 23:49:00,
2013-03-12 16:50:00,90.6,29.0,29.47,West,273,10.5,12.4,11,-99.99,,,0.00,382.9,rob ver 1B,2013-03-12 23:50:00,
2013-03-12 16:51:00,90.6,29.0,29.47,WSW,241,9.6,12.2,10,-99.99,,,0.00,379.9,rob ver 1B,2013-03-12 23:51:00,
2013-03-12 16:52:00,84.5,24.3,29.47,WSW,237,2.7,3.9,11,-99.99,,,0.00,371.5,rob ver 1A,2013-03-12 23:52:00,
2013-03-12 16:53:00,90.4,28.9,29.47,West,261,10.8,13.3,11,-99.99,,,0.00,372.5,rob ver 1B,2013-03-12 23:53:00,
2013-03-12 16:54:00,90.4,28.8,29.47,West,270,11.5,13.7,10,-99.99,,,0.00,368.9,rob ver 1B,2013-03-12 23:54:00,
2013-03-12 16:55:00,90.5,28.8,29.47,West,263,10.8,12.6,10,-99.99,,,0.00,365.3,rob ver 1B,2013-03-12 23:55:00,
2013-03-12 16:56:00,90.3,28.7,29.47,West,264,8.6,10.2,11,-99.99,,,0.00,362.1,rob ver 1B,2013-03-12 23:56:00,
2013-03-12 16:57:00,85.0,24.4,29.47,WSW,256,9.2,11.9,10,-99.99,,,0.00,354.3,rob ver 1A,2013-03-12 23:57:00,
2013-03-12 16:58:00,90.2,28.9,29.47,WSW,252,6.9,9.6,10,-99.99,,,0.00,355,rob ver 1B,2013-03-12 23:58:00,
2013-03-12 16:59:00,90.5,28.9,29.47,WSW,255,6.1,7.7,10,-99.99,,,0.00,351.4,rob ver 1B,2013-03-12 23:59:00,
2013-03-12 17:00:00,90.5,28.9,29.47,West,261,5.7,9.5,11,-99.99,,,0.00,347.5,rob ver 1B,2013-03-13 00:00:00,
2013-03-12 17:01:00,90.7,29.1,29.47,WSW,239,7.9,11.0,10,-99.99,,,0.00,344.2,rob ver 1B,2013-03-13 00:01:00,
2013-03-12 17:02:00,91.1,29.1,29.47,SW,228,9.3,11.3,11,-99.99,,,0.00,340.8,rob ver 1B,2013-03-13 00:02:00,
2013-03-12 17:03:00,84.9,24.3,29.47,SW,235,5.2,7.2,10,-99.99,,,0.00,335.8,rob ver 1A,2013-03-13 00:03:00,
2013-03-12 17:04:00,90.9,28.8,29.47,WSW,238,9.5,12.1,10,-99.99,,,0.00,333.1,rob ver 1B,2013-03-13 00:04:00,
2013-03-12 17:05:00,90.6,28.8,29.47,WSW,243,7.8,10.2,10,-99.99,,,0.00,329.8,rob ver 1B,2013-03-13 00:05:00,
2013-03-12 17:06:00,90.8,28.9,29.47,WSW,251,7.5,9.0,10,-99.99,,,0.00,325.9,rob ver 1B,2013-03-13 00:06:00,
2013-03-12 17:07:00,90.8,28.8,29.47,West,268,9.3,12.3,10,-99.99,,,0.00,322.6,rob ver 1B,2013-03-13 00:07:00,
2013-03-12 17:08:00,85.2,24.2,29.47,WSW,248,6.8,9.4,10,-99.99,,,0.00,317.4,rob ver 1A,2013-03-13 00:08:00,
2013-03-12 17:09:00,90.6,28.7,29.47,West,274,10.5,12.7,10,-99.99,,,0.00,315.6,rob ver 1B,2013-03-13 00:09:00,
2013-03-12 17:10:00,90.4,28.7,29.47,West,276,10.9,12.5,10,-99.99,,,0.00,312.3,rob ver 1B,2013-03-13 00:10:00,
2013-03-12 17:11:00,90.3,28.7,29.47,West,273,9.6,11.8,10,-99.99,,,0.00,308.5,rob ver 1B,2013-03-13 00:11:00,
2013-03-12 17:12:00,90.1,28.6,29.47,West,272,9.4,10.9,11,-99.99,,,0.00,304.8,rob ver 1B,2013-03-13 00:12:00,
2013-03-12 17:13:00,84.8,24.3,29.47,West,261,7.6,9.5,10,-99.99,,,0.00,299.6,rob ver 1A,2013-03-13 00:13:00,
2013-03-12 17:14:00,90.0,28.6,29.47,West,267,10.4,11.7,11,-99.99,,,0.00,297.4,rob ver 1B,2013-03-13 00:14:00,
2013-03-12 17:15:00,89.8,28.6,29.47,West,271,9.3,11.2,11,-99.99,,,0.00,293.6,rob ver 1B,2013-03-13 00:15:00,
2013-03-12 17:16:00,89.9,28.7,29.47,West,264,10.4,13.1,11,-99.99,,,0.00,289.9,rob ver 1B,2013-03-13 00:16:00,
2013-03-12 17:17:00,90.0,28.7,29.47,West,264,10.1,13.1,11,-99.99,,,0.00,286.2,rob ver 1B,2013-03-13 00:17:00,
2013-03-12 17:18:00,84.9,24.5,29.47,WSW,255,6.8,9.4,10,-99.99,,,0.00,281.4,rob ver 1A,2013-03-13 00:18:00,
2013-03-12 17:19:00,90.0,28.7,29.47,WSW,251,10.1,13.3,11,-99.99,,,0.00,278.7,rob ver 1B,2013-03-13 00:19:00,
2013-03-12 17:20:00,90.1,28.6,29.47,West,272,11.3,13.5,11,-99.99,,,0.00,275,rob ver 1B,2013-03-13 00:20:00,
2013-03-12 17:21:00,89.7,28.5,29.47,West,265,9.1,10.3,11,-99.99,,,0.00,272,rob ver 1B,2013-03-13 00:21:00,
2013-03-12 17:22:00,89.7,28.5,29.47,West,264,10.2,13.4,11,-99.99,,,0.00,268.2,rob ver 1B,2013-03-13 00:22:00,
2013-03-12 17:23:00,84.9,24.3,29.47,WNW,282,5.7,8.0,10,-99.99,,,0.00,259.2,rob ver 1A,2013-03-13 00:23:00,
2013-03-12 17:24:00,89.7,28.5,29.47,West,265,11.7,13.7,11,-99.99,,,0.00,260.7,rob ver 1B,2013-03-13 00:24:00,
2013-03-12 17:25:00,89.8,28.5,29.47,West,262,11.5,14.5,11,-99.99,,,0.00,257.3,rob ver 1B,2013-03-13 00:25:00,
2013-03-12 17:26:00,89.7,28.5,29.47,West,261,10.3,12.5,11,-99.99,,,0.00,253.8,rob ver 1B,2013-03-13 00:26:00,
2013-03-12 17:27:00,89.6,28.5,29.47,West,270,10.2,12.8,11,-99.99,,,0.00,249.9,rob ver 1B,2013-03-13 00:27:00,
2013-03-12 17:28:00,84.7,24.1,29.47,West,266,9.5,11.0,10,-99.99,,,0.00,241,rob ver 1A,2013-03-13 00:28:00,
2013-03-12 17:29:00,89.5,28.5,29.47,WSW,258,7.1,10.8,11,-99.99,,,0.00,242.7,rob ver 1B,2013-03-13 00:29:00,
2013-03-12 17:30:00,89.7,28.6,29.47,WSW,248,10.0,12.5,11,-99.99,,,0.00,238.9,rob ver 1B,2013-03-13 00:30:00,
2013-03-12 17:31:00,89.7,28.5,29.47,WSW,249,9.1,12.0,11,-99.99,,,0.00,235.5,rob ver 1B,2013-03-13 00:31:00,
2013-03-12 17:32:00,89.6,28.4,29.47,WSW,250,9.6,11.5,11,-99.99,,,0.00,231.6,rob ver 1B,2013-03-13 00:32:00,
2013-03-12 17:33:00,84.7,24.3,29.47,WSW,249,8.1,10.5,10,-99.99,,,0.00,223.1,rob ver 1A,2013-03-13 00:33:00,
2013-03-12 17:34:00,89.6,28.6,29.47,West,266,8.8,12.1,11,-99.99,,,0.00,224.2,rob ver 1B,2013-03-13 00:34:00,
2013-03-12 17:35:00,89.7,28.4,29.47,West,266,11.7,14.0,11,-99.99,,,0.00,220.4,rob ver 1B,2013-03-13 00:35:00,
2013-03-12 17:36:00,89.5,28.4,29.47,West,259,8.9,10.1,11,-99.99,,,0.00,217.1,rob ver 1B,2013-03-13 00:36:00,
2013-03-12 17:37:00,89.6,28.6,29.47,West,259,9.4,11.1,11,-99.99,,,0.00,213.2,rob ver 1B,2013-03-13 00:37:00,
2013-03-12 17:38:00,84.3,24.2,29.47,West,259,9.7,12.0,11,-99.99,,,0.00,205.3,rob ver 1A,2013-03-13 00:38:00,
2013-03-12 17:39:00,89.5,28.5,29.47,WSW,247,7.3,9.2,11,-99.99,,,0.00,206.3,rob ver 1B,2013-03-13 00:39:00,
2013-03-12 17:40:00,89.6,28.5,29.47,WSW,246,8.9,10.7,11,-99.99,,,0.00,202.7,rob ver 1B,2013-03-13 00:40:00,
2013-03-12 17:41:00,89.6,28.5,29.47,WSW,243,8.1,10.2,11,-99.99,,,0.00,199.1,rob ver 1B,2013-03-13 00:41:00,
2013-03-12 17:42:00,89.7,28.6,29.47,West,264,7.6,10.1,11,-99.99,,,0.00,195.5,rob ver 1B,2013-03-13 00:42:00,
2013-03-12 17:43:00,84.3,24.2,29.47,WSW,245,7.3,9.0,11,-99.99,,,0.00,187.6,rob ver 1A,2013-03-13 00:43:00,
2013-03-12 17:44:00,89.6,28.6,29.47,WSW,255,6.4,7.9,11,-99.99,,,0.00,188.3,rob ver 1B,2013-03-13 00:44:00,
2013-03-12 17:45:00,89.7,28.6,29.47,WSW,258,7.3,9.0,11,-99.99,,,0.00,184.9,rob ver 1B,2013-03-13 00:45:00,
2013-03-12 17:46:00,89.7,28.6,29.47,WSW,249,9.0,11.0,11,-99.99,,,0.00,181.4,rob ver 1B,2013-03-13 00:46:00,
2013-03-12 17:47:00,89.7,28.6,29.47,West,267,9.8,12.5,11,-99.99,,,0.00,177.8,rob ver 1B,2013-03-13 00:47:00,
2013-03-12 17:48:00,89.5,28.4,29.47,West,268,9.9,11.3,11,-99.99,,,0.00,173.9,rob ver 1B,2013-03-13 00:48:00,
2013-03-12 17:49:00,84.3,24.0,29.47,WSW,245,5.9,8.2,10,-99.99,,,0.00,169.7,rob ver 1A,2013-03-13 00:49:00,
2013-03-12 17:50:00,89.3,28.4,29.47,West,273,8.8,10.4,11,-99.99,,,0.00,167.2,rob ver 1B,2013-03-13 00:50:00,
2013-03-12 17:51:00,89.3,28.5,29.47,West,264,9.7,12.2,11,-99.99,,,0.00,163.8,rob ver 1B,2013-03-13 00:51:00,
2013-03-12 17:52:00,89.3,28.5,29.47,West,265,9.1,11.3,11,-99.99,,,0.00,160.5,rob ver 1B,2013-03-13 00:52:00,
2013-03-12 17:53:00,89.4,28.6,29.47,West,260,7.8,9.4,11,-99.99,,,0.00,156.9,rob ver 1B,2013-03-13 00:53:00,
2013-03-12 17:54:00,84.3,24.1,29.47,WSW,254,8.8,10.6,11,-99.99,,,0.00,152.5,rob ver 1A,2013-03-13 00:54:00,
2013-03-12 17:55:00,89.3,28.4,29.47,WSW,251,8.9,10.6,11,-99.99,,,0.00,150,rob ver 1B,2013-03-13 00:55:00,
2013-03-12 17:56:00,89.3,28.4,29.47,West,261,9.3,11.6,11,-99.99,,,0.00,147.1,rob ver 1B,2013-03-13 00:56:00,
2013-03-12 17:57:00,89.2,28.3,29.47,WSW,256,9.6,13.0,11,-99.99,,,0.00,143.3,rob ver 1B,2013-03-13 00:57:00,
2013-03-12 17:58:00,89.2,28.5,29.47,West,263,7.6,8.9,11,-99.99,,,0.00,139.9,rob ver 1B,2013-03-13 00:58:00,
2013-03-12 17:59:00,84.1,24.2,29.47,WSW,258,9.8,11.2,11,-99.99,,,0.00,135.7,rob ver 1A,2013-03-13 00:59:00,
2013-03-12 18:00:00,89.1,28.2,29.47,WSW,255,10.9,13.3,11,-99.99,,,0.00,133.1,rob ver 1B,2013-03-13 01:00:00,
2013-03-12 18:01:00,89.0,28.2,29.47,WSW,254,9.6,11.4,11,-99.99,,,0.00,129.7,rob ver 1B,2013-03-13 01:01:00,
2013-03-12 18:02:00,88.9,28.2,29.47,WSW,251,9.1,11.6,11,-99.99,,,0.00,126.4,rob ver 1B,2013-03-13 01:02:00,
2013-03-12 18:03:00,88.9,28.3,29.47,WSW,250,9.1,10.5,11,-99.99,,,0.00,123.5,rob ver 1B,2013-03-13 01:03:00,
2013-03-12 18:04:00,83.7,24.1,29.47,WSW,251,10.4,12.3,11,-99.99,,,0.00,119.3,rob ver 1A,2013-03-13 01:04:00,
2013-03-12 18:05:00,88.8,28.2,29.47,WSW,253,8.7,11.0,11,-99.99,,,0.00,116.9,rob ver 1B,2013-03-13 01:05:00,
2013-03-12 18:06:00,88.7,28.3,29.47,WSW,252,9.9,11.7,11,-99.99,,,0.00,113.7,rob ver 1B,2013-03-13 01:06:00,
2013-03-12 18:07:00,88.6,28.3,29.47,WSW,257,11.0,12.5,11,-99.99,,,0.00,110.5,rob ver 1B,2013-03-13 01:07:00,
2013-03-12 18:08:00,88.5,28.3,29.47,WSW,258,10.3,12.8,11,-99.99,,,0.00,107.4,rob ver 1B,2013-03-13 01:08:00,
2013-03-12 18:09:00,83.6,24.3,29.47,WSW,251,7.5,10.1,11,-99.99,,,0.00,100.3,rob ver 1A,2013-03-13 01:09:00,
2013-03-12 18:10:00,88.5,28.4,29.47,West,261,8.8,10.7,11,-99.99,,,0.00,101.2,rob ver 1B,2013-03-13 01:10:00,
2013-03-12 18:11:00,88.5,28.5,29.47,West,263,8.4,10.2,11,-99.99,,,0.00,97.9,rob ver 1B,2013-03-13 01:11:00,
2013-03-12 18:12:00,88.5,28.5,29.47,West,270,7.8,9.4,11,-99.99,,,0.00,94.7,rob ver 1B,2013-03-13 01:12:00,
2013-03-12 18:13:00,88.5,28.4,29.47,West,272,7.6,9.8,11,-99.99,,,0.00,91.7,rob ver 1B,2013-03-13 01:13:00,
2013-03-12 18:14:00,83.4,24.3,29.47,West,260,9.2,11.2,11,-99.99,,,0.00,85,rob ver 1A,2013-03-13 01:14:00,
2013-03-12 18:15:00,88.4,28.2,29.47,WSW,257,8.5,10.8,11,-99.99,,,0.00,85.5,rob ver 1B,2013-03-13 01:15:00,
2013-03-12 18:16:00,88.3,28.2,29.47,West,264,8.7,10.3,11,-99.99,,,0.00,82.2,rob ver 1B,2013-03-13 01:16:00,
2013-03-12 18:17:00,88.2,28.2,29.47,West,266,9.0,11.6,11,-99.99,,,0.00,79.6,rob ver 1B,2013-03-13 01:17:00,
2013-03-12 18:18:00,88.1,28.2,29.47,West,264,8.9,10.8,11,-99.99,,,0.00,76.3,rob ver 1B,2013-03-13 01:18:00,
2013-03-12 18:19:00,83.1,24.3,29.47,West,264,8.7,10.3,11,-99.99,,,0.00,70.1,rob ver 1A,2013-03-13 01:19:00,
2013-03-12 18:20:00,88.0,28.2,29.47,West,269,10.1,12.1,11,-99.99,,,0.00,70.4,rob ver 1B,2013-03-13 01:20:00,
2013-03-12 18:21:00,87.9,28.2,29.47,West,267,8.9,11.0,11,-99.99,,,0.00,67.32,rob ver 1B,2013-03-13 01:21:00,
2013-03-12 18:22:00,87.9,28.1,29.47,West,271,9.6,11.1,11,-99.99,,,0.00,64.37,rob ver 1B,2013-03-13 01:22:00,
2013-03-12 18:23:00,87.8,28.1,29.47,West,265,8.7,10.6,11,-99.99,,,0.00,61.58,rob ver 1B,2013-03-13 01:23:00,
2013-03-12 18:24:00,82.9,24.5,29.47,West,264,7.7,8.9,11,-99.99,,,0.00,55.38,rob ver 1A,2013-03-13 01:24:00,
2013-03-12 18:25:00,87.6,28.0,29.47,West,271,10.2,11.9,11,-99.99,,,0.00,55.69,rob ver 1B,2013-03-13 01:25:00,
2013-03-12 18:26:00,87.6,28.0,29.47,West,268,9.7,11.3,11,-99.99,,,0.00,52.58,rob ver 1B,2013-03-13 01:26:00,
2013-03-12 18:27:00,87.5,28.1,29.47,West,264,8.6,11.1,11,-99.99,,,0.00,49.79,rob ver 1B,2013-03-13 01:27:00,
2013-03-12 18:28:00,87.4,28.1,29.47,West,265,9.2,11.6,11,-99.99,,,0.00,46.84,rob ver 1B,2013-03-13 01:28:00,
2013-03-12 18:29:00,82.4,24.5,29.47,West,263,8.2,10.3,11,-99.99,,,0.00,40.63,rob ver 1A,2013-03-13 01:29:00,
2013-03-12 18:30:00,87.2,28.0,29.47,West,264,9.1,11.3,11,-99.99,,,0.00,41.28,rob ver 1B,2013-03-13 01:30:00,
2013-03-12 18:31:00,87.1,28.1,29.47,West,266,8.5,10.2,11,-99.99,,,0.00,38.65,rob ver 1B,2013-03-13 01:31:00,
2013-03-12 18:32:00,87.0,28.1,29.47,West,264,9.2,11.1,11,-99.99,,,0.00,36.03,rob ver 1B,2013-03-13 01:32:00,
2013-03-12 18:33:00,86.9,28.1,29.47,West,267,9.8,11.6,11,-99.99,,,0.00,33.74,rob ver 1B,2013-03-13 01:33:00,
2013-03-12 18:34:00,81.9,24.4,29.47,West,261,7.8,9.8,11,-99.99,,,0.00,26.87,rob ver 1A,2013-03-13 01:34:00,
2013-03-12 18:35:00,86.6,28.2,29.47,West,266,8.2,10.4,12,-99.99,,,0.00,29.48,rob ver 1B,2013-03-13 01:35:00,
2013-03-12 18:36:00,86.5,28.2,29.47,West,268,8.8,10.3,12,-99.99,,,0.00,26.86,rob ver 1B,2013-03-13 01:36:00,
2013-03-12 18:37:00,86.4,28.1,29.47,West,269,8.3,10.8,12,-99.99,,,0.00,24.24,rob ver 1B,2013-03-13 01:37:00,
2013-03-12 18:38:00,86.3,28.0,29.47,West,268,8.7,10.1,12,-99.99,,,0.00,21.62,rob ver 1B,2013-03-13 01:38:00,
2013-03-12 18:39:00,86.2,28.0,29.47,West,268,7.9,9.2,12,-99.99,,,0.00,16.38,rob ver 1B,2013-03-13 01:39:00,
2013-03-12 18:40:00,81.4,24.4,29.47,WSW,258,7.0,8.1,12,-99.99,,,0.00,8.52,rob ver 1A,2013-03-13 01:40:00,
2013-03-12 18:41:00,85.9,27.8,29.47,West,268,9.4,11.3,12,-99.99,,,0.00,8.03,rob ver 1B,2013-03-13 01:41:00,
2013-03-12 18:42:00,85.8,27.8,29.47,West,271,9.8,11.3,12,-99.99,,,0.00,7.54,rob ver 1B,2013-03-13 01:42:00,
2013-03-12 18:43:00,85.8,27.8,29.47,West,270,9.2,10.8,12,-99.99,,,0.00,6.88,rob ver 1B,2013-03-13 01:43:00,
2013-03-12 18:44:00,85.6,27.9,29.47,West,273,8.5,10.6,12,-99.99,,,0.00,6.225,rob ver 1B,2013-03-13 01:44:00,
2013-03-12 18:45:00,80.6,24.4,29.47,WSW,258,5.9,7.0,12,-99.99,,,0.00,5.243,rob ver 1A,2013-03-13 01:45:00,
2013-03-12 18:46:00,85.5,27.9,29.47,West,274,9.0,10.9,12,-99.99,,,0.00,4.914,rob ver 1B,2013-03-13 01:46:00,
2013-03-12 18:47:00,85.4,27.8,29.47,West,273,8.5,10.2,12,-99.99,,,0.00,4.259,rob ver 1B,2013-03-13 01:47:00,
2013-03-12 18:48:00,85.3,27.8,29.47,West,273,8.8,11.2,12,-99.99,,,0.00,3.932,rob ver 1B,2013-03-13 01:48:00,
2013-03-12 18:49:00,85.2,27.8,29.47,West,273,9.4,11.3,12,-99.99,,,0.00,3.276,rob ver 1B,2013-03-13 01:49:00,
2013-03-12 18:50:00,80.2,24.4,29.47,West,259,5.6,7.1,12,-99.99,,,0.00,2.949,rob ver 1A,2013-03-13 01:50:00,
2013-03-12 18:51:00,85.1,27.8,29.47,West,273,8.7,10.3,12,-99.99,,,0.00,2.621,rob ver 1B,2013-03-13 01:51:00,
2013-03-12 18:52:00,85.0,27.8,29.47,West,275,8.8,10.9,12,-99.99,,,0.00,2.294,rob ver 1B,2013-03-13 01:52:00,
2013-03-12 18:53:00,84.9,27.7,29.47,West,274,8.2,9.8,12,-99.99,,,0.00,2.13,rob ver 1B,2013-03-13 01:53:00,
2013-03-12 18:54:00,84.8,27.7,29.47,West,275,8.5,9.8,12,-99.99,,,0.00,1.638,rob ver 1B,2013-03-13 01:54:00,
2013-03-12 18:55:00,79.6,24.5,29.47,West,259,4.7,5.7,13,-99.99,,,0.00,1.311,rob ver 1A,2013-03-13 01:55:00,
2013-03-12 18:56:00,84.6,27.6,29.47,West,275,8.1,10.1,12,-99.99,,,0.00,1.311,rob ver 1B,2013-03-13 01:56:00,
2013-03-12 18:57:00,84.6,27.5,29.47,West,274,8.9,10.1,12,-99.99,,,0.00,.983,rob ver 1B,2013-03-13 01:57:00,
2013-03-12 18:58:00,84.6,27.4,29.47,West,275,9.0,10.2,12,-99.99,,,0.00,.983,rob ver 1B,2013-03-13 01:58:00,
2013-03-12 18:59:00,84.5,27.3,29.47,West,275,8.3,10.0,12,-99.99,,,0.00,.655,rob ver 1B,2013-03-13 01:59:00,
2013-03-12 19:00:00,78.9,24.4,29.47,WSW,251,4.6,5.7,13,-99.99,,,0.00,.328,rob ver 1A,2013-03-13 02:00:00,
2013-03-12 19:01:00,84.4,27.2,29.47,West,275,8.3,10.6,12,-99.99,,,0.00,.328,rob ver 1B,2013-03-13 02:01:00,
2013-03-12 19:02:00,84.3,27.2,29.47,West,274,8.3,11.0,12,-99.99,,,0.00,.328,rob ver 1B,2013-03-13 02:02:00,
2013-03-12 19:03:00,84.2,27.2,29.47,West,273,8.1,10.3,12,-99.99,,,0.00,.328,rob ver 1B,2013-03-13 02:03:00,
2013-03-12 19:04:00,84.1,27.2,29.47,West,274,7.7,9.1,12,-99.99,,,0.00,.328,rob ver 1B,2013-03-13 02:04:00,
2013-03-12 19:05:00,78.3,24.3,29.47,WSW,255,4.3,5.1,13,-99.99,,,0.00,0,rob ver 1A,2013-03-13 02:05:00,
2013-03-12 19:06:00,83.9,27.2,29.47,West,272,8.1,9.7,12,-99.99,,,0.00,0,rob ver 1B,2013-03-13 02:06:00,
2013-03-12 19:07:00,83.8,27.2,29.47,West,271,7.6,9.5,12,-99.99,,,0.00,0,rob ver 1B,2013-03-13 02:07:00,
2013-03-12 19:08:00,83.7,27.2,29.47,West,271,7.4,8.5,12,-99.99,,,0.00,0,rob ver 1B,2013-03-13 02:08:00,
2013-03-12 19:09:00,83.5,27.3,29.47,West,269,7.5,8.9,12,-99.99,,,0.00,0,rob ver 1B,2013-03-13 02:09:00,
2013-03-12 19:10:00,77.8,24.3,29.47,WSW,255,3.8,4.3,13,-99.99,,,0.00,0,rob ver 1A,2013-03-13 02:10:00,
2013-03-12 19:11:00,83.4,27.3,29.47,West,271,7.8,10.3,12,-99.99,,,0.00,0,rob ver 1B,2013-03-13 02:11:00,
2013-03-12 19:12:00,83.2,27.3,29.47,West,271,7.3,9.1,12,-99.99,,,0.00,0,rob ver 1B,2013-03-13 02:12:00,
2013-03-12 19:13:00,83.2,27.2,29.47,West,273,7.7,9.5,13,-99.99,,,0.00,0,rob ver 1B,2013-03-13 02:13:00,
2013-03-12 19:14:00,83.0,27.2,29.47,West,273,7.4,8.5,12,-99.99,,,0.00,0,rob ver 1B,2013-03-13 02:14:00,
2013-03-12 19:15:00,77.5,24.3,29.47,West,259,3.4,3.8,13,-99.99,,,0.00,0,rob ver 1A,2013-03-13 02:15:00,
2013-03-12 19:16:00,82.8,27.1,29.47,West,273,7.3,8.7,13,-99.99,,,0.00,0,rob ver 1B,2013-03-13 02:16:00,
2013-03-12 19:17:00,82.7,27.0,29.47,West,274,7.5,9.4,13,-99.99,,,0.00,0,rob ver 1B,2013-03-13 02:17:00,
2013-03-12 19:18:00,82.7,26.9,29.47,West,276,7.5,8.9,13,-99.99,,,0.00,0,rob ver 1B,2013-03-13 02:18:00,
2013-03-12 19:19:00,82.7,26.8,29.47,West,277,7.4,8.7,12,-99.99,,,0.00,0,rob ver 1B,2013-03-13 02:19:00,
2013-03-12 19:20:00,77.0,24.4,29.47,WSW,257,3.3,4.2,14,-99.99,,,0.00,0,rob ver 1A,2013-03-13 02:20:00,
2013-03-12 19:21:00,82.5,26.7,29.47,West,278,7.4,8.7,12,-99.99,,,0.00,0,rob ver 1B,2013-03-13 02:21:00,
2013-03-12 19:22:00,82.3,26.6,29.47,West,280,7.5,9.6,13,-99.99,,,0.00,0,rob ver 1B,2013-03-13 02:22:00,
2013-03-12 19:23:00,82.3,26.5,29.47,West,280,7.4,8.6,12,-99.99,,,0.00,0,rob ver 1B,2013-03-13 02:23:00,
2013-03-12 19:24:00,82.2,26.5,29.47,West,278,7.2,8.3,12,-99.99,,,0.00,0,rob ver 1B,2013-03-13 02:24:00,
2013-03-12 19:25:00,82.1,26.4,29.47,West,278,6.8,8.3,13,-99.99,,,0.00,0,rob ver 1B,2013-03-13 02:25:00,
2013-03-12 19:26:00,76.7,24.8,29.47,West,261,3.4,3.8,14,-99.99,,,0.00,0,rob ver 1A,2013-03-13 02:26:00,
2013-03-12 19:27:00,81.9,26.4,29.47,West,277,6.3,7.5,13,-99.99,,,0.00,0,rob ver 1B,2013-03-13 02:27:00,
2013-03-12 19:28:00,81.8,26.4,29.47,West,276,6.3,7.6,13,-99.99,,,0.00,0,rob ver 1B,2013-03-13 02:28:00,
2013-03-12 19:29:00,81.7,26.3,29.47,West,278,6.1,7.1,13,-99.99,,,0.00,0,rob ver 1B,2013-03-13 02:29:00,
2013-03-12 19:30:00,81.6,26.3,29.47,West,279,6.0,7.3,13,-99.99,,,0.00,0,rob ver 1B,2013-03-13 02:30:00,
2013-03-12 19:31:00,76.4,25.3,29.47,West,260,3.5,4.0,15,-99.99,,,0.00,0,rob ver 1A,2013-03-13 02:31:00,
2013-03-12 19:32:00,81.4,26.2,29.50,West,278,5.9,7.0,13,-99.99,,,0.00,0,rob ver 1B,2013-03-13 02:32:00,
2013-03-12 19:33:00,81.4,26.2,29.47,West,276,5.8,7.0,13,-99.99,,,0.00,0,rob ver 1B,2013-03-13 02:33:00,
2013-03-12 19:34:00,81.2,26.2,29.47,West,277,5.9,6.5,13,-99.99,,,0.00,0,rob ver 1B,2013-03-13 02:34:00,
2013-03-12 19:35:00,81.2,26.2,29.47,West,279,6.1,6.9,13,-99.99,,,0.00,0,rob ver 1B,2013-03-13 02:35:00,
2013-03-12 19:36:00,76.1,25.3,29.47,WSW,255,3.4,3.6,15,-99.99,,,0.00,0,rob ver 1A,2013-03-13 02:36:00,
2013-03-12 19:37:00,81.0,26.1,29.47,West,276,5.8,6.7,13,-99.99,,,0.00,0,rob ver 1B,2013-03-13 02:37:00,
2013-03-12 19:38:00,81.0,26.2,29.50,West,277,5.7,6.8,13,-99.99,,,0.00,0,rob ver 1B,2013-03-13 02:38:00,
2013-03-12 19:39:00,80.9,26.1,29.50,West,278,5.2,5.9,13,-99.99,,,0.00,0,rob ver 1B,2013-03-13 02:39:00,
2013-03-12 19:40:00,80.7,26.1,29.47,West,278,5.3,6.0,13,-99.99,,,0.00,0,rob ver 1B,2013-03-13 02:40:00,
2013-03-12 19:41:00,75.8,25.4,29.47,WSW,255,3.0,3.2,15,-99.99,,,0.00,0,rob ver 1A,2013-03-13 02:41:00,
2013-03-12 19:42:00,80.5,26.1,29.47,West,280,4.9,6.1,13,-99.99,,,0.00,0,rob ver 1B,2013-03-13 02:42:00,
2013-03-12 19:43:00,80.4,26.1,29.47,WNW,283,4.8,5.5,13,-99.99,,,0.00,0,rob ver 1B,2013-03-13 02:43:00,
2013-03-12 19:44:00,80.3,26.1,29.50,WNW,286,4.6,5.1,13,-99.99,,,0.00,0,rob ver 1B,2013-03-13 02:44:00,
2013-03-12 19:45:00,80.2,26.1,29.50,WNW,291,4.6,5.7,13,-99.99,,,0.00,0,rob ver 1B,2013-03-13 02:45:00,
2013-03-12 19:46:00,75.7,25.5,29.47,West,275,3.5,3.7,15,-99.99,,,0.00,0,rob ver 1A,2013-03-13 02:46:00,
2013-03-12 19:47:00,80.0,26.1,29.50,WNW,298,4.0,4.5,13,-99.99,,,0.00,0,rob ver 1B,2013-03-13 02:47:00,
2013-03-12 19:48:00,79.9,26.1,29.47,WNW,296,4.1,4.6,13,-99.99,,,0.00,0,rob ver 1B,2013-03-13 02:48:00,
2013-03-12 19:49:00,79.8,26.1,29.47,WNW,291,4.2,4.6,13,-99.99,,,0.00,0,rob ver 1B,2013-03-13 02:49:00,
2013-03-12 19:50:00,79.7,26.1,29.50,WNW,288,4.3,4.6,13,-99.99,,,0.00,0,rob ver 1B,2013-03-13 02:50:00,
2013-03-12 19:51:00,75.2,25.8,29.50,WNW,289,2.9,3.2,15,-99.99,,,0.00,0,rob ver 1A,2013-03-13 02:51:00,
2013-03-12 19:52:00,79.5,26.0,29.50,WNW,287,4.4,5.0,13,-99.99,,,0.00,0,rob ver 1B,2013-03-13 02:52:00,
2013-03-12 19:53:00,79.5,26.0,29.50,WNW,287,4.6,5.2,13,-99.99,,,0.00,0,rob ver 1B,2013-03-13 02:53:00,
2013-03-12 19:54:00,79.5,26.0,29.50,WNW,289,4.6,5.3,13,-99.99,,,0.00,0,rob ver 1B,2013-03-13 02:54:00,
2013-03-12 19:55:00,79.5,26.0,29.47,WNW,288,4.4,5.0,13,-99.99,,,0.00,0,rob ver 1B,2013-03-13 02:55:00,
2013-03-12 19:56:00,75.2,26.1,29.50,WNW,289,3.0,3.2,16,-99.99,,,0.00,0,rob ver 1A,2013-03-13 02:56:00,
2013-03-12 19:57:00,79.4,25.9,29.47,WNW,289,4.4,4.8,13,-99.99,,,0.00,0,rob ver 1B,2013-03-13 02:57:00,
2013-03-12 19:58:00,79.3,25.9,29.50,WNW,290,4.5,5.1,13,-99.99,,,0.00,0,rob ver 1B,2013-03-13 02:58:00,
2013-03-12 19:59:00,79.2,25.8,29.50,WNW,293,4.7,5.1,13,-99.99,,,0.00,0,rob ver 1B,2013-03-13 02:59:00,
2013-03-12 20:00:00,79.3,25.8,29.50,WNW,294,4.6,5.1,13,-99.99,,,0.00,0,rob ver 1B,2013-03-13 03:00:00,
2013-03-12 20:01:00,74.9,26.1,29.50,WNW,301,3.2,3.4,16,-99.99,,,0.00,0,rob ver 1A,2013-03-13 03:01:00,
2013-03-12 20:02:00,79.3,25.8,29.47,WNW,294,4.5,5.0,13,-99.99,,,0.00,0,rob ver 1B,2013-03-13 03:02:00,
2013-03-12 20:03:00,79.2,25.8,29.47,WNW,295,4.5,4.9,13,-99.99,,,0.00,0,rob ver 1B,2013-03-13 03:03:00,
2013-03-12 20:04:00,79.2,25.8,29.50,WNW,298,4.6,5.3,13,-99.99,,,0.00,0,rob ver 1B,2013-03-13 03:04:00,
2013-03-12 20:05:00,79.1,25.8,29.50,WNW,299,4.8,5.2,14,-99.99,,,0.00,0,rob ver 1B,2013-03-13 03:05:00,
2013-03-12 20:06:00,74.5,25.3,29.50,WNW,303,3.6,4.0,15,-99.99,,,0.00,0,rob ver 1A,2013-03-13 03:06:00,
2013-03-12 20:07:00,79.0,25.9,29.50,WNW,298,4.8,5.3,13,-99.99,,,0.00,0,rob ver 1B,2013-03-13 03:07:00,
2013-03-12 20:08:00,78.9,25.8,29.50,WNW,298,4.9,5.4,14,-99.99,,,0.00,0,rob ver 1B,2013-03-13 03:08:00,
2013-03-12 20:09:00,78.9,25.8,29.50,WNW,302,4.9,5.3,14,-99.99,,,0.00,0,rob ver 1B,2013-03-13 03:09:00,
2013-03-12 20:10:00,78.9,25.8,29.50,WNW,303,4.8,5.3,14,-99.99,,,0.00,0,rob ver 1B,2013-03-13 03:10:00,
2013-03-12 20:11:00,78.8,25.8,29.50,WNW,299,4.8,5.5,14,-99.99,,,0.00,0,rob ver 1B,2013-03-13 03:11:00,
2013-03-12 20:12:00,74.8,24.9,29.50,WNW,299,3.5,3.8,15,-99.99,,,0.00,0,rob ver 1A,2013-03-13 03:12:00,
2013-03-12 20:13:00,78.8,25.8,29.50,NW,306,4.7,5.3,14,-99.99,,,0.00,0,rob ver 1B,2013-03-13 03:13:00,
2013-03-12 20:14:00,78.7,25.9,29.50,NW,305,4.7,5.2,14,-99.99,,,0.00,0,rob ver 1B,2013-03-13 03:14:00,
2013-03-12 20:15:00,78.5,26.1,29.50,NW,305,4.8,5.7,14,-99.99,,,0.00,0,rob ver 1B,2013-03-13 03:15:00,
2013-03-12 20:16:00,78.4,26.4,29.50,NW,308,4.8,5.3,14,-99.99,,,0.00,0,rob ver 1B,2013-03-13 03:16:00,
2013-03-12 20:17:00,75.0,24.7,29.50,West,281,3.6,3.8,15,-99.99,,,0.00,0,rob ver 1A,2013-03-13 03:17:00,
2013-03-12 20:18:00,78.1,26.7,29.50,NW,307,4.4,5.0,14,-99.99,,,0.00,0,rob ver 1B,2013-03-13 03:18:00,
2013-03-12 20:19:00,78.0,26.7,29.50,NW,308,4.7,5.3,15,-99.99,,,0.00,0,rob ver 1B,2013-03-13 03:19:00,
2013-03-12 20:20:00,78.0,26.7,29.50,NW,307,4.6,5.1,15,-99.99,,,0.00,0,rob ver 1B,2013-03-13 03:20:00,
2013-03-12 20:21:00,78.0,26.8,29.50,WNW,303,4.8,5.5,15,-99.99,,,0.00,0,rob ver 1B,2013-03-13 03:21:00,
2013-03-12 20:22:00,75.2,24.6,29.50,WNW,287,3.7,3.9,15,-99.99,,,0.00,0,rob ver 1A,2013-03-13 03:22:00,
2013-03-12 20:23:00,78.0,26.8,29.50,NW,305,4.9,5.5,15,-99.99,,,0.00,0,rob ver 1B,2013-03-13 03:23:00,
2013-03-12 20:24:00,78.0,27.0,29.50,NW,306,4.7,5.3,15,-99.99,,,0.00,0,rob ver 1B,2013-03-13 03:24:00,
2013-03-12 20:25:00,77.9,27.1,29.50,NW,308,4.4,5.0,15,-99.99,,,0.00,0,rob ver 1B,2013-03-13 03:25:00,
2013-03-12 20:26:00,77.7,27.2,29.50,NW,311,4.6,5.0,15,-99.99,,,0.00,0,rob ver 1B,2013-03-13 03:26:00,
2013-03-12 20:27:00,74.8,24.7,29.50,WNW,292,3.3,3.5,15,-99.99,,,0.00,0,rob ver 1A,2013-03-13 03:27:00,
2013-03-12 20:28:00,77.5,27.4,29.50,NW,313,5.3,5.6,15,-99.99,,,0.00,0,rob ver 1B,2013-03-13 03:28:00,
2013-03-12 20:29:00,77.4,27.4,29.50,NW,313,5.0,5.4,15,-99.99,,,0.00,0,rob ver 1B,2013-03-13 03:29:00,
2013-03-12 20:30:00,77.3,27.5,29.50,NW,311,5.1,5.5,15,-99.99,,,0.00,0,rob ver 1B,2013-03-13 03:30:00,
2013-03-12 20:31:00,77.3,27.6,29.50,NW,311,5.2,5.8,16,-99.99,,,0.00,0,rob ver 1B,2013-03-13 03:31:00,
2013-03-12 20:32:00,74.0,24.8,29.50,WNW,286,2.7,2.9,15,-99.99,,,0.00,0,rob ver 1A,2013-03-13 03:32:00,
2013-03-12 20:33:00,77.3,27.7,29.50,NW,317,5.5,5.9,16,-99.99,,,0.00,0,rob ver 1B,2013-03-13 03:33:00,
2013-03-12 20:34:00,77.3,27.7,29.50,NW,320,5.5,6.4,15,-99.99,,,0.00,0,rob ver 1B,2013-03-13 03:34:00,
2013-03-12 20:35:00,77.4,27.7,29.50,NW,322,5.5,6.7,15,-99.99,,,0.00,0,rob ver 1B,2013-03-13 03:35:00,
2013-03-12 20:36:00,77.6,27.6,29.50,NW,321,5.7,7.0,15,-99.99,,,0.00,0,rob ver 1B,2013-03-13 03:36:00,
2013-03-12 20:37:00,73.8,24.9,29.50,West,271,2.5,2.8,15,-99.99,,,0.00,0,rob ver 1A,2013-03-13 03:37:00,
2013-03-12 20:38:00,78.0,27.6,29.50,NW,323,5.2,6.6,15,-99.99,,,0.00,0,rob ver 1B,2013-03-13 03:38:00,
2013-03-12 20:39:00,78.1,27.6,29.50,NW,322,5.2,5.8,15,-99.99,,,0.00,0,rob ver 1B,2013-03-13 03:39:00,
2013-03-12 20:40:00,78.1,27.6,29.50,NW,322,5.5,6.6,15,-99.99,,,0.00,0,rob ver 1B,2013-03-13 03:40:00,
2013-03-12 20:41:00,78.2,27.6,29.50,NW,321,5.8,6.8,15,-99.99,,,0.00,0,rob ver 1B,2013-03-13 03:41:00,
2013-03-12 20:42:00,73.0,25.0,29.50,WSW,242,3.0,3.3,16,-99.99,,,0.00,0,rob ver 1A,2013-03-13 03:42:00,
2013-03-12 20:43:00,78.1,27.6,29.50,NW,319,5.8,6.8,15,-99.99,,,0.00,0,rob ver 1B,2013-03-13 03:43:00,
2013-03-12 20:44:00,78.0,27.6,29.50,NW,318,5.7,6.6,15,-99.99,,,0.00,0,rob ver 1B,2013-03-13 03:44:00,
2013-03-12 20:45:00,78.0,27.7,29.50,NW,320,5.9,7.1,15,-99.99,,,0.00,0,rob ver 1B,2013-03-13 03:45:00,
2013-03-12 20:46:00,77.9,27.7,29.50,NW,318,6.0,6.8,15,-99.99,,,0.00,0,rob ver 1B,2013-03-13 03:46:00,
2013-03-12 20:47:00,77.9,27.7,29.50,NW,322,6.2,7.3,15,-99.99,,,0.00,0,rob ver 1B,2013-03-13 03:47:00,
2013-03-12 20:48:00,72.4,25.3,29.50,West,265,3.7,4.6,17,-99.99,,,0.00,0,rob ver 1A,2013-03-13 03:48:00,
2013-03-12 20:49:00,78.4,27.7,29.50,NW,323,6.2,7.4,15,-99.99,,,0.00,0,rob ver 1B,2013-03-13 03:49:00,
2013-03-12 20:50:00,78.6,27.7,29.50,NW,322,6.8,8.4,15,-99.99,,,0.00,0,rob ver 1B,2013-03-13 03:50:00,
2013-03-12 20:51:00,78.8,27.7,29.50,NW,323,6.6,7.4,15,-99.99,,,0.00,0,rob ver 1B,2013-03-13 03:51:00,
2013-03-12 20:52:00,79.0,27.7,29.50,NW,322,6.5,7.8,15,-99.99,,,0.00,0,rob ver 1B,2013-03-13 03:52:00,
2013-03-12 20:53:00,73.4,25.3,29.50,West,275,4.5,5.1,16,-99.99,,,0.00,0,rob ver 1A,2013-03-13 03:53:00,
2013-03-12 20:54:00,79.2,27.7,29.50,NW,319,7.0,8.4,15,-99.99,,,0.00,0,rob ver 1B,2013-03-13 03:54:00,
2013-03-12 20:55:00,79.3,27.6,29.50,NW,316,7.2,8.5,14,-99.99,,,0.00,0,rob ver 1B,2013-03-13 03:55:00,
2013-03-12 20:56:00,79.3,27.7,29.50,NW,314,7.9,9.2,14,-99.99,,,0.00,0,rob ver 1B,2013-03-13 03:56:00,
2013-03-12 20:57:00,79.4,27.6,29.50,NW,313,7.4,8.8,14,-99.99,,,0.00,0,rob ver 1B,2013-03-13 03:57:00,
2013-03-12 20:58:00,73.4,25.4,29.50,WNW,287,4.5,4.9,16,-99.99,,,0.00,0,rob ver 1A,2013-03-13 03:58:00,
2013-03-12 20:59:00,79.4,27.6,29.50,NW,312,7.8,8.6,14,-99.99,,,0.00,0,rob ver 1B,2013-03-13 03:59:00,
2013-03-12 21:00:00,73.0,25.4,29.50,WNW,287,3.8,4.0,16,-99.99,,,0.00,0,rob ver 1A,2013-03-13 04:00:00,
2013-03-12 21:01:00,72.9,25.4,29.50,WNW,289,3.9,4.2,17,-99.99,,,0.00,0,rob ver 1A,2013-03-13 04:01:00,
2013-03-12 21:02:00,79.5,27.4,29.50,NW,308,7.3,8.3,14,-99.99,,,0.00,0,rob ver 1B,2013-03-13 04:02:00,
2013-03-12 21:03:00,79.6,27.4,29.50,NW,309,6.9,8.3,14,-99.99,,,0.00,0,rob ver 1B,2013-03-13 04:03:00,
2013-03-12 21:04:00,79.6,27.6,29.50,NW,309,6.5,7.3,14,-99.99,,,0.00,0,rob ver 1B,2013-03-13 04:04:00,
2013-03-12 21:05:00,79.5,27.6,29.50,NW,310,6.3,7.0,14,-99.99,,,0.00,0,rob ver 1B,2013-03-13 04:05:00,
2013-03-12 21:06:00,72.1,25.6,29.50,WNW,288,3.4,3.8,17,-99.99,,,0.00,0,rob ver 1A,2013-03-13 04:06:00,
2013-03-12 21:07:00,79.2,27.8,29.50,NW,311,6.0,6.8,15,-99.99,,,0.00,0,rob ver 1B,2013-03-13 04:07:00,
2013-03-12 21:08:00,79.0,28.0,29.50,NW,313,5.5,5.9,15,-99.99,,,0.00,0,rob ver 1B,2013-03-13 04:08:00,
2013-03-12 21:09:00,78.8,28.0,29.50,NW,314,5.7,6.2,15,-99.99,,,0.00,0,rob ver 1B,2013-03-13 04:09:00,
2013-03-12 21:10:00,78.5,28.1,29.50,NW,314,5.9,6.4,15,-99.99,,,0.00,0,rob ver 1B,2013-03-13 04:10:00,
2013-03-12 21:11:00,72.2,25.6,29.50,WNW,301,3.0,3.1,17,-99.99,,,0.00,0,rob ver 1A,2013-03-13 04:11:00,
2013-03-12 21:12:00,78.3,28.1,29.50,NW,317,5.0,5.7,15,-99.99,,,0.00,0,rob ver 1B,2013-03-13 04:12:00,
2013-03-12 21:13:00,78.2,28.1,29.50,NW,315,4.9,5.5,15,-99.99,,,0.00,0,rob ver 1B,2013-03-13 04:13:00,
2013-03-12 21:14:00,78.2,28.2,29.50,NW,313,5.1,5.8,15,-99.99,,,0.00,0,rob ver 1B,2013-03-13 04:14:00,
2013-03-12 21:15:00,78.1,28.1,29.50,NW,311,5.3,5.9,15,-99.99,,,0.00,0,rob ver 1B,2013-03-13 04:15:00,
2013-03-12 21:16:00,78.1,28.1,29.50,NW,310,5.6,6.4,15,-99.99,,,0.00,0,rob ver 1B,2013-03-13 04:16:00,
2013-03-12 21:17:00,71.7,26.1,29.50,NW,308,3.4,3.5,18,-99.99,,,0.00,0,rob ver 1A,2013-03-13 04:17:00,
2013-03-12 21:18:00,78.0,28.1,29.50,NW,311,5.7,6.1,15,-99.99,,,0.00,0,rob ver 1B,2013-03-13 04:18:00,
2013-03-12 21:19:00,78.0,28.2,29.50,NW,312,5.9,6.4,15,-99.99,,,0.00,0,rob ver 1B,2013-03-13 04:19:00,
2013-03-12 21:20:00,78.0,28.2,29.50,NW,312,6.0,6.6,16,-99.99,,,0.00,0,rob ver 1B,2013-03-13 04:20:00,
2013-03-12 21:21:00,77.9,28.2,29.50,NW,310,6.0,6.6,16,-99.99,,,0.00,0,rob ver 1B,2013-03-13 04:21:00,
2013-03-12 21:22:00,71.9,26.1,29.50,NW,312,3.0,3.1,18,-99.99,,,0.00,0,rob ver 1A,2013-03-13 04:22:00,
2013-03-12 21:23:00,78.1,28.1,29.50,NW,310,6.2,7.1,15,-99.99,,,0.00,0,rob ver 1B,2013-03-13 04:23:00,
2013-03-12 21:24:00,78.2,28.1,29.50,NW,311,6.4,7.4,15,-99.99,,,0.00,0,rob ver 1B,2013-03-13 04:24:00,
2013-03-12 21:25:00,78.3,28.1,29.50,NW,311,6.5,7.1,15,-99.99,,,0.00,0,rob ver 1B,2013-03-13 04:25:00,
2013-03-12 21:26:00,78.4,28.1,29.50,NW,310,6.5,7.4,15,-99.99,,,0.00,0,rob ver 1B,2013-03-13 04:26:00,
2013-03-12 21:27:00,72.1,26.2,29.50,NW,310,3.5,3.7,17,-99.99,,,0.00,0,rob ver 1A,2013-03-13 04:27:00,
2013-03-12 21:28:00,78.7,28.0,29.50,NW,309,6.5,7.7,15,-99.99,,,0.00,0,rob ver 1B,2013-03-13 04:28:00,
2013-03-12 21:29:00,78.9,28.0,29.50,NW,308,6.8,7.7,15,-99.99,,,0.00,0,rob ver 1B,2013-03-13 04:29:00,
2013-03-12 21:30:00,79.0,28.0,29.50,NW,308,6.8,8.2,15,-99.99,,,0.00,0,rob ver 1B,2013-03-13 04:30:00,
2013-03-12 21:31:00,79.0,28.0,29.50,NW,306,6.9,8.0,15,-99.99,,,0.00,0,rob ver 1B,2013-03-13 04:31:00,
2013-03-12 21:32:00,73.4,26.1,29.50,WNW,296,3.9,4.1,17,-99.99,,,0.00,0,rob ver 1A,2013-03-13 04:32:00,
2013-03-12 21:33:00,79.1,28.0,29.50,NW,305,6.8,7.8,15,-99.99,,,0.00,0,rob ver 1B,2013-03-13 04:33:00,
2013-03-12 21:34:00,79.0,27.9,29.50,NW,304,6.9,7.9,15,-99.99,,,0.00,0,rob ver 1B,2013-03-13 04:34:00,
2013-03-12 21:35:00,78.9,27.9,29.50,WNW,302,7.3,8.7,15,-99.99,,,0.00,0,rob ver 1B,2013-03-13 04:35:00,
2013-03-12 21:36:00,78.9,27.9,29.50,WNW,303,6.9,8.1,15,-99.99,,,0.00,0,rob ver 1B,2013-03-13 04:36:00,
2013-03-12 21:37:00,73.8,26.0,29.50,WNW,287,4.4,4.5,16,-99.99,,,0.00,0,rob ver 1A,2013-03-13 04:37:00,
2013-03-12 21:38:00,78.7,27.9,29.50,WNW,303,6.3,7.6,15,-99.99,,,0.00,0,rob ver 1B,2013-03-13 04:38:00,
2013-03-12 21:39:00,78.5,27.9,29.50,WNW,302,6.2,7.1,15,-99.99,,,0.00,0,rob ver 1B,2013-03-13 04:39:00,
2013-03-12 21:40:00,78.4,27.9,29.50,WNW,301,6.5,7.3,15,-99.99,,,0.00,0,rob ver 1B,2013-03-13 04:40:00,
2013-03-12 21:41:00,78.4,27.9,29.50,WNW,302,6.4,7.3,15,-99.99,,,0.00,0,rob ver 1B,2013-03-13 04:41:00,
2013-03-12 21:42:00,73.9,26.0,29.50,WNW,295,4.3,4.5,16,-99.99,,,0.00,0,rob ver 1A,2013-03-13 04:42:00,
2013-03-12 21:43:00,78.2,27.9,29.50,NW,304,6.0,6.7,15,-99.99,,,0.00,0,rob ver 1B,2013-03-13 04:43:00,
2013-03-12 21:44:00,78.1,27.9,29.50,WNW,303,5.7,6.6,15,-99.99,,,0.00,0,rob ver 1B,2013-03-13 04:44:00,
2013-03-12 21:45:00,77.9,28.0,29.50,WNW,300,5.9,6.6,15,-99.99,,,0.00,0,rob ver 1B,2013-03-13 04:45:00,
2013-03-12 21:46:00,77.7,28.1,29.50,WNW,300,6.0,6.7,16,-99.99,,,0.00,0,rob ver 1B,2013-03-13 04:46:00,
2013-03-12 21:47:00,72.6,26.0,29.50,NW,313,3.5,3.6,17,-99.99,,,0.00,0,rob ver 1A,2013-03-13 04:47:00,
2013-03-12 21:48:00,77.4,28.1,29.50,WNW,302,6.1,7.1,16,-99.99,,,0.00,0,rob ver 1B,2013-03-13 04:48:00,
2013-03-12 21:49:00,77.3,28.1,29.50,WNW,301,6.2,7.6,16,-99.99,,,0.00,0,rob ver 1B,2013-03-13 04:49:00,
2013-03-12 21:50:00,77.3,28.1,29.50,WNW,299,6.2,7.1,16,-99.99,,,0.00,0,rob ver 1B,2013-03-13 04:50:00,
2013-03-12 21:51:00,77.2,28.1,29.50,WNW,302,6.0,7.0,16,-99.99,,,0.00,0,rob ver 1B,2013-03-13 04:51:00,
2013-03-12 21:52:00,72.1,25.9,29.53,NW,308,3.3,3.5,17,-99.99,,,0.00,0,rob ver 1A,2013-03-13 04:52:00,
2013-03-12 21:53:00,77.2,28.1,29.50,WNW,301,5.9,6.5,16,-99.99,,,0.00,0,rob ver 1B,2013-03-13 04:53:00,
2013-03-12 21:54:00,77.2,28.1,29.50,NW,305,5.6,7.1,16,-99.99,,,0.00,0,rob ver 1B,2013-03-13 04:54:00,
2013-03-12 21:55:00,77.2,28.1,29.50,WNW,299,6.0,7.1,16,-99.99,,,0.00,0,rob ver 1B,2013-03-13 04:55:00,
2013-03-12 21:56:00,77.3,28.1,29.50,WNW,297,5.6,7.4,16,-99.99,,,0.00,0,rob ver 1B,2013-03-13 04:56:00,
2013-03-12 21:57:00,72.4,25.8,29.53,WNW,287,4.1,4.3,17,-99.99,,,0.00,0,rob ver 1A,2013-03-13 04:57:00,
2013-03-12 21:58:00,77.1,28.2,29.50,WNW,296,5.5,6.4,16,-99.99,,,0.00,0,rob ver 1B,2013-03-13 04:58:00,
2013-03-12 21:59:00,77.1,28.2,29.50,WNW,294,5.7,6.5,16,-99.99,,,0.00,0,rob ver 1B,2013-03-13 04:59:00,
2013-03-12 22:00:00,77.1,28.2,29.50,WNW,297,5.9,6.8,16,-99.99,,,0.00,0,rob ver 1B,2013-03-13 05:00:00,
2013-03-12 22:01:00,77.1,28.2,29.50,WNW,301,5.6,6.4,16,-99.99,,,0.00,0,rob ver 1B,2013-03-13 05:01:00,
2013-03-12 22:02:00,77.0,28.2,29.50,WNW,300,5.5,6.2,16,-99.99,,,0.00,0,rob ver 1B,2013-03-13 05:02:00,
2013-03-12 22:03:00,73.1,25.8,29.53,WNW,290,4.5,4.7,16,-99.99,,,0.00,0,rob ver 1A,2013-03-13 05:03:00,
2013-03-12 22:04:00,76.9,28.2,29.50,NW,307,4.6,5.6,16,-99.99,,,0.00,0,rob ver 1B,2013-03-13 05:04:00,
2013-03-12 22:05:00,76.8,28.2,29.50,NW,305,4.6,5.2,16,-99.99,,,0.00,0,rob ver 1B,2013-03-13 05:05:00,
2013-03-12 22:06:00,76.7,28.2,29.50,WNW,303,5.0,5.6,16,-99.99,,,0.00,0,rob ver 1B,2013-03-13 05:06:00,
2013-03-12 22:07:00,76.8,28.2,29.50,WNW,302,4.9,5.6,16,-99.99,,,0.00,0,rob ver 1B,2013-03-13 05:07:00,
2013-03-12 22:08:00,72.7,25.8,29.53,WNW,290,3.5,4.1,17,-99.99,,,0.00,0,rob ver 1A,2013-03-13 05:08:00,
2013-03-12 22:09:00,76.7,28.2,29.50,WNW,303,4.6,5.2,16,-99.99,,,0.00,0,rob ver 1B,2013-03-13 05:09:00,
2013-03-12 22:10:00,76.6,28.3,29.50,NW,307,3.9,4.7,16,-99.99,,,0.00,0,rob ver 1B,2013-03-13 05:10:00,
2013-03-12 22:11:00,76.4,28.3,29.50,NW,308,3.7,4.3,17,-99.99,,,0.00,0,rob ver 1B,2013-03-13 05:11:00,
2013-03-12 22:12:00,76.2,28.3,29.50,NW,305,3.9,4.5,17,-99.99,,,0.00,0,rob ver 1B,2013-03-13 05:12:00,
2013-03-12 22:13:00,71.4,25.8,29.53,WNW,295,3.3,4.0,18,-99.99,,,0.00,0,rob ver 1A,2013-03-13 05:13:00,
2013-03-12 22:14:00,76.2,28.3,29.50,WNW,301,4.5,5.2,17,-99.99,,,0.00,0,rob ver 1B,2013-03-13 05:14:00,
2013-03-12 22:15:00,76.2,28.4,29.50,NW,304,4.3,5.0,17,-99.99,,,0.00,0,rob ver 1B,2013-03-13 05:15:00,
2013-03-12 22:16:00,76.1,28.3,29.50,NW,305,3.9,4.5,17,-99.99,,,0.00,0,rob ver 1B,2013-03-13 05:16:00,
2013-03-12 22:17:00,75.9,28.4,29.50,WNW,301,3.8,4.2,17,-99.99,,,0.00,0,rob ver 1B,2013-03-13 05:17:00,
2013-03-12 22:18:00,71.6,25.8,29.53,West,270,3.0,3.4,18,-99.99,,,0.00,0,rob ver 1A,2013-03-13 05:18:00,
2013-03-12 22:19:00,75.6,28.5,29.50,WNW,292,3.7,3.9,17,-99.99,,,0.00,0,rob ver 1B,2013-03-13 05:19:00,
2013-03-12 22:20:00,75.5,28.5,29.50,WNW,288,3.6,4.0,17,-99.99,,,0.00,0,rob ver 1B,2013-03-13 05:20:00,
2013-03-12 22:21:00,75.4,28.5,29.50,WNW,287,3.5,4.0,17,-99.99,,,0.00,0,rob ver 1B,2013-03-13 05:21:00,
2013-03-12 22:22:00,75.3,28.5,29.50,WNW,292,3.7,4.4,17,-99.99,,,0.00,0,rob ver 1B,2013-03-13 05:22:00,
2013-03-12 22:23:00,70.4,25.8,29.53,West,264,1.5,1.7,18,-99.99,,,0.00,0,rob ver 1A,2013-03-13 05:23:00,
2013-03-12 22:24:00,75.3,28.5,29.53,WNW,294,3.6,4.3,17,-99.99,,,0.00,0,rob ver 1B,2013-03-13 05:24:00,
2013-03-12 22:25:00,75.4,28.5,29.50,WNW,290,3.6,4.1,17,-99.99,,,0.00,0,rob ver 1B,2013-03-13 05:25:00,
2013-03-12 22:26:00,75.3,28.4,29.50,WNW,284,3.0,3.9,17,-99.99,,,0.00,0,rob ver 1B,2013-03-13 05:26:00,
2013-03-12 22:27:00,74.9,28.4,29.50,WSW,250,1.6,2.1,18,-99.99,,,0.00,0,rob ver 1B,2013-03-13 05:27:00,
2013-03-12 22:28:00,69.1,26.0,29.53,WSW,252,1.7,1.9,19,-99.99,,,0.00,0,rob ver 1A,2013-03-13 05:28:00,
2013-03-12 22:29:00,74.1,28.5,29.53,West,269,1.6,2.1,18,-99.99,,,0.00,0,rob ver 1B,2013-03-13 05:29:00,
2013-03-12 22:30:00,73.9,28.5,29.53,West,275,1.2,1.7,18,-99.99,,,0.00,0,rob ver 1B,2013-03-13 05:30:00,
2013-03-12 22:31:00,73.8,28.5,29.53,West,262,1.2,1.6,18,-99.99,,,0.00,0,rob ver 1B,2013-03-13 05:31:00,
2013-03-12 22:32:00,73.6,28.4,29.53,SSW,210,0.9,1.2,18,-99.99,,,0.00,0,rob ver 1B,2013-03-13 05:32:00,
2013-03-12 22:33:00,68.0,26.0,29.53,WNW,293,1.3,1.7,20,-99.99,,,0.00,0,rob ver 1A,2013-03-13 05:33:00,
2013-03-12 22:34:00,72.9,28.5,29.53,West,274,1.4,2.9,19,-99.99,,,0.00,0,rob ver 1B,2013-03-13 05:34:00,
2013-03-12 22:35:00,72.7,28.5,29.53,WNW,288,3.2,5.0,19,-99.99,,,0.00,0,rob ver 1B,2013-03-13 05:35:00,
2013-03-12 22:36:00,72.9,28.6,29.53,WNW,288,4.9,5.5,19,-99.99,,,0.00,0,rob ver 1B,2013-03-13 05:36:00,
2013-03-12 22:37:00,73.5,28.6,29.53,WNW,286,5.0,6.4,18,-99.99,,,0.00,0,rob ver 1B,2013-03-13 05:37:00,
2013-03-12 22:38:00,67.2,26.3,29.53,West,267,2.4,2.9,21,-99.99,,,0.00,0,rob ver 1A,2013-03-13 05:38:00,
2013-03-12 22:39:00,74.1,28.6,29.50,WNW,283,5.1,6.3,18,-99.99,,,0.00,0,rob ver 1B,2013-03-13 05:39:00,
2013-03-12 22:40:00,74.1,28.6,29.53,WNW,282,4.6,5.1,18,-99.99,,,0.00,0,rob ver 1B,2013-03-13 05:40:00,
2013-03-12 22:41:00,74.0,28.6,29.53,West,281,4.5,5.1,18,-99.99,,,0.00,0,rob ver 1B,2013-03-13 05:41:00,
2013-03-12 22:42:00,73.8,28.6,29.53,WNW,282,4.9,5.9,18,-99.99,,,0.00,0,rob ver 1B,2013-03-13 05:42:00,
2013-03-12 22:43:00,66.8,26.3,29.53,WNW,293,0.8,1.3,21,-99.99,,,0.00,0,rob ver 1A,2013-03-13 05:43:00,
2013-03-12 22:44:00,73.6,28.7,29.50,West,268,4.0,4.9,18,-99.99,,,0.00,0,rob ver 1B,2013-03-13 05:44:00,
2013-03-12 22:45:00,73.3,28.7,29.50,West,262,3.2,3.8,19,-99.99,,,0.00,0,rob ver 1B,2013-03-13 05:45:00,
2013-03-12 22:46:00,73.0,28.7,29.53,West,266,3.1,3.8,19,-99.99,,,0.00,0,rob ver 1B,2013-03-13 05:46:00,
2013-03-12 22:47:00,72.8,28.7,29.53,West,273,3.3,4.2,19,-99.99,,,0.00,0,rob ver 1B,2013-03-13 05:47:00,
2013-03-12 22:48:00,66.2,26.3,29.53,NW,325,0.5,1.1,22,-99.99,,,0.00,0,rob ver 1A,2013-03-13 05:48:00,
2013-03-12 22:49:00,72.7,28.7,29.53,WNW,298,5.0,6.7,19,-99.99,,,0.00,0,rob ver 1B,2013-03-13 05:49:00,
2013-03-12 22:50:00,73.3,28.7,29.50,WNW,301,6.2,7.4,18,-99.99,,,0.00,0,rob ver 1B,2013-03-13 05:50:00,
2013-03-12 22:51:00,74.1,28.6,29.50,NW,304,6.9,8.0,18,-99.99,,,0.00,0,rob ver 1B,2013-03-13 05:51:00,
2013-03-12 22:52:00,74.8,28.6,29.53,NW,306,7.2,8.3,17,-99.99,,,0.00,0,rob ver 1B,2013-03-13 05:52:00,
2013-03-12 22:53:00,65.9,26.4,29.53,SW,214,0.7,1.3,22,-99.99,,,0.00,0,rob ver 1A,2013-03-13 05:53:00,
2013-03-12 22:54:00,75.5,28.5,29.50,NW,304,7.1,8.2,17,-99.99,,,0.00,0,rob ver 1B,2013-03-13 05:54:00,
2013-03-12 22:55:00,75.5,28.4,29.50,WNW,303,7.8,8.8,17,-99.99,,,0.00,0,rob ver 1B,2013-03-13 05:55:00,
2013-03-12 22:56:00,75.6,28.4,29.50,NW,305,7.5,8.8,17,-99.99,,,0.00,0,rob ver 1B,2013-03-13 05:56:00,
2013-03-12 22:57:00,75.7,28.4,29.50,NW,305,7.9,9.8,17,-99.99,,,0.00,0,rob ver 1B,2013-03-13 05:57:00,
2013-03-12 22:58:00,65.4,26.5,29.53,East,97,0.4,0.5,22,-99.99,,,0.00,0,rob ver 1A,2013-03-13 05:58:00,
2013-03-12 22:59:00,75.8,28.4,29.53,NW,309,7.4,9.2,17,-99.99,,,0.00,0,rob ver 1B,2013-03-13 05:59:00,
2013-03-12 23:00:00,75.6,28.4,29.53,NW,310,7.3,8.6,17,-99.99,,,0.00,0,rob ver 1B,2013-03-13 06:00:00,
2013-03-12 23:01:00,75.4,28.4,29.50,NW,313,7.3,8.4,17,-99.99,,,0.00,0,rob ver 1B,2013-03-13 06:01:00,
2013-03-12 23:02:00,75.3,28.4,29.50,NW,313,7.1,8.2,17,-99.99,,,0.00,0,rob ver 1B,2013-03-13 06:02:00,
2013-03-12 23:03:00,65.4,26.5,29.53,NE,34,0.2,0.5,22,-99.99,,,0.00,0,rob ver 1A,2013-03-13 06:03:00,
2013-03-12 23:04:00,75.1,28.5,29.53,NW,309,6.5,7.6,17,-99.99,,,0.00,0,rob ver 1B,2013-03-13 06:04:00,
2013-03-12 23:05:00,75.1,28.4,29.53,WNW,300,6.2,7.3,17,-99.99,,,0.00,0,rob ver 1B,2013-03-13 06:05:00,
2013-03-12 23:06:00,75.0,28.4,29.53,WNW,288,5.7,6.6,17,-99.99,,,0.00,0,rob ver 1B,2013-03-13 06:06:00,
2013-03-12 23:07:00,74.6,28.5,29.50,West,279,4.2,5.6,18,-99.99,,,0.00,0,rob ver 1B,2013-03-13 06:07:00,
2013-03-12 23:08:00,73.8,28.6,29.50,WNW,286,4.3,5.3,18,-99.99,,,0.00,0,rob ver 1B,2013-03-13 06:08:00,
2013-03-12 23:09:00,65.2,26.4,29.53,SW,218,0.5,1.7,22,-99.99,,,0.00,0,rob ver 1A,2013-03-13 06:09:00,
2013-03-12 23:10:00,73.6,28.5,29.53,NW,310,5.5,6.7,18,-99.99,,,0.00,0,rob ver 1B,2013-03-13 06:10:00,
2013-03-12 23:11:00,74.0,28.6,29.53,NW,311,5.2,6.3,18,-99.99,,,0.00,0,rob ver 1B,2013-03-13 06:11:00,
2013-03-12 23:12:00,74.1,28.6,29.50,NW,318,5.2,6.4,18,-99.99,,,0.00,0,rob ver 1B,2013-03-13 06:12:00,
2013-03-12 23:13:00,74.2,28.6,29.50,NW,320,5.5,7.0,18,-99.99,,,0.00,0,rob ver 1B,2013-03-13 06:13:00,
2013-03-12 23:14:00,65.4,26.5,29.53,East,81,0.4,0.6,22,-99.99,,,0.00,0,rob ver 1A,2013-03-13 06:14:00,
2013-03-12 23:15:00,74.2,28.6,29.50,NW,321,5.9,7.0,18,-99.99,,,0.00,0,rob ver 1B,2013-03-13 06:15:00,
2013-03-12 23:16:00,74.2,28.5,29.53,NW,323,5.9,7.4,18,-99.99,,,0.00,0,rob ver 1B,2013-03-13 06:16:00,
2013-03-12 23:17:00,74.4,28.4,29.53,NW,323,6.8,7.9,18,-99.99,,,0.00,0,rob ver 1B,2013-03-13 06:17:00,
2013-03-12 23:18:00,74.8,28.4,29.50,NW,323,6.7,7.7,17,-99.99,,,0.00,0,rob ver 1B,2013-03-13 06:18:00,
2013-03-12 23:19:00,65.6,26.3,29.53,NNW,347,1.0,1.5,22,-99.99,,,0.00,0,rob ver 1A,2013-03-13 06:19:00,
2013-03-12 23:20:00,75.3,28.3,29.50,NNW,327,5.8,7.1,17,-99.99,,,0.00,0,rob ver 1B,2013-03-13 06:20:00,
2013-03-12 23:21:00,75.3,28.3,29.50,NW,325,6.1,7.2,17,-99.99,,,0.00,0,rob ver 1B,2013-03-13 06:21:00,
2013-03-12 23:22:00,75.5,28.2,29.50,NW,326,6.1,7.4,17,-99.99,,,0.00,0,rob ver 1B,2013-03-13 06:22:00,
2013-03-12 23:23:00,75.6,28.2,29.50,NW,326,5.5,6.5,17,-99.99,,,0.00,0,rob ver 1B,2013-03-13 06:23:00,
2013-03-12 23:24:00,66.4,26.2,29.53,North,11,1.4,1.6,21,-99.99,,,0.00,0,rob ver 1A,2013-03-13 06:24:00,
2013-03-12 23:25:00,75.4,28.2,29.50,NW,318,4.5,6.0,17,-99.99,,,0.00,0,rob ver 1B,2013-03-13 06:25:00,
2013-03-12 23:26:00,75.1,28.3,29.50,WNW,297,3.4,5.1,17,-99.99,,,0.00,0,rob ver 1B,2013-03-13 06:26:00,
2013-03-12 23:27:00,74.5,28.5,29.50,West,259,3.2,3.4,18,-99.99,,,0.00,0,rob ver 1B,2013-03-13 06:27:00,
2013-03-12 23:28:00,73.7,28.4,29.50,West,260,3.4,4.0,18,-99.99,,,0.00,0,rob ver 1B,2013-03-13 06:28:00,
2013-03-12 23:29:00,66.7,26.1,29.53,North,353,0.3,0.7,21,-99.99,,,0.00,0,rob ver 1A,2013-03-13 06:29:00,
2013-03-12 23:30:00,72.7,28.4,29.50,West,279,4.3,5.2,19,-99.99,,,0.00,0,rob ver 1B,2013-03-13 06:30:00,
2013-03-12 23:31:00,72.9,28.3,29.50,WNW,299,4.5,5.1,18,-99.99,,,0.00,0,rob ver 1B,2013-03-13 06:31:00,
2013-03-12 23:32:00,73.4,28.3,29.50,NW,304,4.7,5.4,18,-99.99,,,0.00,0,rob ver 1B,2013-03-13 06:32:00,
2013-03-12 23:33:00,73.8,28.3,29.50,NW,305,4.5,5.1,18,-99.99,,,0.00,0,rob ver 1B,2013-03-13 06:33:00,
2013-03-12 23:34:00,66.7,26.1,29.53,ENE,57,1.3,1.5,21,-99.99,,,0.00,0,rob ver 1A,2013-03-13 06:34:00,
2013-03-12 23:35:00,74.0,28.3,29.50,NW,313,4.9,6.0,18,-99.99,,,0.00,0,rob ver 1B,2013-03-13 06:35:00,
2013-03-12 23:36:00,74.1,28.3,29.50,NW,316,4.6,5.2,18,-99.99,,,0.00,0,rob ver 1B,2013-03-13 06:36:00,
2013-03-12 23:37:00,74.0,28.3,29.50,NW,318,4.7,5.5,18,-99.99,,,0.00,0,rob ver 1B,2013-03-13 06:37:00,
2013-03-12 23:38:00,74.0,28.3,29.50,NW,319,4.6,5.8,18,-99.99,,,0.00,0,rob ver 1B,2013-03-13 06:38:00,
2013-03-12 23:39:00,67.0,26.2,29.53,ENE,62,0.6,0.7,21,-99.99,,,0.00,0,rob ver 1A,2013-03-13 06:39:00,
2013-03-12 23:40:00,73.9,28.3,29.50,NW,323,4.1,5.3,18,-99.99,,,0.00,0,rob ver 1B,2013-03-13 06:40:00,
2013-03-12 23:41:00,73.9,28.3,29.50,NNW,327,3.9,4.6,18,-99.99,,,0.00,0,rob ver 1B,2013-03-13 06:41:00,
2013-03-12 23:42:00,73.8,28.3,29.50,NW,324,5.1,7.0,18,-99.99,,,0.00,0,rob ver 1B,2013-03-13 06:42:00,
2013-03-12 23:43:00,74.0,28.2,29.50,NW,324,5.7,6.6,18,-99.99,,,0.00,0,rob ver 1B,2013-03-13 06:43:00,
2013-03-12 23:44:00,67.2,25.9,29.53,NNE,21,2.5,3.4,20,-99.99,,,0.00,0,rob ver 1A,2013-03-13 06:44:00,
2013-03-12 23:45:00,74.5,28.1,29.50,NW,323,5.9,7.1,17,-99.99,,,0.00,0,rob ver 1B,2013-03-13 06:45:00,
2013-03-12 23:46:00,74.8,28.1,29.50,NW,323,5.6,6.8,17,-99.99,,,0.00,0,rob ver 1B,2013-03-13 06:46:00,
2013-03-12 23:47:00,75.0,28.1,29.50,NW,322,5.1,6.0,17,-99.99,,,0.00,0,rob ver 1B,2013-03-13 06:47:00,
2013-03-12 23:48:00,75.0,28.0,29.50,NW,321,5.0,6.6,17,-99.99,,,0.00,0,rob ver 1B,2013-03-13 06:48:00,
2013-03-12 23:49:00,67.8,25.8,29.53,North,7,4.0,4.4,20,-99.99,,,0.00,0,rob ver 1A,2013-03-13 06:49:00,
2013-03-12 23:50:00,75.3,27.9,29.50,NW,321,5.0,7.0,17,-99.99,,,0.00,0,rob ver 1B,2013-03-13 06:50:00,
2013-03-12 23:51:00,75.4,27.9,29.50,NW,318,5.3,6.4,17,-99.99,,,0.00,0,rob ver 1B,2013-03-13 06:51:00,
2013-03-12 23:52:00,75.5,27.9,29.50,NW,309,4.9,6.1,17,-99.99,,,0.00,0,rob ver 1B,2013-03-13 06:52:00,
2013-03-12 23:53:00,75.0,28.2,29.50,WSW,253,2.4,3.4,18,-99.99,,,0.00,0,rob ver 1B,2013-03-13 06:53:00,
2013-03-12 23:54:00,67.8,25.8,29.53,NNW,346,2.8,3.0,20,-99.99,,,0.00,0,rob ver 1A,2013-03-13 06:54:00,
2013-03-12 23:55:00,72.7,28.2,29.50,WSW,243,1.9,2.7,19,-99.99,,,0.00,0,rob ver 1B,2013-03-13 06:55:00,
2013-03-12 23:56:00,72.1,28.1,29.50,WSW,258,1.0,1.9,19,-99.99,,,0.00,0,rob ver 1B,2013-03-13 06:56:00,
2013-03-12 23:57:00,71.7,28.2,29.50,WSW,247,1.6,2.1,19,-99.99,,,0.00,0,rob ver 1B,2013-03-13 06:57:00,
2013-03-12 23:58:00,71.4,28.2,29.50,SW,225,1.3,2.0,20,-99.99,,,0.00,0,rob ver 1B,2013-03-13 06:58:00,
2013-03-12 23:59:00,67.9,25.9,29.53,NW,322,2.3,2.5,20,-99.99,,,0.00,0,rob ver 1A,2013-03-13 06:59:00,